<?xml version='1.0' encoding='UTF-8'?>
<gpx xmlns:xsi="http://www.w3.org/2001/XMLSchema-instance" xmlns="http://www.topografix.com/GPX/1/0" xsi:schemaLocation="http://www.topografix.com/GPX/1/0 http://www.topografix.com/GPX/1/0/gpx.xsd" version="1.0" creator="https://map.search.ch/"><name>Route von Grandson nach Neuchâtel</name>
<url>https://map.search.ch/Grandson..Neuch%C3%A2tel?mode=bicycle</url>
<trk><name>Route von Grandson nach Neuchâtel</name>
<trkseg><trkpt lat="46.809963" lon="6.648683"><ele>432.1</ele>
<time>2022-05-16T15:41:44.000000+02:00</time>
</trkpt>
<trkpt lat="46.810024" lon="6.648787"><ele>432</ele>
<time>2022-05-16T15:41:46.200000+02:00</time>
</trkpt>
<trkpt lat="46.810139" lon="6.648972"><ele>431.8</ele>
<time>2022-05-16T15:41:50.300000+02:00</time>
</trkpt>
<trkpt lat="46.810139" lon="6.648972"><ele>431.8</ele>
<time>2022-05-16T15:41:50.300000+02:00</time>
</trkpt>
<trkpt lat="46.810348" lon="6.649311"><ele>431.5</ele>
<time>2022-05-16T15:41:57.300000+02:00</time>
</trkpt>
<trkpt lat="46.810558" lon="6.649649"><ele>431.5</ele>
<time>2022-05-16T15:42:05.700000+02:00</time>
</trkpt>
<trkpt lat="46.810709" lon="6.649897"><ele>431.8</ele>
<time>2022-05-16T15:42:12.100000+02:00</time>
</trkpt>
<trkpt lat="46.810894" lon="6.650201"><ele>432.1</ele>
<time>2022-05-16T15:42:20.000000+02:00</time>
</trkpt>
<trkpt lat="46.811162" lon="6.650628"><ele>432.2</ele>
<time>2022-05-16T15:42:30.600000+02:00</time>
</trkpt>
<trkpt lat="46.811392" lon="6.650989"><ele>432.4</ele>
<time>2022-05-16T15:42:39.700000+02:00</time>
</trkpt>
<trkpt lat="46.811581" lon="6.651291"><ele>432.4</ele>
<time>2022-05-16T15:42:47.200000+02:00</time>
</trkpt>
<trkpt lat="46.811771" lon="6.651597"><ele>432.5</ele>
<time>2022-05-16T15:42:54.800000+02:00</time>
</trkpt>
<trkpt lat="46.811851" lon="6.651736"><ele>432.5</ele>
<time>2022-05-16T15:42:58.100000+02:00</time>
</trkpt>
<trkpt lat="46.811922" lon="6.651875"><ele>432.6</ele>
<time>2022-05-16T15:43:01.300000+02:00</time>
</trkpt>
<trkpt lat="46.812013" lon="6.652075"><ele>432.6</ele>
<time>2022-05-16T15:43:05.700000+02:00</time>
</trkpt>
<trkpt lat="46.812103" lon="6.652256"><ele>432.5</ele>
<time>2022-05-16T15:43:09.800000+02:00</time>
</trkpt>
<trkpt lat="46.812272" lon="6.652624"><ele>432.5</ele>
<time>2022-05-16T15:43:18.000000+02:00</time>
</trkpt>
<trkpt lat="46.812442" lon="6.652994"><ele>432.5</ele>
<time>2022-05-16T15:43:26.200000+02:00</time>
</trkpt>
<trkpt lat="46.812442" lon="6.652994"><ele>432.5</ele>
<time>2022-05-16T15:43:26.200000+02:00</time>
</trkpt>
<trkpt lat="46.812558" lon="6.653222"><ele>432.6</ele>
<time>2022-05-16T15:43:31.200000+02:00</time>
</trkpt>
<trkpt lat="46.812794" lon="6.653619"><ele>432.5</ele>
<time>2022-05-16T15:43:40.600000+02:00</time>
</trkpt>
<trkpt lat="46.81303" lon="6.654015"><ele>432.3</ele>
<time>2022-05-16T15:43:49.900000+02:00</time>
</trkpt>
<trkpt lat="46.81303" lon="6.654015"><ele>432.3</ele>
<time>2022-05-16T15:43:49.900000+02:00</time>
</trkpt>
<trkpt lat="46.813178" lon="6.654265"><ele>432.3</ele>
<time>2022-05-16T15:43:56.100000+02:00</time>
</trkpt>
<trkpt lat="46.813333" lon="6.654544"><ele>432.4</ele>
<time>2022-05-16T15:44:02.800000+02:00</time>
</trkpt>
<trkpt lat="46.813472" lon="6.654806"><ele>432.3</ele>
<time>2022-05-16T15:44:08.900000+02:00</time>
</trkpt>
<trkpt lat="46.813495" lon="6.654856"><ele>432.3</ele>
<time>2022-05-16T15:44:10.100000+02:00</time>
</trkpt>
<trkpt lat="46.813516" lon="6.654912"><ele>432.3</ele>
<time>2022-05-16T15:44:11.300000+02:00</time>
</trkpt>
<trkpt lat="46.81355" lon="6.655"><ele>432.4</ele>
<time>2022-05-16T15:44:13.200000+02:00</time>
</trkpt>
<trkpt lat="46.81358" lon="6.65509"><ele>432.3</ele>
<time>2022-05-16T15:44:14.800000+02:00</time>
</trkpt>
<trkpt lat="46.813604" lon="6.65516"><ele>432.4</ele>
<time>2022-05-16T15:44:16.300000+02:00</time>
</trkpt>
<trkpt lat="46.813622" lon="6.655216"><ele>432.5</ele>
<time>2022-05-16T15:44:17.500000+02:00</time>
</trkpt>
<trkpt lat="46.813642" lon="6.65526"><ele>432.6</ele>
<time>2022-05-16T15:44:18.600000+02:00</time>
</trkpt>
<trkpt lat="46.813702" lon="6.655351"><ele>432.3</ele>
<time>2022-05-16T15:44:20.300000+02:00</time>
</trkpt>
<trkpt lat="46.81376" lon="6.655432"><ele>432</ele>
<time>2022-05-16T15:44:21.900000+02:00</time>
</trkpt>
<trkpt lat="46.81382" lon="6.655537"><ele>431.9</ele>
<time>2022-05-16T15:44:24.000000+02:00</time>
</trkpt>
<trkpt lat="46.813922" lon="6.655715"><ele>432</ele>
<time>2022-05-16T15:44:28.200000+02:00</time>
</trkpt>
<trkpt lat="46.814028" lon="6.655898"><ele>432</ele>
<time>2022-05-16T15:44:32.600000+02:00</time>
</trkpt>
<trkpt lat="46.814109" lon="6.656045"><ele>432</ele>
<time>2022-05-16T15:44:36.100000+02:00</time>
</trkpt>
<trkpt lat="46.814153" lon="6.656128"><ele>432</ele>
<time>2022-05-16T15:44:38.000000+02:00</time>
</trkpt>
<trkpt lat="46.814169" lon="6.656176"><ele>432</ele>
<time>2022-05-16T15:44:39.000000+02:00</time>
</trkpt>
<trkpt lat="46.814203" lon="6.656265"><ele>431.9</ele>
<time>2022-05-16T15:44:40.500000+02:00</time>
</trkpt>
<trkpt lat="46.814254" lon="6.656429"><ele>431.9</ele>
<time>2022-05-16T15:44:43.800000+02:00</time>
</trkpt>
<trkpt lat="46.81428" lon="6.65655"><ele>431.8</ele>
<time>2022-05-16T15:44:45.800000+02:00</time>
</trkpt>
<trkpt lat="46.814344" lon="6.65682"><ele>431.9</ele>
<time>2022-05-16T15:44:51.000000+02:00</time>
</trkpt>
<trkpt lat="46.814502" lon="6.657378"><ele>431.9</ele>
<time>2022-05-16T15:45:02.100000+02:00</time>
</trkpt>
<trkpt lat="46.814538" lon="6.65747"><ele>431.9</ele>
<time>2022-05-16T15:45:04.000000+02:00</time>
</trkpt>
<trkpt lat="46.814572" lon="6.657545"><ele>431.9</ele>
<time>2022-05-16T15:45:05.700000+02:00</time>
</trkpt>
<trkpt lat="46.814606" lon="6.657612"><ele>431.9</ele>
<time>2022-05-16T15:45:07.200000+02:00</time>
</trkpt>
<trkpt lat="46.814637" lon="6.65766"><ele>431.8</ele>
<time>2022-05-16T15:45:08.200000+02:00</time>
</trkpt>
<trkpt lat="46.814667" lon="6.657698"><ele>431.9</ele>
<time>2022-05-16T15:45:09.400000+02:00</time>
</trkpt>
<trkpt lat="46.814701" lon="6.657731"><ele>431.9</ele>
<time>2022-05-16T15:45:10.400000+02:00</time>
</trkpt>
<trkpt lat="46.814766" lon="6.657787"><ele>431.9</ele>
<time>2022-05-16T15:45:12.500000+02:00</time>
</trkpt>
<trkpt lat="46.814808" lon="6.65781"><ele>432</ele>
<time>2022-05-16T15:45:13.700000+02:00</time>
</trkpt>
<trkpt lat="46.814851" lon="6.657823"><ele>432</ele>
<time>2022-05-16T15:45:14.900000+02:00</time>
</trkpt>
<trkpt lat="46.814907" lon="6.657839"><ele>432.1</ele>
<time>2022-05-16T15:45:16.500000+02:00</time>
</trkpt>
<trkpt lat="46.814963" lon="6.657857"><ele>432</ele>
<time>2022-05-16T15:45:17.800000+02:00</time>
</trkpt>
<trkpt lat="46.815027" lon="6.657871"><ele>432</ele>
<time>2022-05-16T15:45:19.500000+02:00</time>
</trkpt>
<trkpt lat="46.815056" lon="6.657883"><ele>431.9</ele>
<time>2022-05-16T15:45:20.100000+02:00</time>
</trkpt>
<trkpt lat="46.81508" lon="6.657901"><ele>431.9</ele>
<time>2022-05-16T15:45:20.800000+02:00</time>
</trkpt>
<trkpt lat="46.815104" lon="6.657925"><ele>431.9</ele>
<time>2022-05-16T15:45:21.600000+02:00</time>
</trkpt>
<trkpt lat="46.815133" lon="6.657963"><ele>431.8</ele>
<time>2022-05-16T15:45:22.400000+02:00</time>
</trkpt>
<trkpt lat="46.815158" lon="6.658007"><ele>431.8</ele>
<time>2022-05-16T15:45:23.500000+02:00</time>
</trkpt>
<trkpt lat="46.815205" lon="6.658098"><ele>431.8</ele>
<time>2022-05-16T15:45:25.600000+02:00</time>
</trkpt>
<trkpt lat="46.815245" lon="6.658181"><ele>431.7</ele>
<time>2022-05-16T15:45:27.100000+02:00</time>
</trkpt>
<trkpt lat="46.815289" lon="6.658292"><ele>431.6</ele>
<time>2022-05-16T15:45:29.100000+02:00</time>
</trkpt>
<trkpt lat="46.815377" lon="6.658508"><ele>431.5</ele>
<time>2022-05-16T15:45:33.700000+02:00</time>
</trkpt>
<trkpt lat="46.815418" lon="6.658586"><ele>431.4</ele>
<time>2022-05-16T15:45:35.200000+02:00</time>
</trkpt>
<trkpt lat="46.815452" lon="6.658637"><ele>431.4</ele>
<time>2022-05-16T15:45:36.500000+02:00</time>
</trkpt>
<trkpt lat="46.81549" lon="6.658688"><ele>431.4</ele>
<time>2022-05-16T15:45:37.900000+02:00</time>
</trkpt>
<trkpt lat="46.815656" lon="6.658865"><ele>431.3</ele>
<time>2022-05-16T15:45:43.400000+02:00</time>
</trkpt>
<trkpt lat="46.815768" lon="6.658988"><ele>431.3</ele>
<time>2022-05-16T15:45:47.100000+02:00</time>
</trkpt>
<trkpt lat="46.816031" lon="6.659264"><ele>431.3</ele>
<time>2022-05-16T15:45:55.800000+02:00</time>
</trkpt>
<trkpt lat="46.816316" lon="6.659521"><ele>431.2</ele>
<time>2022-05-16T15:46:04.700000+02:00</time>
</trkpt>
<trkpt lat="46.8166" lon="6.659779"><ele>431.4</ele>
<time>2022-05-16T15:46:13.700000+02:00</time>
</trkpt>
<trkpt lat="46.816664" lon="6.659846"><ele>431.3</ele>
<time>2022-05-16T15:46:15.400000+02:00</time>
</trkpt>
<trkpt lat="46.816727" lon="6.659937"><ele>431.3</ele>
<time>2022-05-16T15:46:17.800000+02:00</time>
</trkpt>
<trkpt lat="46.816765" lon="6.660033"><ele>431.1</ele>
<time>2022-05-16T15:46:19.500000+02:00</time>
</trkpt>
<trkpt lat="46.816788" lon="6.660102"><ele>431</ele>
<time>2022-05-16T15:46:20.700000+02:00</time>
</trkpt>
<trkpt lat="46.81686" lon="6.660324"><ele>430.9</ele>
<time>2022-05-16T15:46:25.200000+02:00</time>
</trkpt>
<trkpt lat="46.816894" lon="6.660428"><ele>430.9</ele>
<time>2022-05-16T15:46:27.300000+02:00</time>
</trkpt>
<trkpt lat="46.817063" lon="6.660941"><ele>430.8</ele>
<time>2022-05-16T15:46:37.500000+02:00</time>
</trkpt>
<trkpt lat="46.817233" lon="6.661454"><ele>430.9</ele>
<time>2022-05-16T15:46:47.800000+02:00</time>
</trkpt>
<trkpt lat="46.817404" lon="6.661966"><ele>431.1</ele>
<time>2022-05-16T15:46:58.100000+02:00</time>
</trkpt>
<trkpt lat="46.817574" lon="6.662479"><ele>430.8</ele>
<time>2022-05-16T15:47:08.400000+02:00</time>
</trkpt>
<trkpt lat="46.817744" lon="6.662991"><ele>430.5</ele>
<time>2022-05-16T15:47:18.600000+02:00</time>
</trkpt>
<trkpt lat="46.817914" lon="6.663504"><ele>430.5</ele>
<time>2022-05-16T15:47:28.900000+02:00</time>
</trkpt>
<trkpt lat="46.818046" lon="6.663887"><ele>430.7</ele>
<time>2022-05-16T15:47:36.600000+02:00</time>
</trkpt>
<trkpt lat="46.818201" lon="6.664378"><ele>430.8</ele>
<time>2022-05-16T15:47:46.400000+02:00</time>
</trkpt>
<trkpt lat="46.818309" lon="6.664693"><ele>430.9</ele>
<time>2022-05-16T15:47:52.700000+02:00</time>
</trkpt>
<trkpt lat="46.818309" lon="6.664693"><ele>430.9</ele>
<time>2022-05-16T15:47:52.800000+02:00</time>
</trkpt>
<trkpt lat="46.818378" lon="6.664864"><ele>431.4</ele>
<time>2022-05-16T15:47:57.000000+02:00</time>
</trkpt>
<trkpt lat="46.818412" lon="6.66496"><ele>431.8</ele>
<time>2022-05-16T15:47:59.700000+02:00</time>
</trkpt>
<trkpt lat="46.818434" lon="6.665032"><ele>431.7</ele>
<time>2022-05-16T15:48:00.900000+02:00</time>
</trkpt>
<trkpt lat="46.818492" lon="6.665245"><ele>431.7</ele>
<time>2022-05-16T15:48:05.100000+02:00</time>
</trkpt>
<trkpt lat="46.818661" lon="6.665781"><ele>432</ele>
<time>2022-05-16T15:48:15.900000+02:00</time>
</trkpt>
<trkpt lat="46.818661" lon="6.665781"><ele>432</ele>
<time>2022-05-16T15:48:15.900000+02:00</time>
</trkpt>
<trkpt lat="46.818767" lon="6.666081"><ele>432</ele>
<time>2022-05-16T15:48:22.000000+02:00</time>
</trkpt>
<trkpt lat="46.818874" lon="6.666382"><ele>432.1</ele>
<time>2022-05-16T15:48:28.200000+02:00</time>
</trkpt>
<trkpt lat="46.818979" lon="6.666685"><ele>432</ele>
<time>2022-05-16T15:48:34.300000+02:00</time>
</trkpt>
<trkpt lat="46.819083" lon="6.666986"><ele>432</ele>
<time>2022-05-16T15:48:40.400000+02:00</time>
</trkpt>
<trkpt lat="46.819206" lon="6.667337"><ele>432.1</ele>
<time>2022-05-16T15:48:47.500000+02:00</time>
</trkpt>
<trkpt lat="46.819331" lon="6.667687"><ele>432.1</ele>
<time>2022-05-16T15:48:54.700000+02:00</time>
</trkpt>
<trkpt lat="46.81945" lon="6.668058"><ele>432.1</ele>
<time>2022-05-16T15:49:02.100000+02:00</time>
</trkpt>
<trkpt lat="46.819568" lon="6.668428"><ele>432</ele>
<time>2022-05-16T15:49:09.400000+02:00</time>
</trkpt>
<trkpt lat="46.819658" lon="6.668717"><ele>431.9</ele>
<time>2022-05-16T15:49:15.200000+02:00</time>
</trkpt>
<trkpt lat="46.819755" lon="6.669066"><ele>431.8</ele>
<time>2022-05-16T15:49:22.000000+02:00</time>
</trkpt>
<trkpt lat="46.81981" lon="6.669363"><ele>431.8</ele>
<time>2022-05-16T15:49:27.600000+02:00</time>
</trkpt>
<trkpt lat="46.81981" lon="6.669363"><ele>431.8</ele>
<time>2022-05-16T15:49:27.600000+02:00</time>
</trkpt>
<trkpt lat="46.819844" lon="6.669588"><ele>431.7</ele>
<time>2022-05-16T15:49:31.500000+02:00</time>
</trkpt>
<trkpt lat="46.819844" lon="6.669588"><ele>431.7</ele>
<time>2022-05-16T15:49:31.500000+02:00</time>
</trkpt>
<trkpt lat="46.819898" lon="6.669898"><ele>431.9</ele>
<time>2022-05-16T15:49:37.400000+02:00</time>
</trkpt>
<trkpt lat="46.819963" lon="6.670139"><ele>431.8</ele>
<time>2022-05-16T15:49:42.200000+02:00</time>
</trkpt>
<trkpt lat="46.820027" lon="6.670453"><ele>431.5</ele>
<time>2022-05-16T15:49:47.300000+02:00</time>
</trkpt>
<trkpt lat="46.820039" lon="6.670543"><ele>431.5</ele>
<time>2022-05-16T15:49:49.000000+02:00</time>
</trkpt>
<trkpt lat="46.820045" lon="6.670601"><ele>431.4</ele>
<time>2022-05-16T15:49:49.900000+02:00</time>
</trkpt>
<trkpt lat="46.82006" lon="6.670762"><ele>431.5</ele>
<time>2022-05-16T15:49:52.900000+02:00</time>
</trkpt>
<trkpt lat="46.820065" lon="6.670806"><ele>431.4</ele>
<time>2022-05-16T15:49:53.500000+02:00</time>
</trkpt>
<trkpt lat="46.820075" lon="6.670969"><ele>431.4</ele>
<time>2022-05-16T15:49:56.500000+02:00</time>
</trkpt>
<trkpt lat="46.820081" lon="6.671118"><ele>431.2</ele>
<time>2022-05-16T15:49:58.700000+02:00</time>
</trkpt>
<trkpt lat="46.820081" lon="6.671118"><ele>431.2</ele>
<time>2022-05-16T15:49:58.700000+02:00</time>
</trkpt>
<trkpt lat="46.820089" lon="6.671296"><ele>431.2</ele>
<time>2022-05-16T15:50:01.900000+02:00</time>
</trkpt>
<trkpt lat="46.820063" lon="6.671752"><ele>431</ele>
<time>2022-05-16T15:50:09.800000+02:00</time>
</trkpt>
<trkpt lat="46.820061" lon="6.671954"><ele>431</ele>
<time>2022-05-16T15:50:13.300000+02:00</time>
</trkpt>
<trkpt lat="46.820073" lon="6.67211"><ele>431</ele>
<time>2022-05-16T15:50:16.100000+02:00</time>
</trkpt>
<trkpt lat="46.820085" lon="6.672436"><ele>430.8</ele>
<time>2022-05-16T15:50:21.800000+02:00</time>
</trkpt>
<trkpt lat="46.820099" lon="6.672598"><ele>430.7</ele>
<time>2022-05-16T15:50:24.600000+02:00</time>
</trkpt>
<trkpt lat="46.820099" lon="6.672598"><ele>430.7</ele>
<time>2022-05-16T15:50:24.600000+02:00</time>
</trkpt>
<trkpt lat="46.820124" lon="6.672776"><ele>430.6</ele>
<time>2022-05-16T15:50:27.900000+02:00</time>
</trkpt>
<trkpt lat="46.820137" lon="6.672893"><ele>430.7</ele>
<time>2022-05-16T15:50:30.100000+02:00</time>
</trkpt>
<trkpt lat="46.82014" lon="6.673106"><ele>430.6</ele>
<time>2022-05-16T15:50:33.900000+02:00</time>
</trkpt>
<trkpt lat="46.820143" lon="6.673165"><ele>430.6</ele>
<time>2022-05-16T15:50:35.000000+02:00</time>
</trkpt>
<trkpt lat="46.820166" lon="6.673254"><ele>430.7</ele>
<time>2022-05-16T15:50:36.700000+02:00</time>
</trkpt>
<trkpt lat="46.820202" lon="6.673349"><ele>430.8</ele>
<time>2022-05-16T15:50:38.800000+02:00</time>
</trkpt>
<trkpt lat="46.820202" lon="6.673349"><ele>430.8</ele>
<time>2022-05-16T15:50:38.800000+02:00</time>
</trkpt>
<trkpt lat="46.820234" lon="6.673446"><ele>430.8</ele>
<time>2022-05-16T15:50:40.800000+02:00</time>
</trkpt>
<trkpt lat="46.820258" lon="6.673521"><ele>430.8</ele>
<time>2022-05-16T15:50:42.300000+02:00</time>
</trkpt>
<trkpt lat="46.820305" lon="6.673589"><ele>430.7</ele>
<time>2022-05-16T15:50:44.900000+02:00</time>
</trkpt>
<trkpt lat="46.820445" lon="6.673702"><ele>430.7</ele>
<time>2022-05-16T15:50:49.200000+02:00</time>
</trkpt>
<trkpt lat="46.82051" lon="6.673733"><ele>430.6</ele>
<time>2022-05-16T15:50:50.700000+02:00</time>
</trkpt>
<trkpt lat="46.820563" lon="6.673773"><ele>430.6</ele>
<time>2022-05-16T15:50:52.300000+02:00</time>
</trkpt>
<trkpt lat="46.820758" lon="6.673881"><ele>430.5</ele>
<time>2022-05-16T15:50:57.900000+02:00</time>
</trkpt>
<trkpt lat="46.820807" lon="6.673908"><ele>430.6</ele>
<time>2022-05-16T15:50:59.300000+02:00</time>
</trkpt>
<trkpt lat="46.820846" lon="6.673928"><ele>430.7</ele>
<time>2022-05-16T15:51:00.500000+02:00</time>
</trkpt>
<trkpt lat="46.821089" lon="6.674053"><ele>430.9</ele>
<time>2022-05-16T15:51:07.300000+02:00</time>
</trkpt>
<trkpt lat="46.821141" lon="6.674097"><ele>430.9</ele>
<time>2022-05-16T15:51:08.900000+02:00</time>
</trkpt>
<trkpt lat="46.821251" lon="6.674222"><ele>431.5</ele>
<time>2022-05-16T15:51:13.300000+02:00</time>
</trkpt>
<trkpt lat="46.821347" lon="6.674341"><ele>431.5</ele>
<time>2022-05-16T15:51:16.600000+02:00</time>
</trkpt>
<trkpt lat="46.821378" lon="6.674395"><ele>431.5</ele>
<time>2022-05-16T15:51:17.900000+02:00</time>
</trkpt>
<trkpt lat="46.821421" lon="6.674471"><ele>431.3</ele>
<time>2022-05-16T15:51:19.300000+02:00</time>
</trkpt>
<trkpt lat="46.821485" lon="6.674592"><ele>431.3</ele>
<time>2022-05-16T15:51:22.100000+02:00</time>
</trkpt>
<trkpt lat="46.821525" lon="6.674661"><ele>431.3</ele>
<time>2022-05-16T15:51:23.700000+02:00</time>
</trkpt>
<trkpt lat="46.821559" lon="6.674715"><ele>431.3</ele>
<time>2022-05-16T15:51:25.000000+02:00</time>
</trkpt>
<trkpt lat="46.82164" lon="6.674895"><ele>431.2</ele>
<time>2022-05-16T15:51:28.900000+02:00</time>
</trkpt>
<trkpt lat="46.821731" lon="6.675078"><ele>431</ele>
<time>2022-05-16T15:51:32.300000+02:00</time>
</trkpt>
<trkpt lat="46.821883" lon="6.675361"><ele>430.7</ele>
<time>2022-05-16T15:51:37.700000+02:00</time>
</trkpt>
<trkpt lat="46.821977" lon="6.675564"><ele>430.5</ele>
<time>2022-05-16T15:51:41.400000+02:00</time>
</trkpt>
<trkpt lat="46.822175" lon="6.67587"><ele>430.5</ele>
<time>2022-05-16T15:51:49.100000+02:00</time>
</trkpt>
<trkpt lat="46.822259" lon="6.676"><ele>430.6</ele>
<time>2022-05-16T15:51:52.300000+02:00</time>
</trkpt>
<trkpt lat="46.822379" lon="6.676218"><ele>430.8</ele>
<time>2022-05-16T15:51:57.700000+02:00</time>
</trkpt>
<trkpt lat="46.822509" lon="6.676412"><ele>431</ele>
<time>2022-05-16T15:52:02.800000+02:00</time>
</trkpt>
<trkpt lat="46.822656" lon="6.676614"><ele>431.1</ele>
<time>2022-05-16T15:52:08.100000+02:00</time>
</trkpt>
<trkpt lat="46.822797" lon="6.676809"><ele>431.1</ele>
<time>2022-05-16T15:52:13.300000+02:00</time>
</trkpt>
<trkpt lat="46.822886" lon="6.676956"><ele>431.1</ele>
<time>2022-05-16T15:52:16.800000+02:00</time>
</trkpt>
<trkpt lat="46.822933" lon="6.677048"><ele>431</ele>
<time>2022-05-16T15:52:18.600000+02:00</time>
</trkpt>
<trkpt lat="46.823032" lon="6.677286"><ele>430.9</ele>
<time>2022-05-16T15:52:23.600000+02:00</time>
</trkpt>
<trkpt lat="46.823111" lon="6.677524"><ele>430.9</ele>
<time>2022-05-16T15:52:28.400000+02:00</time>
</trkpt>
<trkpt lat="46.82322" lon="6.67783"><ele>430.7</ele>
<time>2022-05-16T15:52:34.600000+02:00</time>
</trkpt>
<trkpt lat="46.823311" lon="6.67804"><ele>430.9</ele>
<time>2022-05-16T15:52:39.400000+02:00</time>
</trkpt>
<trkpt lat="46.823335" lon="6.678083"><ele>431</ele>
<time>2022-05-16T15:52:40.400000+02:00</time>
</trkpt>
<trkpt lat="46.823375" lon="6.678156"><ele>431.3</ele>
<time>2022-05-16T15:52:42.700000+02:00</time>
</trkpt>
<trkpt lat="46.823541" lon="6.678387"><ele>431.2</ele>
<time>2022-05-16T15:52:48.700000+02:00</time>
</trkpt>
<trkpt lat="46.823723" lon="6.678628"><ele>431</ele>
<time>2022-05-16T15:52:55.200000+02:00</time>
</trkpt>
<trkpt lat="46.823906" lon="6.678868"><ele>431</ele>
<time>2022-05-16T15:53:01.700000+02:00</time>
</trkpt>
<trkpt lat="46.824142" lon="6.679146"><ele>431.2</ele>
<time>2022-05-16T15:53:09.800000+02:00</time>
</trkpt>
<trkpt lat="46.824173" lon="6.679186"><ele>431.3</ele>
<time>2022-05-16T15:53:10.900000+02:00</time>
</trkpt>
<trkpt lat="46.824247" lon="6.679282"><ele>431.5</ele>
<time>2022-05-16T15:53:13.700000+02:00</time>
</trkpt>
<trkpt lat="46.824278" lon="6.679324"><ele>431.5</ele>
<time>2022-05-16T15:53:14.900000+02:00</time>
</trkpt>
<trkpt lat="46.824337" lon="6.679402"><ele>431.7</ele>
<time>2022-05-16T15:53:17.100000+02:00</time>
</trkpt>
<trkpt lat="46.824369" lon="6.679433"><ele>431.8</ele>
<time>2022-05-16T15:53:18.200000+02:00</time>
</trkpt>
<trkpt lat="46.824424" lon="6.679471"><ele>431.9</ele>
<time>2022-05-16T15:53:19.900000+02:00</time>
</trkpt>
<trkpt lat="46.824473" lon="6.679486"><ele>432</ele>
<time>2022-05-16T15:53:21.300000+02:00</time>
</trkpt>
<trkpt lat="46.824473" lon="6.679486"><ele>432</ele>
<time>2022-05-16T15:53:25.400000+02:00</time>
</trkpt>
<trkpt lat="46.824573" lon="6.679384"><ele>432</ele>
<time>2022-05-16T15:53:28.700000+02:00</time>
</trkpt>
<trkpt lat="46.824646" lon="6.679334"><ele>432</ele>
<time>2022-05-16T15:53:31.000000+02:00</time>
</trkpt>
<trkpt lat="46.824842" lon="6.67922"><ele>431.8</ele>
<time>2022-05-16T15:53:35.800000+02:00</time>
</trkpt>
<trkpt lat="46.824903" lon="6.679168"><ele>431.6</ele>
<time>2022-05-16T15:53:37.200000+02:00</time>
</trkpt>
<trkpt lat="46.824942" lon="6.679121"><ele>431.4</ele>
<time>2022-05-16T15:53:38.200000+02:00</time>
</trkpt>
<trkpt lat="46.824986" lon="6.679047"><ele>431.3</ele>
<time>2022-05-16T15:53:40.100000+02:00</time>
</trkpt>
<trkpt lat="46.825017" lon="6.678975"><ele>431.1</ele>
<time>2022-05-16T15:53:41.300000+02:00</time>
</trkpt>
<trkpt lat="46.825034" lon="6.678937"><ele>431.1</ele>
<time>2022-05-16T15:53:42.100000+02:00</time>
</trkpt>
<trkpt lat="46.825097" lon="6.678789"><ele>431.2</ele>
<time>2022-05-16T15:53:45.400000+02:00</time>
</trkpt>
<trkpt lat="46.825097" lon="6.678789"><ele>431.2</ele>
<time>2022-05-16T15:53:45.500000+02:00</time>
</trkpt>
<trkpt lat="46.825256" lon="6.678533"><ele>432.5</ele>
<time>2022-05-16T15:53:53.800000+02:00</time>
</trkpt>
<trkpt lat="46.825281" lon="6.678489"><ele>432.6</ele>
<time>2022-05-16T15:53:54.900000+02:00</time>
</trkpt>
<trkpt lat="46.825295" lon="6.678437"><ele>432.8</ele>
<time>2022-05-16T15:53:56.200000+02:00</time>
</trkpt>
<trkpt lat="46.825301" lon="6.678393"><ele>433.1</ele>
<time>2022-05-16T15:53:57.700000+02:00</time>
</trkpt>
<trkpt lat="46.825339" lon="6.678382"><ele>433.2</ele>
<time>2022-05-16T15:53:59.400000+02:00</time>
</trkpt>
<trkpt lat="46.825385" lon="6.678355"><ele>433.4</ele>
<time>2022-05-16T15:54:01.000000+02:00</time>
</trkpt>
<trkpt lat="46.825447" lon="6.678309"><ele>433.8</ele>
<time>2022-05-16T15:54:03.400000+02:00</time>
</trkpt>
<trkpt lat="46.825493" lon="6.678257"><ele>434</ele>
<time>2022-05-16T15:54:05.200000+02:00</time>
</trkpt>
<trkpt lat="46.82554" lon="6.678197"><ele>434.2</ele>
<time>2022-05-16T15:54:07.200000+02:00</time>
</trkpt>
<trkpt lat="46.825775" lon="6.677921"><ele>434.7</ele>
<time>2022-05-16T15:54:15.600000+02:00</time>
</trkpt>
<trkpt lat="46.826043" lon="6.677629"><ele>435</ele>
<time>2022-05-16T15:54:24.400000+02:00</time>
</trkpt>
<trkpt lat="46.826373" lon="6.677255"><ele>435.4</ele>
<time>2022-05-16T15:54:36.000000+02:00</time>
</trkpt>
<trkpt lat="46.826704" lon="6.676881"><ele>435.8</ele>
<time>2022-05-16T15:54:47.700000+02:00</time>
</trkpt>
<trkpt lat="46.827034" lon="6.676506"><ele>436.1</ele>
<time>2022-05-16T15:54:58.700000+02:00</time>
</trkpt>
<trkpt lat="46.827364" lon="6.676132"><ele>436.5</ele>
<time>2022-05-16T15:55:10.400000+02:00</time>
</trkpt>
<trkpt lat="46.827458" lon="6.67603"><ele>436.7</ele>
<time>2022-05-16T15:55:13.700000+02:00</time>
</trkpt>
<trkpt lat="46.827693" lon="6.675776"><ele>437.3</ele>
<time>2022-05-16T15:55:21.800000+02:00</time>
</trkpt>
<trkpt lat="46.827846" lon="6.6756"><ele>438.5</ele>
<time>2022-05-16T15:55:28.700000+02:00</time>
</trkpt>
<trkpt lat="46.8279" lon="6.675557"><ele>438.9</ele>
<time>2022-05-16T15:55:31.200000+02:00</time>
</trkpt>
<trkpt lat="46.827985" lon="6.675522"><ele>438.9</ele>
<time>2022-05-16T15:55:33.500000+02:00</time>
</trkpt>
<trkpt lat="46.827985" lon="6.675522"><ele>438.9</ele>
<time>2022-05-16T15:55:38.900000+02:00</time>
</trkpt>
<trkpt lat="46.828072" lon="6.675985"><ele>436.4</ele>
<time>2022-05-16T15:55:43.200000+02:00</time>
</trkpt>
<trkpt lat="46.828148" lon="6.676339"><ele>435.9</ele>
<time>2022-05-16T15:55:48.800000+02:00</time>
</trkpt>
<trkpt lat="46.828224" lon="6.676693"><ele>436.1</ele>
<time>2022-05-16T15:55:55.600000+02:00</time>
</trkpt>
<trkpt lat="46.828275" lon="6.67692"><ele>436.3</ele>
<time>2022-05-16T15:56:00.200000+02:00</time>
</trkpt>
<trkpt lat="46.8283" lon="6.676998"><ele>436.5</ele>
<time>2022-05-16T15:56:02.000000+02:00</time>
</trkpt>
<trkpt lat="46.828319" lon="6.677037"><ele>436.7</ele>
<time>2022-05-16T15:56:02.800000+02:00</time>
</trkpt>
<trkpt lat="46.82837" lon="6.677115"><ele>434.3</ele>
<time>2022-05-16T15:56:03.800000+02:00</time>
</trkpt>
<trkpt lat="46.82837" lon="6.677115"><ele>434.3</ele>
<time>2022-05-16T15:56:03.800000+02:00</time>
</trkpt>
<trkpt lat="46.828478" lon="6.67728"><ele>436.9</ele>
<time>2022-05-16T15:56:17.600000+02:00</time>
</trkpt>
<trkpt lat="46.828544" lon="6.677342"><ele>437</ele>
<time>2022-05-16T15:56:20.000000+02:00</time>
</trkpt>
<trkpt lat="46.828602" lon="6.677431"><ele>437.1</ele>
<time>2022-05-16T15:56:22.500000+02:00</time>
</trkpt>
<trkpt lat="46.828689" lon="6.67749"><ele>437.2</ele>
<time>2022-05-16T15:56:25.100000+02:00</time>
</trkpt>
<trkpt lat="46.828956" lon="6.677564"><ele>437.9</ele>
<time>2022-05-16T15:56:32.800000+02:00</time>
</trkpt>
<trkpt lat="46.829057" lon="6.677648"><ele>438.2</ele>
<time>2022-05-16T15:56:36.000000+02:00</time>
</trkpt>
<trkpt lat="46.829267" lon="6.678063"><ele>438.2</ele>
<time>2022-05-16T15:56:45.400000+02:00</time>
</trkpt>
<trkpt lat="46.829478" lon="6.678479"><ele>438.2</ele>
<time>2022-05-16T15:56:54.900000+02:00</time>
</trkpt>
<trkpt lat="46.829689" lon="6.678894"><ele>438.1</ele>
<time>2022-05-16T15:57:04.300000+02:00</time>
</trkpt>
<trkpt lat="46.8299" lon="6.679309"><ele>438.1</ele>
<time>2022-05-16T15:57:13.700000+02:00</time>
</trkpt>
<trkpt lat="46.8299" lon="6.679309"><ele>438.1</ele>
<time>2022-05-16T15:57:13.700000+02:00</time>
</trkpt>
<trkpt lat="46.830076" lon="6.679663"><ele>438.2</ele>
<time>2022-05-16T15:57:21.800000+02:00</time>
</trkpt>
<trkpt lat="46.830253" lon="6.680018"><ele>438.2</ele>
<time>2022-05-16T15:57:29.800000+02:00</time>
</trkpt>
<trkpt lat="46.830253" lon="6.680018"><ele>438.2</ele>
<time>2022-05-16T15:57:29.800000+02:00</time>
</trkpt>
<trkpt lat="46.83049" lon="6.680493"><ele>438.1</ele>
<time>2022-05-16T15:57:40.400000+02:00</time>
</trkpt>
<trkpt lat="46.830728" lon="6.680968"><ele>438.3</ele>
<time>2022-05-16T15:57:50.900000+02:00</time>
</trkpt>
<trkpt lat="46.830965" lon="6.681445"><ele>438.2</ele>
<time>2022-05-16T15:58:01.500000+02:00</time>
</trkpt>
<trkpt lat="46.831203" lon="6.681921"><ele>436.5</ele>
<time>2022-05-16T15:58:09.000000+02:00</time>
</trkpt>
<trkpt lat="46.831203" lon="6.681921"><ele>436.5</ele>
<time>2022-05-16T15:58:09.000000+02:00</time>
</trkpt>
<trkpt lat="46.831452" lon="6.682379"><ele>437.6</ele>
<time>2022-05-16T15:58:20.800000+02:00</time>
</trkpt>
<trkpt lat="46.831702" lon="6.682836"><ele>440.8</ele>
<time>2022-05-16T15:58:38.000000+02:00</time>
</trkpt>
<trkpt lat="46.831952" lon="6.683295"><ele>443.9</ele>
<time>2022-05-16T15:58:55.200000+02:00</time>
</trkpt>
<trkpt lat="46.832202" lon="6.683753"><ele>447.1</ele>
<time>2022-05-16T15:59:12.400000+02:00</time>
</trkpt>
<trkpt lat="46.832446" lon="6.684198"><ele>447.1</ele>
<time>2022-05-16T15:59:22.700000+02:00</time>
</trkpt>
<trkpt lat="46.832689" lon="6.684642"><ele>446.8</ele>
<time>2022-05-16T15:59:32.900000+02:00</time>
</trkpt>
<trkpt lat="46.832933" lon="6.685089"><ele>447.6</ele>
<time>2022-05-16T15:59:43.800000+02:00</time>
</trkpt>
<trkpt lat="46.833176" lon="6.685533"><ele>448.6</ele>
<time>2022-05-16T15:59:54.600000+02:00</time>
</trkpt>
<trkpt lat="46.83342" lon="6.685978"><ele>449.7</ele>
<time>2022-05-16T16:00:06.700000+02:00</time>
</trkpt>
<trkpt lat="46.833663" lon="6.686423"><ele>450.4</ele>
<time>2022-05-16T16:00:17.500000+02:00</time>
</trkpt>
<trkpt lat="46.833663" lon="6.686423"><ele>450.4</ele>
<time>2022-05-16T16:00:17.500000+02:00</time>
</trkpt>
<trkpt lat="46.83393" lon="6.68691"><ele>450.7</ele>
<time>2022-05-16T16:00:29.000000+02:00</time>
</trkpt>
<trkpt lat="46.834197" lon="6.687398"><ele>450.9</ele>
<time>2022-05-16T16:00:40.400000+02:00</time>
</trkpt>
<trkpt lat="46.834463" lon="6.687884"><ele>451.1</ele>
<time>2022-05-16T16:00:51.900000+02:00</time>
</trkpt>
<trkpt lat="46.834729" lon="6.688371"><ele>451.2</ele>
<time>2022-05-16T16:01:03.400000+02:00</time>
</trkpt>
<trkpt lat="46.834996" lon="6.688859"><ele>451.6</ele>
<time>2022-05-16T16:01:15.400000+02:00</time>
</trkpt>
<trkpt lat="46.835262" lon="6.689346"><ele>451.7</ele>
<time>2022-05-16T16:01:26.900000+02:00</time>
</trkpt>
<trkpt lat="46.835262" lon="6.689346"><ele>451.7</ele>
<time>2022-05-16T16:01:30.100000+02:00</time>
</trkpt>
<trkpt lat="46.835154" lon="6.689594"><ele>450.4</ele>
<time>2022-05-16T16:01:33.000000+02:00</time>
</trkpt>
<trkpt lat="46.835112" lon="6.689871"><ele>448.8</ele>
<time>2022-05-16T16:01:35.400000+02:00</time>
</trkpt>
<trkpt lat="46.835063" lon="6.690188"><ele>447.1</ele>
<time>2022-05-16T16:01:38.300000+02:00</time>
</trkpt>
<trkpt lat="46.834972" lon="6.690377"><ele>445.8</ele>
<time>2022-05-16T16:01:40.400000+02:00</time>
</trkpt>
<trkpt lat="46.834841" lon="6.69048"><ele>444.6</ele>
<time>2022-05-16T16:01:42.400000+02:00</time>
</trkpt>
<trkpt lat="46.83467" lon="6.690512"><ele>443.4</ele>
<time>2022-05-16T16:01:44.600000+02:00</time>
</trkpt>
<trkpt lat="46.834449" lon="6.69054"><ele>442</ele>
<time>2022-05-16T16:01:48.000000+02:00</time>
</trkpt>
<trkpt lat="46.834227" lon="6.690567"><ele>440.6</ele>
<time>2022-05-16T16:01:51.400000+02:00</time>
</trkpt>
<trkpt lat="46.834005" lon="6.690669"><ele>439.3</ele>
<time>2022-05-16T16:01:55.000000+02:00</time>
</trkpt>
<trkpt lat="46.833771" lon="6.690843"><ele>437.4</ele>
<time>2022-05-16T16:01:58.400000+02:00</time>
</trkpt>
<trkpt lat="46.833537" lon="6.691018"><ele>436</ele>
<time>2022-05-16T16:02:02.500000+02:00</time>
</trkpt>
<trkpt lat="46.833537" lon="6.691018"><ele>436</ele>
<time>2022-05-16T16:02:02.500000+02:00</time>
</trkpt>
<trkpt lat="46.833303" lon="6.691221"><ele>435.5</ele>
<time>2022-05-16T16:02:08.600000+02:00</time>
</trkpt>
<trkpt lat="46.833303" lon="6.691221"><ele>435.5</ele>
<time>2022-05-16T16:02:19.100000+02:00</time>
</trkpt>
<trkpt lat="46.833512" lon="6.691692"><ele>435.1</ele>
<time>2022-05-16T16:02:27.800000+02:00</time>
</trkpt>
<trkpt lat="46.83372" lon="6.692165"><ele>434.1</ele>
<time>2022-05-16T16:02:36.600000+02:00</time>
</trkpt>
<trkpt lat="46.833929" lon="6.692637"><ele>431.5</ele>
<time>2022-05-16T16:02:41.800000+02:00</time>
</trkpt>
<trkpt lat="46.834168" lon="6.693146"><ele>434</ele>
<time>2022-05-16T16:02:56.900000+02:00</time>
</trkpt>
<trkpt lat="46.834407" lon="6.693654"><ele>437</ele>
<time>2022-05-16T16:03:14.300000+02:00</time>
</trkpt>
<trkpt lat="46.834646" lon="6.694163"><ele>438.3</ele>
<time>2022-05-16T16:03:27.500000+02:00</time>
</trkpt>
<trkpt lat="46.834885" lon="6.694672"><ele>438.4</ele>
<time>2022-05-16T16:03:38.800000+02:00</time>
</trkpt>
<trkpt lat="46.835124" lon="6.69518"><ele>438</ele>
<time>2022-05-16T16:03:48.300000+02:00</time>
</trkpt>
<trkpt lat="46.835362" lon="6.695689"><ele>437.9</ele>
<time>2022-05-16T16:03:59.600000+02:00</time>
</trkpt>
<trkpt lat="46.835362" lon="6.695689"><ele>437.9</ele>
<time>2022-05-16T16:03:59.600000+02:00</time>
</trkpt>
<trkpt lat="46.83558" lon="6.696161"><ele>438.5</ele>
<time>2022-05-16T16:04:10.400000+02:00</time>
</trkpt>
<trkpt lat="46.835798" lon="6.696631"><ele>439.1</ele>
<time>2022-05-16T16:04:21.200000+02:00</time>
</trkpt>
<trkpt lat="46.836016" lon="6.697101"><ele>439.7</ele>
<time>2022-05-16T16:04:32.000000+02:00</time>
</trkpt>
<trkpt lat="46.836233" lon="6.697572"><ele>440.2</ele>
<time>2022-05-16T16:04:42.800000+02:00</time>
</trkpt>
<trkpt lat="46.83646" lon="6.698103"><ele>440.6</ele>
<time>2022-05-16T16:04:54.700000+02:00</time>
</trkpt>
<trkpt lat="46.836686" lon="6.698634"><ele>441</ele>
<time>2022-05-16T16:05:06.600000+02:00</time>
</trkpt>
<trkpt lat="46.836913" lon="6.699164"><ele>441.2</ele>
<time>2022-05-16T16:05:17.900000+02:00</time>
</trkpt>
<trkpt lat="46.836913" lon="6.699164"><ele>441.2</ele>
<time>2022-05-16T16:05:17.900000+02:00</time>
</trkpt>
<trkpt lat="46.837125" lon="6.699653"><ele>440.9</ele>
<time>2022-05-16T16:05:28.100000+02:00</time>
</trkpt>
<trkpt lat="46.837338" lon="6.70014"><ele>440.7</ele>
<time>2022-05-16T16:05:38.300000+02:00</time>
</trkpt>
<trkpt lat="46.83755" lon="6.700628"><ele>440.6</ele>
<time>2022-05-16T16:05:48.400000+02:00</time>
</trkpt>
<trkpt lat="46.837763" lon="6.701116"><ele>440.6</ele>
<time>2022-05-16T16:05:58.600000+02:00</time>
</trkpt>
<trkpt lat="46.837763" lon="6.701116"><ele>440.6</ele>
<time>2022-05-16T16:05:58.600000+02:00</time>
</trkpt>
<trkpt lat="46.83796" lon="6.70152"><ele>441</ele>
<time>2022-05-16T16:06:08.100000+02:00</time>
</trkpt>
<trkpt lat="46.838157" lon="6.701922"><ele>441.7</ele>
<time>2022-05-16T16:06:17.700000+02:00</time>
</trkpt>
<trkpt lat="46.838345" lon="6.70228"><ele>442.4</ele>
<time>2022-05-16T16:06:26.300000+02:00</time>
</trkpt>
<trkpt lat="46.838532" lon="6.702637"><ele>443.1</ele>
<time>2022-05-16T16:06:34.900000+02:00</time>
</trkpt>
<trkpt lat="46.838729" lon="6.702989"><ele>443.2</ele>
<time>2022-05-16T16:06:43.200000+02:00</time>
</trkpt>
<trkpt lat="46.838926" lon="6.703342"><ele>443.2</ele>
<time>2022-05-16T16:06:51.500000+02:00</time>
</trkpt>
<trkpt lat="46.839184" lon="6.703778"><ele>443.2</ele>
<time>2022-05-16T16:07:02.000000+02:00</time>
</trkpt>
<trkpt lat="46.839441" lon="6.704216"><ele>443.1</ele>
<time>2022-05-16T16:07:12.500000+02:00</time>
</trkpt>
<trkpt lat="46.839708" lon="6.704636"><ele>442.8</ele>
<time>2022-05-16T16:07:23.000000+02:00</time>
</trkpt>
<trkpt lat="46.839974" lon="6.705057"><ele>442.2</ele>
<time>2022-05-16T16:07:31.700000+02:00</time>
</trkpt>
<trkpt lat="46.840219" lon="6.705421"><ele>441.6</ele>
<time>2022-05-16T16:07:39.400000+02:00</time>
</trkpt>
<trkpt lat="46.840219" lon="6.705421"><ele>441.6</ele>
<time>2022-05-16T16:07:39.400000+02:00</time>
</trkpt>
<trkpt lat="46.840397" lon="6.705672"><ele>441.3</ele>
<time>2022-05-16T16:07:44.900000+02:00</time>
</trkpt>
<trkpt lat="46.840576" lon="6.705924"><ele>441.3</ele>
<time>2022-05-16T16:07:51.500000+02:00</time>
</trkpt>
<trkpt lat="46.840832" lon="6.706262"><ele>441.1</ele>
<time>2022-05-16T16:08:00.600000+02:00</time>
</trkpt>
<trkpt lat="46.841089" lon="6.7066"><ele>440.9</ele>
<time>2022-05-16T16:08:09.700000+02:00</time>
</trkpt>
<trkpt lat="46.841333" lon="6.706897"><ele>441</ele>
<time>2022-05-16T16:08:18.100000+02:00</time>
</trkpt>
<trkpt lat="46.841579" lon="6.707193"><ele>441.5</ele>
<time>2022-05-16T16:08:27.000000+02:00</time>
</trkpt>
<trkpt lat="46.841824" lon="6.707458"><ele>442.3</ele>
<time>2022-05-16T16:08:35.500000+02:00</time>
</trkpt>
<trkpt lat="46.842071" lon="6.707725"><ele>443.5</ele>
<time>2022-05-16T16:08:45.000000+02:00</time>
</trkpt>
<trkpt lat="46.842324" lon="6.707996"><ele>444.7</ele>
<time>2022-05-16T16:08:54.800000+02:00</time>
</trkpt>
<trkpt lat="46.842579" lon="6.708266"><ele>445.7</ele>
<time>2022-05-16T16:09:04.600000+02:00</time>
</trkpt>
<trkpt lat="46.842886" lon="6.70855"><ele>447.5</ele>
<time>2022-05-16T16:09:17.400000+02:00</time>
</trkpt>
<trkpt lat="46.843193" lon="6.708836"><ele>448.2</ele>
<time>2022-05-16T16:09:27.500000+02:00</time>
</trkpt>
<trkpt lat="46.843235" lon="6.70888"><ele>448.2</ele>
<time>2022-05-16T16:09:28.900000+02:00</time>
</trkpt>
<trkpt lat="46.843284" lon="6.708886"><ele>448.2</ele>
<time>2022-05-16T16:09:30.300000+02:00</time>
</trkpt>
<trkpt lat="46.843347" lon="6.708954"><ele>448.3</ele>
<time>2022-05-16T16:09:32.500000+02:00</time>
</trkpt>
<trkpt lat="46.843493" lon="6.709217"><ele>448</ele>
<time>2022-05-16T16:09:37.600000+02:00</time>
</trkpt>
<trkpt lat="46.843639" lon="6.709478"><ele>447.3</ele>
<time>2022-05-16T16:09:42.100000+02:00</time>
</trkpt>
<trkpt lat="46.843803" lon="6.709696"><ele>446.5</ele>
<time>2022-05-16T16:09:46.300000+02:00</time>
</trkpt>
<trkpt lat="46.843966" lon="6.709912"><ele>445.7</ele>
<time>2022-05-16T16:09:50.500000+02:00</time>
</trkpt>
<trkpt lat="46.844129" lon="6.710129"><ele>444.9</ele>
<time>2022-05-16T16:09:54.700000+02:00</time>
</trkpt>
<trkpt lat="46.844292" lon="6.710347"><ele>444</ele>
<time>2022-05-16T16:09:59.000000+02:00</time>
</trkpt>
<trkpt lat="46.844456" lon="6.710563"><ele>442.9</ele>
<time>2022-05-16T16:10:02.400000+02:00</time>
</trkpt>
<trkpt lat="46.844619" lon="6.710781"><ele>441.7</ele>
<time>2022-05-16T16:10:05.900000+02:00</time>
</trkpt>
<trkpt lat="46.844846" lon="6.711133"><ele>440.3</ele>
<time>2022-05-16T16:10:12.300000+02:00</time>
</trkpt>
<trkpt lat="46.845073" lon="6.711486"><ele>439.2</ele>
<time>2022-05-16T16:10:18.600000+02:00</time>
</trkpt>
<trkpt lat="46.845301" lon="6.711839"><ele>438.3</ele>
<time>2022-05-16T16:10:26.000000+02:00</time>
</trkpt>
<trkpt lat="46.845623" lon="6.712229"><ele>437.6</ele>
<time>2022-05-16T16:10:35.400000+02:00</time>
</trkpt>
<trkpt lat="46.845945" lon="6.712619"><ele>437.7</ele>
<time>2022-05-16T16:10:46.600000+02:00</time>
</trkpt>
<trkpt lat="46.846233" lon="6.712955"><ele>437.8</ele>
<time>2022-05-16T16:10:56.300000+02:00</time>
</trkpt>
<trkpt lat="46.846521" lon="6.713289"><ele>438.1</ele>
<time>2022-05-16T16:11:05.900000+02:00</time>
</trkpt>
<trkpt lat="46.84672" lon="6.71355"><ele>438</ele>
<time>2022-05-16T16:11:13.000000+02:00</time>
</trkpt>
<trkpt lat="46.84692" lon="6.713812"><ele>437.1</ele>
<time>2022-05-16T16:11:18.000000+02:00</time>
</trkpt>
<trkpt lat="46.847222" lon="6.714213"><ele>435.4</ele>
<time>2022-05-16T16:11:25.700000+02:00</time>
</trkpt>
<trkpt lat="46.847523" lon="6.714614"><ele>434.4</ele>
<time>2022-05-16T16:11:34.600000+02:00</time>
</trkpt>
<trkpt lat="46.847559" lon="6.714673"><ele>434.4</ele>
<time>2022-05-16T16:11:36.100000+02:00</time>
</trkpt>
<trkpt lat="46.847559" lon="6.714673"><ele>434.4</ele>
<time>2022-05-16T16:11:36.100000+02:00</time>
</trkpt>
<trkpt lat="46.847697" lon="6.714895"><ele>434.4</ele>
<time>2022-05-16T16:11:41.600000+02:00</time>
</trkpt>
<trkpt lat="46.847697" lon="6.714895"><ele>434.4</ele>
<time>2022-05-16T16:11:41.600000+02:00</time>
</trkpt>
<trkpt lat="46.847764" lon="6.715022"><ele>434.5</ele>
<time>2022-05-16T16:11:44.600000+02:00</time>
</trkpt>
<trkpt lat="46.847764" lon="6.715022"><ele>434.5</ele>
<time>2022-05-16T16:11:44.600000+02:00</time>
</trkpt>
<trkpt lat="46.847834" lon="6.715158"><ele>434.7</ele>
<time>2022-05-16T16:11:47.800000+02:00</time>
</trkpt>
<trkpt lat="46.848005" lon="6.715485"><ele>435.1</ele>
<time>2022-05-16T16:11:55.700000+02:00</time>
</trkpt>
<trkpt lat="46.848005" lon="6.715485"><ele>435.1</ele>
<time>2022-05-16T16:11:55.800000+02:00</time>
</trkpt>
<trkpt lat="46.848144" lon="6.715895"><ele>434.7</ele>
<time>2022-05-16T16:12:03.200000+02:00</time>
</trkpt>
<trkpt lat="46.848282" lon="6.716306"><ele>434.4</ele>
<time>2022-05-16T16:12:10.700000+02:00</time>
</trkpt>
<trkpt lat="46.848282" lon="6.716306"><ele>434.4</ele>
<time>2022-05-16T16:12:10.700000+02:00</time>
</trkpt>
<trkpt lat="46.848417" lon="6.716675"><ele>434.8</ele>
<time>2022-05-16T16:12:18.600000+02:00</time>
</trkpt>
<trkpt lat="46.848551" lon="6.717046"><ele>435.1</ele>
<time>2022-05-16T16:12:26.600000+02:00</time>
</trkpt>
<trkpt lat="46.848551" lon="6.717046"><ele>435.1</ele>
<time>2022-05-16T16:12:26.600000+02:00</time>
</trkpt>
<trkpt lat="46.848694" lon="6.717545"><ele>435.1</ele>
<time>2022-05-16T16:12:36.100000+02:00</time>
</trkpt>
<trkpt lat="46.848756" lon="6.717777"><ele>435</ele>
<time>2022-05-16T16:12:40.500000+02:00</time>
</trkpt>
<trkpt lat="46.848863" lon="6.718185"><ele>434.8</ele>
<time>2022-05-16T16:12:48.200000+02:00</time>
</trkpt>
<trkpt lat="46.848933" lon="6.71844"><ele>434.7</ele>
<time>2022-05-16T16:12:53.000000+02:00</time>
</trkpt>
<trkpt lat="46.848933" lon="6.71844"><ele>434.7</ele>
<time>2022-05-16T16:12:53.000000+02:00</time>
</trkpt>
<trkpt lat="46.849101" lon="6.718857"><ele>434.3</ele>
<time>2022-05-16T16:13:00.600000+02:00</time>
</trkpt>
<trkpt lat="46.8492" lon="6.719083"><ele>434.2</ele>
<time>2022-05-16T16:13:05.600000+02:00</time>
</trkpt>
<trkpt lat="46.849322" lon="6.719296"><ele>434.6</ele>
<time>2022-05-16T16:13:11.000000+02:00</time>
</trkpt>
<trkpt lat="46.84936" lon="6.719347"><ele>434.7</ele>
<time>2022-05-16T16:13:12.500000+02:00</time>
</trkpt>
<trkpt lat="46.84936" lon="6.719347"><ele>434.7</ele>
<time>2022-05-16T16:13:12.600000+02:00</time>
</trkpt>
<trkpt lat="46.849508" lon="6.719513"><ele>435.2</ele>
<time>2022-05-16T16:13:18.000000+02:00</time>
</trkpt>
<trkpt lat="46.849611" lon="6.719688"><ele>435.6</ele>
<time>2022-05-16T16:13:22.600000+02:00</time>
</trkpt>
<trkpt lat="46.849683" lon="6.719725"><ele>436</ele>
<time>2022-05-16T16:13:25.300000+02:00</time>
</trkpt>
<trkpt lat="46.849683" lon="6.719725"><ele>436</ele>
<time>2022-05-16T16:13:27.100000+02:00</time>
</trkpt>
<trkpt lat="46.849829" lon="6.71973"><ele>437.2</ele>
<time>2022-05-16T16:13:33.600000+02:00</time>
</trkpt>
<trkpt lat="46.849829" lon="6.71973"><ele>437.2</ele>
<time>2022-05-16T16:13:33.600000+02:00</time>
</trkpt>
<trkpt lat="46.850082" lon="6.719736"><ele>439.2</ele>
<time>2022-05-16T16:13:44.400000+02:00</time>
</trkpt>
<trkpt lat="46.850133" lon="6.719736"><ele>439.2</ele>
<time>2022-05-16T16:13:45.800000+02:00</time>
</trkpt>
<trkpt lat="46.850198" lon="6.719739"><ele>439.2</ele>
<time>2022-05-16T16:13:47.500000+02:00</time>
</trkpt>
<trkpt lat="46.850198" lon="6.719739"><ele>439.2</ele>
<time>2022-05-16T16:13:47.600000+02:00</time>
</trkpt>
<trkpt lat="46.850307" lon="6.719758"><ele>439</ele>
<time>2022-05-16T16:13:50.000000+02:00</time>
</trkpt>
<trkpt lat="46.850307" lon="6.719758"><ele>439</ele>
<time>2022-05-16T16:13:50.400000+02:00</time>
</trkpt>
<trkpt lat="46.850537" lon="6.71968"><ele>439.3</ele>
<time>2022-05-16T16:13:57.000000+02:00</time>
</trkpt>
<trkpt lat="46.850767" lon="6.719602"><ele>439.8</ele>
<time>2022-05-16T16:14:03.600000+02:00</time>
</trkpt>
<trkpt lat="46.850942" lon="6.719537"><ele>440.3</ele>
<time>2022-05-16T16:14:08.700000+02:00</time>
</trkpt>
<trkpt lat="46.851188" lon="6.719444"><ele>441.2</ele>
<time>2022-05-16T16:14:16.600000+02:00</time>
</trkpt>
<trkpt lat="46.851277" lon="6.719446"><ele>441.5</ele>
<time>2022-05-16T16:14:19.400000+02:00</time>
</trkpt>
<trkpt lat="46.851347" lon="6.719481"><ele>441.7</ele>
<time>2022-05-16T16:14:21.500000+02:00</time>
</trkpt>
<trkpt lat="46.851496" lon="6.719629"><ele>442.6</ele>
<time>2022-05-16T16:14:27.900000+02:00</time>
</trkpt>
<trkpt lat="46.851496" lon="6.719629"><ele>442.6</ele>
<time>2022-05-16T16:14:28.000000+02:00</time>
</trkpt>
<trkpt lat="46.851526" lon="6.719672"><ele>442.8</ele>
<time>2022-05-16T16:14:29.500000+02:00</time>
</trkpt>
<trkpt lat="46.851684" lon="6.719902"><ele>444.2</ele>
<time>2022-05-16T16:14:37.700000+02:00</time>
</trkpt>
<trkpt lat="46.851825" lon="6.719921"><ele>445</ele>
<time>2022-05-16T16:14:42.800000+02:00</time>
</trkpt>
<trkpt lat="46.851825" lon="6.719921"><ele>445</ele>
<time>2022-05-16T16:14:44.300000+02:00</time>
</trkpt>
<trkpt lat="46.851923" lon="6.720102"><ele>445.2</ele>
<time>2022-05-16T16:14:48.700000+02:00</time>
</trkpt>
<trkpt lat="46.851909" lon="6.720122"><ele>445.2</ele>
<time>2022-05-16T16:14:52.000000+02:00</time>
</trkpt>
<trkpt lat="46.8519" lon="6.720145"><ele>445.2</ele>
<time>2022-05-16T16:14:52.500000+02:00</time>
</trkpt>
<trkpt lat="46.851898" lon="6.720173"><ele>445.2</ele>
<time>2022-05-16T16:14:53.000000+02:00</time>
</trkpt>
<trkpt lat="46.851901" lon="6.7202"><ele>445.2</ele>
<time>2022-05-16T16:14:53.500000+02:00</time>
</trkpt>
<trkpt lat="46.851911" lon="6.720224"><ele>445.2</ele>
<time>2022-05-16T16:14:54.000000+02:00</time>
</trkpt>
<trkpt lat="46.851926" lon="6.720242"><ele>445.2</ele>
<time>2022-05-16T16:14:54.500000+02:00</time>
</trkpt>
<trkpt lat="46.851945" lon="6.720251"><ele>445.2</ele>
<time>2022-05-16T16:14:55.000000+02:00</time>
</trkpt>
<trkpt lat="46.851964" lon="6.720249"><ele>445.2</ele>
<time>2022-05-16T16:14:55.500000+02:00</time>
</trkpt>
<trkpt lat="46.851982" lon="6.72024"><ele>445.2</ele>
<time>2022-05-16T16:14:56.100000+02:00</time>
</trkpt>
<trkpt lat="46.852048" lon="6.720421"><ele>445</ele>
<time>2022-05-16T16:14:59.300000+02:00</time>
</trkpt>
<trkpt lat="46.852048" lon="6.720421"><ele>445</ele>
<time>2022-05-16T16:14:59.400000+02:00</time>
</trkpt>
<trkpt lat="46.852119" lon="6.720561"><ele>445</ele>
<time>2022-05-16T16:15:02.600000+02:00</time>
</trkpt>
<trkpt lat="46.852139" lon="6.720601"><ele>444.9</ele>
<time>2022-05-16T16:15:03.300000+02:00</time>
</trkpt>
<trkpt lat="46.852139" lon="6.720601"><ele>444.9</ele>
<time>2022-05-16T16:15:03.300000+02:00</time>
</trkpt>
<trkpt lat="46.852235" lon="6.720797"><ele>444.8</ele>
<time>2022-05-16T16:15:07.400000+02:00</time>
</trkpt>
<trkpt lat="46.852235" lon="6.720797"><ele>444.8</ele>
<time>2022-05-16T16:15:07.400000+02:00</time>
</trkpt>
<trkpt lat="46.852348" lon="6.720996"><ele>444.6</ele>
<time>2022-05-16T16:15:11.600000+02:00</time>
</trkpt>
<trkpt lat="46.852348" lon="6.720996"><ele>444.6</ele>
<time>2022-05-16T16:15:11.600000+02:00</time>
</trkpt>
<trkpt lat="46.852472" lon="6.721199"><ele>444.5</ele>
<time>2022-05-16T16:15:16.500000+02:00</time>
</trkpt>
<trkpt lat="46.852669" lon="6.721498"><ele>444.6</ele>
<time>2022-05-16T16:15:24.000000+02:00</time>
</trkpt>
<trkpt lat="46.852669" lon="6.721498"><ele>444.6</ele>
<time>2022-05-16T16:15:24.000000+02:00</time>
</trkpt>
<trkpt lat="46.852826" lon="6.72169"><ele>444.7</ele>
<time>2022-05-16T16:15:29.500000+02:00</time>
</trkpt>
<trkpt lat="46.853047" lon="6.72194"><ele>445</ele>
<time>2022-05-16T16:15:37.300000+02:00</time>
</trkpt>
<trkpt lat="46.853226" lon="6.7221"><ele>445.1</ele>
<time>2022-05-16T16:15:42.900000+02:00</time>
</trkpt>
<trkpt lat="46.853226" lon="6.7221"><ele>445.1</ele>
<time>2022-05-16T16:15:42.900000+02:00</time>
</trkpt>
<trkpt lat="46.853422" lon="6.722261"><ele>445.3</ele>
<time>2022-05-16T16:15:49.000000+02:00</time>
</trkpt>
<trkpt lat="46.853646" lon="6.722431"><ele>445.5</ele>
<time>2022-05-16T16:15:55.800000+02:00</time>
</trkpt>
<trkpt lat="46.85387" lon="6.722603"><ele>445.8</ele>
<time>2022-05-16T16:16:02.900000+02:00</time>
</trkpt>
<trkpt lat="46.85387" lon="6.722603"><ele>445.8</ele>
<time>2022-05-16T16:16:02.900000+02:00</time>
</trkpt>
<trkpt lat="46.854156" lon="6.722819"><ele>446.1</ele>
<time>2022-05-16T16:16:11.800000+02:00</time>
</trkpt>
<trkpt lat="46.854146" lon="6.722872"><ele>446.1</ele>
<time>2022-05-16T16:16:14.200000+02:00</time>
</trkpt>
<trkpt lat="46.854149" lon="6.722924"><ele>446</ele>
<time>2022-05-16T16:16:14.900000+02:00</time>
</trkpt>
<trkpt lat="46.854164" lon="6.722974"><ele>445.9</ele>
<time>2022-05-16T16:16:15.700000+02:00</time>
</trkpt>
<trkpt lat="46.854194" lon="6.723018"><ele>445.9</ele>
<time>2022-05-16T16:16:16.800000+02:00</time>
</trkpt>
<trkpt lat="46.854217" lon="6.723037"><ele>445.9</ele>
<time>2022-05-16T16:16:17.500000+02:00</time>
</trkpt>
<trkpt lat="46.854253" lon="6.723047"><ele>446</ele>
<time>2022-05-16T16:16:18.600000+02:00</time>
</trkpt>
<trkpt lat="46.854298" lon="6.723038"><ele>446.1</ele>
<time>2022-05-16T16:16:19.800000+02:00</time>
</trkpt>
<trkpt lat="46.854332" lon="6.723007"><ele>446.3</ele>
<time>2022-05-16T16:16:21.200000+02:00</time>
</trkpt>
<trkpt lat="46.854332" lon="6.723007"><ele>446.3</ele>
<time>2022-05-16T16:16:21.200000+02:00</time>
</trkpt>
<trkpt lat="46.85448" lon="6.723068"><ele>446.5</ele>
<time>2022-05-16T16:16:25.500000+02:00</time>
</trkpt>
<trkpt lat="46.85448" lon="6.723068"><ele>446.5</ele>
<time>2022-05-16T16:16:25.600000+02:00</time>
</trkpt>
<trkpt lat="46.854814" lon="6.72336"><ele>446.6</ele>
<time>2022-05-16T16:16:36.100000+02:00</time>
</trkpt>
<trkpt lat="46.854814" lon="6.72336"><ele>446.6</ele>
<time>2022-05-16T16:16:36.100000+02:00</time>
</trkpt>
<trkpt lat="46.854929" lon="6.723467"><ele>446.6</ele>
<time>2022-05-16T16:16:39.800000+02:00</time>
</trkpt>
<trkpt lat="46.855276" lon="6.72384"><ele>446.9</ele>
<time>2022-05-16T16:16:51.600000+02:00</time>
</trkpt>
<trkpt lat="46.855623" lon="6.724213"><ele>448</ele>
<time>2022-05-16T16:17:04.000000+02:00</time>
</trkpt>
<trkpt lat="46.855623" lon="6.724213"><ele>448</ele>
<time>2022-05-16T16:17:04.000000+02:00</time>
</trkpt>
<trkpt lat="46.855938" lon="6.724551"><ele>450</ele>
<time>2022-05-16T16:17:17.900000+02:00</time>
</trkpt>
<trkpt lat="46.856252" lon="6.724889"><ele>452.3</ele>
<time>2022-05-16T16:17:31.800000+02:00</time>
</trkpt>
<trkpt lat="46.856402" lon="6.725096"><ele>453.5</ele>
<time>2022-05-16T16:17:39.100000+02:00</time>
</trkpt>
<trkpt lat="46.856543" lon="6.725325"><ele>454.7</ele>
<time>2022-05-16T16:17:46.600000+02:00</time>
</trkpt>
<trkpt lat="46.856658" lon="6.72555"><ele>455.8</ele>
<time>2022-05-16T16:17:53.500000+02:00</time>
</trkpt>
<trkpt lat="46.856701" lon="6.725655"><ele>456.2</ele>
<time>2022-05-16T16:17:56.500000+02:00</time>
</trkpt>
<trkpt lat="46.856732" lon="6.725734"><ele>456.4</ele>
<time>2022-05-16T16:17:58.400000+02:00</time>
</trkpt>
<trkpt lat="46.856732" lon="6.725734"><ele>456.4</ele>
<time>2022-05-16T16:17:58.400000+02:00</time>
</trkpt>
<trkpt lat="46.856819" lon="6.726002"><ele>457.1</ele>
<time>2022-05-16T16:18:04.800000+02:00</time>
</trkpt>
<trkpt lat="46.8569" lon="6.726301"><ele>457.9</ele>
<time>2022-05-16T16:18:11.800000+02:00</time>
</trkpt>
<trkpt lat="46.856981" lon="6.726602"><ele>458.6</ele>
<time>2022-05-16T16:18:18.800000+02:00</time>
</trkpt>
<trkpt lat="46.857063" lon="6.726901"><ele>459.2</ele>
<time>2022-05-16T16:18:25.100000+02:00</time>
</trkpt>
<trkpt lat="46.857144" lon="6.727201"><ele>459.8</ele>
<time>2022-05-16T16:18:31.400000+02:00</time>
</trkpt>
<trkpt lat="46.857144" lon="6.727201"><ele>459.8</ele>
<time>2022-05-16T16:18:31.400000+02:00</time>
</trkpt>
<trkpt lat="46.857275" lon="6.727689"><ele>460.6</ele>
<time>2022-05-16T16:18:41.700000+02:00</time>
</trkpt>
<trkpt lat="46.857408" lon="6.728176"><ele>461.4</ele>
<time>2022-05-16T16:18:51.900000+02:00</time>
</trkpt>
<trkpt lat="46.857584" lon="6.728601"><ele>462.1</ele>
<time>2022-05-16T16:19:01.700000+02:00</time>
</trkpt>
<trkpt lat="46.857584" lon="6.728601"><ele>462.1</ele>
<time>2022-05-16T16:19:01.700000+02:00</time>
</trkpt>
<trkpt lat="46.857636" lon="6.728711"><ele>462.3</ele>
<time>2022-05-16T16:19:04.300000+02:00</time>
</trkpt>
<trkpt lat="46.857773" lon="6.728949"><ele>462.8</ele>
<time>2022-05-16T16:19:10.500000+02:00</time>
</trkpt>
<trkpt lat="46.857773" lon="6.728949"><ele>462.8</ele>
<time>2022-05-16T16:19:10.500000+02:00</time>
</trkpt>
<trkpt lat="46.857992" lon="6.729256"><ele>463.6</ele>
<time>2022-05-16T16:19:19.100000+02:00</time>
</trkpt>
<trkpt lat="46.858221" lon="6.729507"><ele>464.5</ele>
<time>2022-05-16T16:19:28.100000+02:00</time>
</trkpt>
<trkpt lat="46.858221" lon="6.729507"><ele>464.5</ele>
<time>2022-05-16T16:19:28.100000+02:00</time>
</trkpt>
<trkpt lat="46.858576" lon="6.729835"><ele>465.7</ele>
<time>2022-05-16T16:19:40.800000+02:00</time>
</trkpt>
<trkpt lat="46.858852" lon="6.730001"><ele>466.6</ele>
<time>2022-05-16T16:19:49.900000+02:00</time>
</trkpt>
<trkpt lat="46.859018" lon="6.730122"><ele>467.3</ele>
<time>2022-05-16T16:19:55.500000+02:00</time>
</trkpt>
<trkpt lat="46.859018" lon="6.730122"><ele>467.3</ele>
<time>2022-05-16T16:19:55.500000+02:00</time>
</trkpt>
<trkpt lat="46.859205" lon="6.730247"><ele>468</ele>
<time>2022-05-16T16:20:01.700000+02:00</time>
</trkpt>
<trkpt lat="46.859369" lon="6.730399"><ele>468.6</ele>
<time>2022-05-16T16:20:07.600000+02:00</time>
</trkpt>
<trkpt lat="46.859528" lon="6.730545"><ele>469.1</ele>
<time>2022-05-16T16:20:12.700000+02:00</time>
</trkpt>
<trkpt lat="46.859655" lon="6.730692"><ele>469.7</ele>
<time>2022-05-16T16:20:17.600000+02:00</time>
</trkpt>
<trkpt lat="46.859746" lon="6.730793"><ele>470.1</ele>
<time>2022-05-16T16:20:21.100000+02:00</time>
</trkpt>
<trkpt lat="46.859899" lon="6.730983"><ele>470.9</ele>
<time>2022-05-16T16:20:27.200000+02:00</time>
</trkpt>
<trkpt lat="46.859993" lon="6.731128"><ele>471.4</ele>
<time>2022-05-16T16:20:31.300000+02:00</time>
</trkpt>
<trkpt lat="46.860075" lon="6.731271"><ele>471.8</ele>
<time>2022-05-16T16:20:35.200000+02:00</time>
</trkpt>
<trkpt lat="46.86019" lon="6.731509"><ele>472.6</ele>
<time>2022-05-16T16:20:41.300000+02:00</time>
</trkpt>
<trkpt lat="46.860288" lon="6.731751"><ele>473.2</ele>
<time>2022-05-16T16:20:47.100000+02:00</time>
</trkpt>
<trkpt lat="46.860392" lon="6.73207"><ele>472.4</ele>
<time>2022-05-16T16:20:51.600000+02:00</time>
</trkpt>
<trkpt lat="46.860474" lon="6.732416"><ele>470</ele>
<time>2022-05-16T16:20:54.500000+02:00</time>
</trkpt>
<trkpt lat="46.860513" lon="6.732653"><ele>475.6</ele>
<time>2022-05-16T16:21:08.900000+02:00</time>
</trkpt>
<trkpt lat="46.860538" lon="6.732888"><ele>476.2</ele>
<time>2022-05-16T16:21:13.800000+02:00</time>
</trkpt>
<trkpt lat="46.860558" lon="6.733127"><ele>476.8</ele>
<time>2022-05-16T16:21:18.800000+02:00</time>
</trkpt>
<trkpt lat="46.860562" lon="6.733372"><ele>477.4</ele>
<time>2022-05-16T16:21:23.900000+02:00</time>
</trkpt>
<trkpt lat="46.860526" lon="6.733904"><ele>478.6</ele>
<time>2022-05-16T16:21:35.100000+02:00</time>
</trkpt>
<trkpt lat="46.86047" lon="6.734397"><ele>479.8</ele>
<time>2022-05-16T16:21:45.400000+02:00</time>
</trkpt>
<trkpt lat="46.860403" lon="6.734917"><ele>481</ele>
<time>2022-05-16T16:21:56.500000+02:00</time>
</trkpt>
<trkpt lat="46.860336" lon="6.73544"><ele>482</ele>
<time>2022-05-16T16:22:06.400000+02:00</time>
</trkpt>
<trkpt lat="46.860268" lon="6.735911"><ele>482.8</ele>
<time>2022-05-16T16:22:15.300000+02:00</time>
</trkpt>
<trkpt lat="46.860268" lon="6.735911"><ele>482.8</ele>
<time>2022-05-16T16:22:15.400000+02:00</time>
</trkpt>
<trkpt lat="46.860232" lon="6.736354"><ele>483.4</ele>
<time>2022-05-16T16:22:23.900000+02:00</time>
</trkpt>
<trkpt lat="46.860222" lon="6.736656"><ele>483.6</ele>
<time>2022-05-16T16:22:29.700000+02:00</time>
</trkpt>
<trkpt lat="46.86023" lon="6.736962"><ele>483.9</ele>
<time>2022-05-16T16:22:35.500000+02:00</time>
</trkpt>
<trkpt lat="46.860236" lon="6.737128"><ele>484.1</ele>
<time>2022-05-16T16:22:38.700000+02:00</time>
</trkpt>
<trkpt lat="46.860262" lon="6.737397"><ele>484.2</ele>
<time>2022-05-16T16:22:43.800000+02:00</time>
</trkpt>
<trkpt lat="46.860298" lon="6.737657"><ele>484.3</ele>
<time>2022-05-16T16:22:48.700000+02:00</time>
</trkpt>
<trkpt lat="46.860398" lon="6.738146"><ele>484.7</ele>
<time>2022-05-16T16:22:58.600000+02:00</time>
</trkpt>
<trkpt lat="46.860521" lon="6.738603"><ele>485</ele>
<time>2022-05-16T16:23:07.700000+02:00</time>
</trkpt>
<trkpt lat="46.860644" lon="6.739061"><ele>485.3</ele>
<time>2022-05-16T16:23:16.700000+02:00</time>
</trkpt>
<trkpt lat="46.860644" lon="6.739061"><ele>485.3</ele>
<time>2022-05-16T16:23:16.700000+02:00</time>
</trkpt>
<trkpt lat="46.860763" lon="6.739515"><ele>485.5</ele>
<time>2022-05-16T16:23:25.800000+02:00</time>
</trkpt>
<trkpt lat="46.860763" lon="6.739515"><ele>485.5</ele>
<time>2022-05-16T16:23:25.800000+02:00</time>
</trkpt>
<trkpt lat="46.86091" lon="6.740062"><ele>485.4</ele>
<time>2022-05-16T16:23:36.200000+02:00</time>
</trkpt>
<trkpt lat="46.861058" lon="6.740609"><ele>485</ele>
<time>2022-05-16T16:23:44.900000+02:00</time>
</trkpt>
<trkpt lat="46.861206" lon="6.741155"><ele>484.3</ele>
<time>2022-05-16T16:23:53.600000+02:00</time>
</trkpt>
<trkpt lat="46.861283" lon="6.741454"><ele>483.7</ele>
<time>2022-05-16T16:23:58.300000+02:00</time>
</trkpt>
<trkpt lat="46.86136" lon="6.741752"><ele>483.1</ele>
<time>2022-05-16T16:24:03.100000+02:00</time>
</trkpt>
<trkpt lat="46.861438" lon="6.74205"><ele>482.5</ele>
<time>2022-05-16T16:24:07.800000+02:00</time>
</trkpt>
<trkpt lat="46.861515" lon="6.742348"><ele>481.9</ele>
<time>2022-05-16T16:24:12.500000+02:00</time>
</trkpt>
<trkpt lat="46.861593" lon="6.742646"><ele>481.3</ele>
<time>2022-05-16T16:24:17.200000+02:00</time>
</trkpt>
<trkpt lat="46.86167" lon="6.742944"><ele>480.7</ele>
<time>2022-05-16T16:24:22.000000+02:00</time>
</trkpt>
<trkpt lat="46.861747" lon="6.743242"><ele>480.1</ele>
<time>2022-05-16T16:24:26.000000+02:00</time>
</trkpt>
<trkpt lat="46.861825" lon="6.74354"><ele>479.4</ele>
<time>2022-05-16T16:24:30.000000+02:00</time>
</trkpt>
<trkpt lat="46.861902" lon="6.743838"><ele>478.6</ele>
<time>2022-05-16T16:24:34.100000+02:00</time>
</trkpt>
<trkpt lat="46.861979" lon="6.744136"><ele>477.7</ele>
<time>2022-05-16T16:24:38.100000+02:00</time>
</trkpt>
<trkpt lat="46.862057" lon="6.744435"><ele>476.8</ele>
<time>2022-05-16T16:24:42.200000+02:00</time>
</trkpt>
<trkpt lat="46.862134" lon="6.744733"><ele>475.8</ele>
<time>2022-05-16T16:24:46.200000+02:00</time>
</trkpt>
<trkpt lat="46.862212" lon="6.745031"><ele>474.8</ele>
<time>2022-05-16T16:24:50.300000+02:00</time>
</trkpt>
<trkpt lat="46.86229" lon="6.745329"><ele>473.8</ele>
<time>2022-05-16T16:24:54.300000+02:00</time>
</trkpt>
<trkpt lat="46.86229" lon="6.745329"><ele>473.8</ele>
<time>2022-05-16T16:24:54.300000+02:00</time>
</trkpt>
<trkpt lat="46.862435" lon="6.745892"><ele>471.9</ele>
<time>2022-05-16T16:25:01.600000+02:00</time>
</trkpt>
<trkpt lat="46.862582" lon="6.746456"><ele>470.1</ele>
<time>2022-05-16T16:25:08.900000+02:00</time>
</trkpt>
<trkpt lat="46.86269" lon="6.746772"><ele>469</ele>
<time>2022-05-16T16:25:13.200000+02:00</time>
</trkpt>
<trkpt lat="46.862798" lon="6.747088"><ele>468</ele>
<time>2022-05-16T16:25:17.500000+02:00</time>
</trkpt>
<trkpt lat="46.86303" lon="6.747584"><ele>466.2</ele>
<time>2022-05-16T16:25:24.700000+02:00</time>
</trkpt>
<trkpt lat="46.863089" lon="6.747694"><ele>465.8</ele>
<time>2022-05-16T16:25:26.400000+02:00</time>
</trkpt>
<trkpt lat="46.863089" lon="6.747694"><ele>465.8</ele>
<time>2022-05-16T16:25:26.400000+02:00</time>
</trkpt>
<trkpt lat="46.863177" lon="6.747861"><ele>465.1</ele>
<time>2022-05-16T16:25:28.700000+02:00</time>
</trkpt>
<trkpt lat="46.863327" lon="6.748091"><ele>464.2</ele>
<time>2022-05-16T16:25:32.800000+02:00</time>
</trkpt>
<trkpt lat="46.863327" lon="6.748091"><ele>464.2</ele>
<time>2022-05-16T16:25:32.800000+02:00</time>
</trkpt>
<trkpt lat="46.863405" lon="6.748195"><ele>463.7</ele>
<time>2022-05-16T16:25:34.600000+02:00</time>
</trkpt>
<trkpt lat="46.863405" lon="6.748195"><ele>463.7</ele>
<time>2022-05-16T16:25:34.600000+02:00</time>
</trkpt>
<trkpt lat="46.863547" lon="6.74835"><ele>462.8</ele>
<time>2022-05-16T16:25:37.400000+02:00</time>
</trkpt>
<trkpt lat="46.863724" lon="6.74854"><ele>461.9</ele>
<time>2022-05-16T16:25:41.600000+02:00</time>
</trkpt>
<trkpt lat="46.863793" lon="6.7486"><ele>461.5</ele>
<time>2022-05-16T16:25:42.900000+02:00</time>
</trkpt>
<trkpt lat="46.863779" lon="6.748648"><ele>461.6</ele>
<time>2022-05-16T16:25:44.800000+02:00</time>
</trkpt>
<trkpt lat="46.863776" lon="6.7487"><ele>461.5</ele>
<time>2022-05-16T16:25:45.600000+02:00</time>
</trkpt>
<trkpt lat="46.863783" lon="6.748746"><ele>461.5</ele>
<time>2022-05-16T16:25:46.500000+02:00</time>
</trkpt>
<trkpt lat="46.8638" lon="6.748786"><ele>461.4</ele>
<time>2022-05-16T16:25:47.100000+02:00</time>
</trkpt>
<trkpt lat="46.863822" lon="6.748819"><ele>461.3</ele>
<time>2022-05-16T16:25:47.700000+02:00</time>
</trkpt>
<trkpt lat="46.863851" lon="6.74884"><ele>461.2</ele>
<time>2022-05-16T16:25:48.300000+02:00</time>
</trkpt>
<trkpt lat="46.863883" lon="6.748847"><ele>461</ele>
<time>2022-05-16T16:25:48.800000+02:00</time>
</trkpt>
<trkpt lat="46.863915" lon="6.748841"><ele>460.9</ele>
<time>2022-05-16T16:25:49.400000+02:00</time>
</trkpt>
<trkpt lat="46.863945" lon="6.748823"><ele>460.8</ele>
<time>2022-05-16T16:25:50.000000+02:00</time>
</trkpt>
<trkpt lat="46.864096" lon="6.749046"><ele>460.1</ele>
<time>2022-05-16T16:25:54.200000+02:00</time>
</trkpt>
<trkpt lat="46.86428" lon="6.74918"><ele>459.5</ele>
<time>2022-05-16T16:25:58.100000+02:00</time>
</trkpt>
<trkpt lat="46.864378" lon="6.749283"><ele>459.4</ele>
<time>2022-05-16T16:26:01.400000+02:00</time>
</trkpt>
<trkpt lat="46.86447" lon="6.749401"><ele>459.2</ele>
<time>2022-05-16T16:26:04.200000+02:00</time>
</trkpt>
<trkpt lat="46.86447" lon="6.749401"><ele>459.2</ele>
<time>2022-05-16T16:26:04.200000+02:00</time>
</trkpt>
<trkpt lat="46.864666" lon="6.749661"><ele>458.9</ele>
<time>2022-05-16T16:26:10.300000+02:00</time>
</trkpt>
<trkpt lat="46.864879" lon="6.749941"><ele>458.5</ele>
<time>2022-05-16T16:26:16.900000+02:00</time>
</trkpt>
<trkpt lat="46.86506" lon="6.750229"><ele>458.2</ele>
<time>2022-05-16T16:26:23.000000+02:00</time>
</trkpt>
<trkpt lat="46.865174" lon="6.750412"><ele>458.1</ele>
<time>2022-05-16T16:26:27.700000+02:00</time>
</trkpt>
<trkpt lat="46.865174" lon="6.750412"><ele>458.1</ele>
<time>2022-05-16T16:26:27.700000+02:00</time>
</trkpt>
<trkpt lat="46.865263" lon="6.750555"><ele>457.9</ele>
<time>2022-05-16T16:26:30.800000+02:00</time>
</trkpt>
<trkpt lat="46.865311" lon="6.750607"><ele>458</ele>
<time>2022-05-16T16:26:32.600000+02:00</time>
</trkpt>
<trkpt lat="46.865311" lon="6.750607"><ele>458</ele>
<time>2022-05-16T16:26:32.800000+02:00</time>
</trkpt>
<trkpt lat="46.865571" lon="6.750828"><ele>458.8</ele>
<time>2022-05-16T16:26:41.300000+02:00</time>
</trkpt>
<trkpt lat="46.865932" lon="6.751138"><ele>460.2</ele>
<time>2022-05-16T16:26:54.400000+02:00</time>
</trkpt>
<trkpt lat="46.866056" lon="6.751257"><ele>461</ele>
<time>2022-05-16T16:26:59.700000+02:00</time>
</trkpt>
<trkpt lat="46.866056" lon="6.751257"><ele>461</ele>
<time>2022-05-16T16:26:59.700000+02:00</time>
</trkpt>
<trkpt lat="46.866245" lon="6.751464"><ele>462.9</ele>
<time>2022-05-16T16:27:09.800000+02:00</time>
</trkpt>
<trkpt lat="46.866378" lon="6.751567"><ele>464.4</ele>
<time>2022-05-16T16:27:17.400000+02:00</time>
</trkpt>
<trkpt lat="46.866463" lon="6.751554"><ele>465.4</ele>
<time>2022-05-16T16:27:22.100000+02:00</time>
</trkpt>
<trkpt lat="46.866509" lon="6.751523"><ele>465.9</ele>
<time>2022-05-16T16:27:24.700000+02:00</time>
</trkpt>
<trkpt lat="46.866569" lon="6.751434"><ele>467.1</ele>
<time>2022-05-16T16:27:31.500000+02:00</time>
</trkpt>
<trkpt lat="46.86667" lon="6.751252"><ele>469.2</ele>
<time>2022-05-16T16:27:40.900000+02:00</time>
</trkpt>
<trkpt lat="46.866722" lon="6.751187"><ele>470.2</ele>
<time>2022-05-16T16:27:45.400000+02:00</time>
</trkpt>
<trkpt lat="46.866786" lon="6.751141"><ele>471</ele>
<time>2022-05-16T16:27:49.100000+02:00</time>
</trkpt>
<trkpt lat="46.866878" lon="6.751125"><ele>472</ele>
<time>2022-05-16T16:27:53.900000+02:00</time>
</trkpt>
<trkpt lat="46.866878" lon="6.751125"><ele>472</ele>
<time>2022-05-16T16:27:54.200000+02:00</time>
</trkpt>
<trkpt lat="46.867022" lon="6.751176"><ele>473.2</ele>
<time>2022-05-16T16:28:00.300000+02:00</time>
</trkpt>
<trkpt lat="46.867171" lon="6.751235"><ele>474.1</ele>
<time>2022-05-16T16:28:05.800000+02:00</time>
</trkpt>
<trkpt lat="46.867381" lon="6.751306"><ele>475.1</ele>
<time>2022-05-16T16:28:13.400000+02:00</time>
</trkpt>
<trkpt lat="46.867381" lon="6.751306"><ele>475.1</ele>
<time>2022-05-16T16:28:13.400000+02:00</time>
</trkpt>
<trkpt lat="46.867572" lon="6.751359"><ele>475.7</ele>
<time>2022-05-16T16:28:19.500000+02:00</time>
</trkpt>
<trkpt lat="46.867759" lon="6.751418"><ele>476.2</ele>
<time>2022-05-16T16:28:25.000000+02:00</time>
</trkpt>
<trkpt lat="46.86795" lon="6.751468"><ele>476.5</ele>
<time>2022-05-16T16:28:30.500000+02:00</time>
</trkpt>
<trkpt lat="46.868062" lon="6.751457"><ele>476.5</ele>
<time>2022-05-16T16:28:33.500000+02:00</time>
</trkpt>
<trkpt lat="46.868156" lon="6.75144"><ele>476.6</ele>
<time>2022-05-16T16:28:36.200000+02:00</time>
</trkpt>
<trkpt lat="46.868228" lon="6.751437"><ele>476.4</ele>
<time>2022-05-16T16:28:37.600000+02:00</time>
</trkpt>
<trkpt lat="46.868228" lon="6.751437"><ele>476.4</ele>
<time>2022-05-16T16:28:37.600000+02:00</time>
</trkpt>
<trkpt lat="46.868581" lon="6.751415"><ele>476.7</ele>
<time>2022-05-16T16:28:47.000000+02:00</time>
</trkpt>
<trkpt lat="46.868794" lon="6.75141"><ele>477</ele>
<time>2022-05-16T16:28:53.000000+02:00</time>
</trkpt>
<trkpt lat="46.868956" lon="6.751426"><ele>477.2</ele>
<time>2022-05-16T16:28:57.500000+02:00</time>
</trkpt>
<trkpt lat="46.869069" lon="6.751448"><ele>477.2</ele>
<time>2022-05-16T16:29:00.600000+02:00</time>
</trkpt>
<trkpt lat="46.869293" lon="6.75152"><ele>477.5</ele>
<time>2022-05-16T16:29:07.000000+02:00</time>
</trkpt>
<trkpt lat="46.869505" lon="6.751612"><ele>477.6</ele>
<time>2022-05-16T16:29:12.900000+02:00</time>
</trkpt>
<trkpt lat="46.869772" lon="6.751745"><ele>477.5</ele>
<time>2022-05-16T16:29:20.400000+02:00</time>
</trkpt>
<trkpt lat="46.869772" lon="6.751745"><ele>477.5</ele>
<time>2022-05-16T16:29:20.400000+02:00</time>
</trkpt>
<trkpt lat="46.869997" lon="6.751876"><ele>477.4</ele>
<time>2022-05-16T16:29:26.700000+02:00</time>
</trkpt>
<trkpt lat="46.870204" lon="6.752029"><ele>477</ele>
<time>2022-05-16T16:29:31.800000+02:00</time>
</trkpt>
<trkpt lat="46.870379" lon="6.752154"><ele>476.5</ele>
<time>2022-05-16T16:29:36.000000+02:00</time>
</trkpt>
<trkpt lat="46.870495" lon="6.752263"><ele>476.1</ele>
<time>2022-05-16T16:29:38.600000+02:00</time>
</trkpt>
<trkpt lat="46.870495" lon="6.752263"><ele>476.1</ele>
<time>2022-05-16T16:29:38.600000+02:00</time>
</trkpt>
<trkpt lat="46.870592" lon="6.752339"><ele>475.7</ele>
<time>2022-05-16T16:29:40.700000+02:00</time>
</trkpt>
<trkpt lat="46.870592" lon="6.752339"><ele>475.7</ele>
<time>2022-05-16T16:29:40.700000+02:00</time>
</trkpt>
<trkpt lat="46.870746" lon="6.752459"><ele>475</ele>
<time>2022-05-16T16:29:44.100000+02:00</time>
</trkpt>
<trkpt lat="46.871008" lon="6.752675"><ele>473.8</ele>
<time>2022-05-16T16:29:49.800000+02:00</time>
</trkpt>
<trkpt lat="46.87124" lon="6.75287"><ele>472.8</ele>
<time>2022-05-16T16:29:55.000000+02:00</time>
</trkpt>
<trkpt lat="46.871482" lon="6.753085"><ele>471.9</ele>
<time>2022-05-16T16:30:00.400000+02:00</time>
</trkpt>
<trkpt lat="46.871598" lon="6.75315"><ele>471.4</ele>
<time>2022-05-16T16:30:02.800000+02:00</time>
</trkpt>
<trkpt lat="46.871736" lon="6.753217"><ele>470.8</ele>
<time>2022-05-16T16:30:05.600000+02:00</time>
</trkpt>
<trkpt lat="46.872105" lon="6.753342"><ele>469.4</ele>
<time>2022-05-16T16:30:12.800000+02:00</time>
</trkpt>
<trkpt lat="46.872398" lon="6.753459"><ele>468.3</ele>
<time>2022-05-16T16:30:18.600000+02:00</time>
</trkpt>
<trkpt lat="46.872609" lon="6.753577"><ele>467.6</ele>
<time>2022-05-16T16:30:22.900000+02:00</time>
</trkpt>
<trkpt lat="46.872724" lon="6.75367"><ele>467.1</ele>
<time>2022-05-16T16:30:25.500000+02:00</time>
</trkpt>
<trkpt lat="46.872848" lon="6.753786"><ele>466.5</ele>
<time>2022-05-16T16:30:28.300000+02:00</time>
</trkpt>
<trkpt lat="46.873066" lon="6.754021"><ele>465.6</ele>
<time>2022-05-16T16:30:33.500000+02:00</time>
</trkpt>
<trkpt lat="46.873268" lon="6.754268"><ele>464.6</ele>
<time>2022-05-16T16:30:38.500000+02:00</time>
</trkpt>
<trkpt lat="46.873471" lon="6.754516"><ele>463.6</ele>
<time>2022-05-16T16:30:43.600000+02:00</time>
</trkpt>
<trkpt lat="46.873607" lon="6.754679"><ele>462.9</ele>
<time>2022-05-16T16:30:47.000000+02:00</time>
</trkpt>
<trkpt lat="46.873695" lon="6.754755"><ele>462.6</ele>
<time>2022-05-16T16:30:48.900000+02:00</time>
</trkpt>
<trkpt lat="46.873852" lon="6.754865"><ele>462</ele>
<time>2022-05-16T16:30:52.300000+02:00</time>
</trkpt>
<trkpt lat="46.87399" lon="6.754946"><ele>461.3</ele>
<time>2022-05-16T16:30:54.600000+02:00</time>
</trkpt>
<trkpt lat="46.874038" lon="6.754966"><ele>461.2</ele>
<time>2022-05-16T16:30:55.700000+02:00</time>
</trkpt>
<trkpt lat="46.874038" lon="6.754966"><ele>461.2</ele>
<time>2022-05-16T16:30:55.700000+02:00</time>
</trkpt>
<trkpt lat="46.874209" lon="6.75504"><ele>460.5</ele>
<time>2022-05-16T16:30:58.600000+02:00</time>
</trkpt>
<trkpt lat="46.874291" lon="6.75509"><ele>460.1</ele>
<time>2022-05-16T16:31:00.100000+02:00</time>
</trkpt>
<trkpt lat="46.874404" lon="6.755186"><ele>459.7</ele>
<time>2022-05-16T16:31:02.200000+02:00</time>
</trkpt>
<trkpt lat="46.874508" lon="6.755313"><ele>459.3</ele>
<time>2022-05-16T16:31:04.400000+02:00</time>
</trkpt>
<trkpt lat="46.874603" lon="6.755447"><ele>458.8</ele>
<time>2022-05-16T16:31:06.500000+02:00</time>
</trkpt>
<trkpt lat="46.874745" lon="6.755622"><ele>458.2</ele>
<time>2022-05-16T16:31:09.600000+02:00</time>
</trkpt>
<trkpt lat="46.874891" lon="6.755733"><ele>453.5</ele>
<time>2022-05-16T16:31:17.100000+02:00</time>
</trkpt>
<trkpt lat="46.875162" lon="6.755871"><ele>456.6</ele>
<time>2022-05-16T16:31:30.100000+02:00</time>
</trkpt>
<trkpt lat="46.875434" lon="6.75601"><ele>455.5</ele>
<time>2022-05-16T16:31:34.800000+02:00</time>
</trkpt>
<trkpt lat="46.875628" lon="6.756112"><ele>454.8</ele>
<time>2022-05-16T16:31:38.100000+02:00</time>
</trkpt>
<trkpt lat="46.875825" lon="6.756183"><ele>454.1</ele>
<time>2022-05-16T16:31:41.400000+02:00</time>
</trkpt>
<trkpt lat="46.876078" lon="6.756303"><ele>453</ele>
<time>2022-05-16T16:31:45.700000+02:00</time>
</trkpt>
<trkpt lat="46.87633" lon="6.756423"><ele>451.9</ele>
<time>2022-05-16T16:31:50.000000+02:00</time>
</trkpt>
<trkpt lat="46.876718" lon="6.756651"><ele>450.1</ele>
<time>2022-05-16T16:31:56.800000+02:00</time>
</trkpt>
<trkpt lat="46.876868" lon="6.756752"><ele>449.5</ele>
<time>2022-05-16T16:31:59.500000+02:00</time>
</trkpt>
<trkpt lat="46.87723" lon="6.757067"><ele>447.9</ele>
<time>2022-05-16T16:32:06.300000+02:00</time>
</trkpt>
<trkpt lat="46.877335" lon="6.757158"><ele>447.5</ele>
<time>2022-05-16T16:32:08.300000+02:00</time>
</trkpt>
<trkpt lat="46.877415" lon="6.75721"><ele>447.1</ele>
<time>2022-05-16T16:32:09.700000+02:00</time>
</trkpt>
<trkpt lat="46.877474" lon="6.757242"><ele>446.9</ele>
<time>2022-05-16T16:32:10.800000+02:00</time>
</trkpt>
<trkpt lat="46.877549" lon="6.757265"><ele>446.6</ele>
<time>2022-05-16T16:32:12.000000+02:00</time>
</trkpt>
<trkpt lat="46.877692" lon="6.757284"><ele>446</ele>
<time>2022-05-16T16:32:14.300000+02:00</time>
</trkpt>
<trkpt lat="46.877803" lon="6.757269"><ele>445.5</ele>
<time>2022-05-16T16:32:16.100000+02:00</time>
</trkpt>
<trkpt lat="46.877803" lon="6.757269"><ele>445.5</ele>
<time>2022-05-16T16:32:16.100000+02:00</time>
</trkpt>
<trkpt lat="46.877958" lon="6.757249"><ele>444.8</ele>
<time>2022-05-16T16:32:18.900000+02:00</time>
</trkpt>
<trkpt lat="46.877958" lon="6.757249"><ele>444.8</ele>
<time>2022-05-16T16:32:18.900000+02:00</time>
</trkpt>
<trkpt lat="46.878194" lon="6.757234"><ele>444.1</ele>
<time>2022-05-16T16:32:23.300000+02:00</time>
</trkpt>
<trkpt lat="46.878353" lon="6.757258"><ele>444</ele>
<time>2022-05-16T16:32:27.600000+02:00</time>
</trkpt>
<trkpt lat="46.878353" lon="6.757258"><ele>444</ele>
<time>2022-05-16T16:32:28.400000+02:00</time>
</trkpt>
<trkpt lat="46.878379" lon="6.757305"><ele>443.8</ele>
<time>2022-05-16T16:32:29.100000+02:00</time>
</trkpt>
<trkpt lat="46.87841" lon="6.757363"><ele>443.6</ele>
<time>2022-05-16T16:32:30.100000+02:00</time>
</trkpt>
<trkpt lat="46.878572" lon="6.757547"><ele>443.6</ele>
<time>2022-05-16T16:32:35.600000+02:00</time>
</trkpt>
<trkpt lat="46.878632" lon="6.757652"><ele>443.7</ele>
<time>2022-05-16T16:32:38.200000+02:00</time>
</trkpt>
<trkpt lat="46.878647" lon="6.757711"><ele>443.8</ele>
<time>2022-05-16T16:32:39.500000+02:00</time>
</trkpt>
<trkpt lat="46.878732" lon="6.75771"><ele>444.6</ele>
<time>2022-05-16T16:32:46.900000+02:00</time>
</trkpt>
<trkpt lat="46.878864" lon="6.757816"><ele>447.1</ele>
<time>2022-05-16T16:32:58.300000+02:00</time>
</trkpt>
<trkpt lat="46.878864" lon="6.757816"><ele>447.1</ele>
<time>2022-05-16T16:32:58.500000+02:00</time>
</trkpt>
<trkpt lat="46.879003" lon="6.757869"><ele>449.3</ele>
<time>2022-05-16T16:33:08.300000+02:00</time>
</trkpt>
<trkpt lat="46.879253" lon="6.757912"><ele>453</ele>
<time>2022-05-16T16:33:25.200000+02:00</time>
</trkpt>
<trkpt lat="46.879253" lon="6.757912"><ele>453</ele>
<time>2022-05-16T16:33:26.100000+02:00</time>
</trkpt>
<trkpt lat="46.879523" lon="6.75829"><ele>459</ele>
<time>2022-05-16T16:33:59.300000+02:00</time>
</trkpt>
<trkpt lat="46.879794" lon="6.758669"><ele>464.8</ele>
<time>2022-05-16T16:34:24.300000+02:00</time>
</trkpt>
<trkpt lat="46.880025" lon="6.758937"><ele>468.9</ele>
<time>2022-05-16T16:34:41.700000+02:00</time>
</trkpt>
<trkpt lat="46.880184" lon="6.759109"><ele>471.5</ele>
<time>2022-05-16T16:34:53.400000+02:00</time>
</trkpt>
<trkpt lat="46.880276" lon="6.759145"><ele>472.3</ele>
<time>2022-05-16T16:34:58.000000+02:00</time>
</trkpt>
<trkpt lat="46.880478" lon="6.759164"><ele>474.4</ele>
<time>2022-05-16T16:35:08.800000+02:00</time>
</trkpt>
<trkpt lat="46.880544" lon="6.75917"><ele>475.2</ele>
<time>2022-05-16T16:35:12.700000+02:00</time>
</trkpt>
<trkpt lat="46.880701" lon="6.759216"><ele>476.8</ele>
<time>2022-05-16T16:35:20.400000+02:00</time>
</trkpt>
<trkpt lat="46.880986" lon="6.759366"><ele>479.3</ele>
<time>2022-05-16T16:35:32.800000+02:00</time>
</trkpt>
<trkpt lat="46.881241" lon="6.75948"><ele>480.4</ele>
<time>2022-05-16T16:35:41.100000+02:00</time>
</trkpt>
<trkpt lat="46.881557" lon="6.759566"><ele>482</ele>
<time>2022-05-16T16:35:52.500000+02:00</time>
</trkpt>
<trkpt lat="46.88181" lon="6.759525"><ele>483.4</ele>
<time>2022-05-16T16:36:01.600000+02:00</time>
</trkpt>
<trkpt lat="46.88181" lon="6.759525"><ele>483.4</ele>
<time>2022-05-16T16:36:01.600000+02:00</time>
</trkpt>
<trkpt lat="46.881973" lon="6.75949"><ele>484.9</ele>
<time>2022-05-16T16:36:09.400000+02:00</time>
</trkpt>
<trkpt lat="46.881973" lon="6.75949"><ele>484.9</ele>
<time>2022-05-16T16:36:11.600000+02:00</time>
</trkpt>
<trkpt lat="46.882107" lon="6.75971"><ele>485.7</ele>
<time>2022-05-16T16:36:18.000000+02:00</time>
</trkpt>
<trkpt lat="46.882187" lon="6.759839"><ele>486.5</ele>
<time>2022-05-16T16:36:23.000000+02:00</time>
</trkpt>
<trkpt lat="46.882322" lon="6.760062"><ele>487.8</ele>
<time>2022-05-16T16:36:30.500000+02:00</time>
</trkpt>
<trkpt lat="46.882465" lon="6.760254"><ele>488.6</ele>
<time>2022-05-16T16:36:36.700000+02:00</time>
</trkpt>
<trkpt lat="46.882632" lon="6.760411"><ele>489.1</ele>
<time>2022-05-16T16:36:42.400000+02:00</time>
</trkpt>
<trkpt lat="46.882673" lon="6.760432"><ele>489.1</ele>
<time>2022-05-16T16:36:43.600000+02:00</time>
</trkpt>
<trkpt lat="46.882961" lon="6.760586"><ele>489</ele>
<time>2022-05-16T16:36:52.000000+02:00</time>
</trkpt>
<trkpt lat="46.883249" lon="6.760743"><ele>488.7</ele>
<time>2022-05-16T16:36:58.900000+02:00</time>
</trkpt>
<trkpt lat="46.883538" lon="6.760898"><ele>488.3</ele>
<time>2022-05-16T16:37:05.900000+02:00</time>
</trkpt>
<trkpt lat="46.883606" lon="6.760926"><ele>488.2</ele>
<time>2022-05-16T16:37:07.500000+02:00</time>
</trkpt>
<trkpt lat="46.883687" lon="6.760958"><ele>487.8</ele>
<time>2022-05-16T16:37:08.800000+02:00</time>
</trkpt>
<trkpt lat="46.884011" lon="6.761002"><ele>485.9</ele>
<time>2022-05-16T16:37:13.700000+02:00</time>
</trkpt>
<trkpt lat="46.88433" lon="6.761157"><ele>485.6</ele>
<time>2022-05-16T16:37:22.300000+02:00</time>
</trkpt>
<trkpt lat="46.884483" lon="6.761231"><ele>485.7</ele>
<time>2022-05-16T16:37:26.400000+02:00</time>
</trkpt>
<trkpt lat="46.884586" lon="6.7613"><ele>485.9</ele>
<time>2022-05-16T16:37:29.400000+02:00</time>
</trkpt>
<trkpt lat="46.884933" lon="6.761534"><ele>487</ele>
<time>2022-05-16T16:37:40.900000+02:00</time>
</trkpt>
<trkpt lat="46.885279" lon="6.761767"><ele>488.1</ele>
<time>2022-05-16T16:37:52.400000+02:00</time>
</trkpt>
<trkpt lat="46.88542" lon="6.761775"><ele>488.6</ele>
<time>2022-05-16T16:37:56.600000+02:00</time>
</trkpt>
<trkpt lat="46.885499" lon="6.76176"><ele>488.9</ele>
<time>2022-05-16T16:37:59.300000+02:00</time>
</trkpt>
<trkpt lat="46.885499" lon="6.76176"><ele>488.9</ele>
<time>2022-05-16T16:37:59.300000+02:00</time>
</trkpt>
<trkpt lat="46.885642" lon="6.761729"><ele>489.2</ele>
<time>2022-05-16T16:38:03.400000+02:00</time>
</trkpt>
<trkpt lat="46.885642" lon="6.761729"><ele>489.2</ele>
<time>2022-05-16T16:38:03.600000+02:00</time>
</trkpt>
<trkpt lat="46.885748" lon="6.761761"><ele>488.9</ele>
<time>2022-05-16T16:38:06.000000+02:00</time>
</trkpt>
<trkpt lat="46.885944" lon="6.761933"><ele>488.6</ele>
<time>2022-05-16T16:38:11.000000+02:00</time>
</trkpt>
<trkpt lat="46.886141" lon="6.762106"><ele>488.5</ele>
<time>2022-05-16T16:38:17.000000+02:00</time>
</trkpt>
<trkpt lat="46.886141" lon="6.762106"><ele>488.5</ele>
<time>2022-05-16T16:38:17.100000+02:00</time>
</trkpt>
<trkpt lat="46.886355" lon="6.762349"><ele>488.6</ele>
<time>2022-05-16T16:38:24.100000+02:00</time>
</trkpt>
<trkpt lat="46.886567" lon="6.762647"><ele>488.4</ele>
<time>2022-05-16T16:38:31.800000+02:00</time>
</trkpt>
<trkpt lat="46.88678" lon="6.762946"><ele>487.5</ele>
<time>2022-05-16T16:38:37.200000+02:00</time>
</trkpt>
<trkpt lat="46.886967" lon="6.763139"><ele>487.3</ele>
<time>2022-05-16T16:38:43.200000+02:00</time>
</trkpt>
<trkpt lat="46.886967" lon="6.763139"><ele>487.3</ele>
<time>2022-05-16T16:38:43.200000+02:00</time>
</trkpt>
<trkpt lat="46.88729" lon="6.763463"><ele>485.6</ele>
<time>2022-05-16T16:38:50.200000+02:00</time>
</trkpt>
<trkpt lat="46.88729" lon="6.763463"><ele>485.6</ele>
<time>2022-05-16T16:38:50.400000+02:00</time>
</trkpt>
<trkpt lat="46.887516" lon="6.763578"><ele>486.2</ele>
<time>2022-05-16T16:38:57.300000+02:00</time>
</trkpt>
<trkpt lat="46.88774" lon="6.763693"><ele>487.1</ele>
<time>2022-05-16T16:39:04.900000+02:00</time>
</trkpt>
<trkpt lat="46.88774" lon="6.763693"><ele>487.1</ele>
<time>2022-05-16T16:39:04.900000+02:00</time>
</trkpt>
<trkpt lat="46.88807" lon="6.763912"><ele>486.8</ele>
<time>2022-05-16T16:39:13.800000+02:00</time>
</trkpt>
<trkpt lat="46.88807" lon="6.763912"><ele>486.8</ele>
<time>2022-05-16T16:39:13.800000+02:00</time>
</trkpt>
<trkpt lat="46.888429" lon="6.764151"><ele>486.8</ele>
<time>2022-05-16T16:39:24.300000+02:00</time>
</trkpt>
<trkpt lat="46.888429" lon="6.764151"><ele>486.8</ele>
<time>2022-05-16T16:39:24.900000+02:00</time>
</trkpt>
<trkpt lat="46.888589" lon="6.764457"><ele>484.6</ele>
<time>2022-05-16T16:39:28.400000+02:00</time>
</trkpt>
<trkpt lat="46.888749" lon="6.764765"><ele>482.8</ele>
<time>2022-05-16T16:39:31.900000+02:00</time>
</trkpt>
<trkpt lat="46.888987" lon="6.765079"><ele>481</ele>
<time>2022-05-16T16:39:37.000000+02:00</time>
</trkpt>
<trkpt lat="46.88914" lon="6.765239"><ele>480.2</ele>
<time>2022-05-16T16:39:40.600000+02:00</time>
</trkpt>
<trkpt lat="46.889302" lon="6.765331"><ele>479.6</ele>
<time>2022-05-16T16:39:43.800000+02:00</time>
</trkpt>
<trkpt lat="46.88958" lon="6.765455"><ele>478.9</ele>
<time>2022-05-16T16:39:50.300000+02:00</time>
</trkpt>
<trkpt lat="46.889857" lon="6.765577"><ele>478.6</ele>
<time>2022-05-16T16:39:56.700000+02:00</time>
</trkpt>
<trkpt lat="46.88992" lon="6.765607"><ele>478.6</ele>
<time>2022-05-16T16:39:58.500000+02:00</time>
</trkpt>
<trkpt lat="46.890046" lon="6.765698"><ele>478.7</ele>
<time>2022-05-16T16:40:02.300000+02:00</time>
</trkpt>
<trkpt lat="46.890301" lon="6.765954"><ele>478.9</ele>
<time>2022-05-16T16:40:10.400000+02:00</time>
</trkpt>
<trkpt lat="46.890557" lon="6.76621"><ele>477.9</ele>
<time>2022-05-16T16:40:16.300000+02:00</time>
</trkpt>
<trkpt lat="46.8907" lon="6.766367"><ele>477.6</ele>
<time>2022-05-16T16:40:20.300000+02:00</time>
</trkpt>
<trkpt lat="46.891011" lon="6.766705"><ele>476.6</ele>
<time>2022-05-16T16:40:28.800000+02:00</time>
</trkpt>
<trkpt lat="46.891173" lon="6.767"><ele>476.4</ele>
<time>2022-05-16T16:40:35.700000+02:00</time>
</trkpt>
<trkpt lat="46.891241" lon="6.767124"><ele>476.7</ele>
<time>2022-05-16T16:40:38.700000+02:00</time>
</trkpt>
<trkpt lat="46.891278" lon="6.767212"><ele>476.8</ele>
<time>2022-05-16T16:40:40.700000+02:00</time>
</trkpt>
<trkpt lat="46.891278" lon="6.767212"><ele>476.8</ele>
<time>2022-05-16T16:40:40.900000+02:00</time>
</trkpt>
<trkpt lat="46.89141" lon="6.76774"><ele>476.8</ele>
<time>2022-05-16T16:40:51.100000+02:00</time>
</trkpt>
<trkpt lat="46.891542" lon="6.76827"><ele>476.7</ele>
<time>2022-05-16T16:41:01.300000+02:00</time>
</trkpt>
<trkpt lat="46.891596" lon="6.768377"><ele>476.8</ele>
<time>2022-05-16T16:41:03.900000+02:00</time>
</trkpt>
<trkpt lat="46.891596" lon="6.768377"><ele>476.8</ele>
<time>2022-05-16T16:41:04.100000+02:00</time>
</trkpt>
<trkpt lat="46.891785" lon="6.768598"><ele>477.6</ele>
<time>2022-05-16T16:41:11.600000+02:00</time>
</trkpt>
<trkpt lat="46.891923" lon="6.768772"><ele>478.4</ele>
<time>2022-05-16T16:41:17.300000+02:00</time>
</trkpt>
<trkpt lat="46.892016" lon="6.76892"><ele>479.1</ele>
<time>2022-05-16T16:41:22.200000+02:00</time>
</trkpt>
<trkpt lat="46.892016" lon="6.76892"><ele>479.1</ele>
<time>2022-05-16T16:41:22.200000+02:00</time>
</trkpt>
<trkpt lat="46.892094" lon="6.76906"><ele>479.7</ele>
<time>2022-05-16T16:41:26.400000+02:00</time>
</trkpt>
<trkpt lat="46.892094" lon="6.76906"><ele>479.7</ele>
<time>2022-05-16T16:41:26.400000+02:00</time>
</trkpt>
<trkpt lat="46.892331" lon="6.769505"><ele>480.5</ele>
<time>2022-05-16T16:41:37.400000+02:00</time>
</trkpt>
<trkpt lat="46.892331" lon="6.769505"><ele>480.5</ele>
<time>2022-05-16T16:41:37.400000+02:00</time>
</trkpt>
<trkpt lat="46.892558" lon="6.7699"><ele>480.8</ele>
<time>2022-05-16T16:41:46.800000+02:00</time>
</trkpt>
<trkpt lat="46.892785" lon="6.770294"><ele>480.7</ele>
<time>2022-05-16T16:41:56.300000+02:00</time>
</trkpt>
<trkpt lat="46.892904" lon="6.770506"><ele>480.4</ele>
<time>2022-05-16T16:42:00.500000+02:00</time>
</trkpt>
<trkpt lat="46.892904" lon="6.770506"><ele>480.4</ele>
<time>2022-05-16T16:42:00.500000+02:00</time>
</trkpt>
<trkpt lat="46.893016" lon="6.770705"><ele>480.1</ele>
<time>2022-05-16T16:42:04.500000+02:00</time>
</trkpt>
<trkpt lat="46.893016" lon="6.770705"><ele>480.1</ele>
<time>2022-05-16T16:42:04.500000+02:00</time>
</trkpt>
<trkpt lat="46.893198" lon="6.771029"><ele>479.6</ele>
<time>2022-05-16T16:42:11.000000+02:00</time>
</trkpt>
<trkpt lat="46.893379" lon="6.771352"><ele>478.2</ele>
<time>2022-05-16T16:42:15.700000+02:00</time>
</trkpt>
<trkpt lat="46.893379" lon="6.771352"><ele>478.2</ele>
<time>2022-05-16T16:42:15.700000+02:00</time>
</trkpt>
<trkpt lat="46.893419" lon="6.771423"><ele>477.9</ele>
<time>2022-05-16T16:42:16.800000+02:00</time>
</trkpt>
<trkpt lat="46.893614" lon="6.771744"><ele>475.8</ele>
<time>2022-05-16T16:42:20.600000+02:00</time>
</trkpt>
<trkpt lat="46.893808" lon="6.772063"><ele>474.7</ele>
<time>2022-05-16T16:42:26.100000+02:00</time>
</trkpt>
<trkpt lat="46.894026" lon="6.772373"><ele>474</ele>
<time>2022-05-16T16:42:32.700000+02:00</time>
</trkpt>
<trkpt lat="46.894026" lon="6.772373"><ele>474</ele>
<time>2022-05-16T16:42:32.700000+02:00</time>
</trkpt>
<trkpt lat="46.894213" lon="6.772588"><ele>473.5</ele>
<time>2022-05-16T16:42:37.900000+02:00</time>
</trkpt>
<trkpt lat="46.894258" lon="6.772597"><ele>473.5</ele>
<time>2022-05-16T16:42:40.100000+02:00</time>
</trkpt>
<trkpt lat="46.894258" lon="6.772597"><ele>473.5</ele>
<time>2022-05-16T16:42:41.100000+02:00</time>
</trkpt>
<trkpt lat="46.894466" lon="6.772921"><ele>472.1</ele>
<time>2022-05-16T16:42:46.300000+02:00</time>
</trkpt>
<trkpt lat="46.894466" lon="6.772921"><ele>472.1</ele>
<time>2022-05-16T16:42:46.700000+02:00</time>
</trkpt>
<trkpt lat="46.894719" lon="6.773124"><ele>471.3</ele>
<time>2022-05-16T16:42:52.700000+02:00</time>
</trkpt>
<trkpt lat="46.894877" lon="6.773218"><ele>469.9</ele>
<time>2022-05-16T16:42:54.800000+02:00</time>
</trkpt>
<trkpt lat="46.894943" lon="6.773252"><ele>469.3</ele>
<time>2022-05-16T16:42:55.600000+02:00</time>
</trkpt>
<trkpt lat="46.894943" lon="6.773252"><ele>469.3</ele>
<time>2022-05-16T16:42:55.800000+02:00</time>
</trkpt>
<trkpt lat="46.895027" lon="6.773262"><ele>469</ele>
<time>2022-05-16T16:42:57.400000+02:00</time>
</trkpt>
<trkpt lat="46.895074" lon="6.773268"><ele>468.8</ele>
<time>2022-05-16T16:42:58.300000+02:00</time>
</trkpt>
<trkpt lat="46.89511" lon="6.773287"><ele>468.9</ele>
<time>2022-05-16T16:42:59.400000+02:00</time>
</trkpt>
<trkpt lat="46.895134" lon="6.773323"><ele>468.9</ele>
<time>2022-05-16T16:43:00.300000+02:00</time>
</trkpt>
<trkpt lat="46.895134" lon="6.773323"><ele>468.9</ele>
<time>2022-05-16T16:43:00.900000+02:00</time>
</trkpt>
<trkpt lat="46.895256" lon="6.773494"><ele>468.9</ele>
<time>2022-05-16T16:43:05.400000+02:00</time>
</trkpt>
<trkpt lat="46.895256" lon="6.773494"><ele>468.9</ele>
<time>2022-05-16T16:43:05.500000+02:00</time>
</trkpt>
<trkpt lat="46.895372" lon="6.773676"><ele>469.2</ele>
<time>2022-05-16T16:43:10.200000+02:00</time>
</trkpt>
<trkpt lat="46.895372" lon="6.773676"><ele>469.2</ele>
<time>2022-05-16T16:43:10.200000+02:00</time>
</trkpt>
<trkpt lat="46.895445" lon="6.773791"><ele>469.5</ele>
<time>2022-05-16T16:43:13.600000+02:00</time>
</trkpt>
<trkpt lat="46.895502" lon="6.773928"><ele>470</ele>
<time>2022-05-16T16:43:17.000000+02:00</time>
</trkpt>
<trkpt lat="46.895532" lon="6.774006"><ele>469.9</ele>
<time>2022-05-16T16:43:18.400000+02:00</time>
</trkpt>
<trkpt lat="46.895538" lon="6.774097"><ele>469.8</ele>
<time>2022-05-16T16:43:20.200000+02:00</time>
</trkpt>
<trkpt lat="46.895538" lon="6.774097"><ele>469.8</ele>
<time>2022-05-16T16:43:21.100000+02:00</time>
</trkpt>
<trkpt lat="46.895688" lon="6.774421"><ele>468.8</ele>
<time>2022-05-16T16:43:26.100000+02:00</time>
</trkpt>
<trkpt lat="46.895836" lon="6.774748"><ele>468.1</ele>
<time>2022-05-16T16:43:31.800000+02:00</time>
</trkpt>
<trkpt lat="46.89586" lon="6.774733"><ele>468.2</ele>
<time>2022-05-16T16:43:36.400000+02:00</time>
</trkpt>
<trkpt lat="46.895902" lon="6.774717"><ele>468.5</ele>
<time>2022-05-16T16:43:38.200000+02:00</time>
</trkpt>
<trkpt lat="46.89595" lon="6.77472"><ele>468.8</ele>
<time>2022-05-16T16:43:39.900000+02:00</time>
</trkpt>
<trkpt lat="46.896005" lon="6.774746"><ele>469.3</ele>
<time>2022-05-16T16:43:42.700000+02:00</time>
</trkpt>
<trkpt lat="46.896181" lon="6.774887"><ele>471.1</ele>
<time>2022-05-16T16:43:52.500000+02:00</time>
</trkpt>
<trkpt lat="46.896315" lon="6.775012"><ele>472.3</ele>
<time>2022-05-16T16:43:59.000000+02:00</time>
</trkpt>
<trkpt lat="46.896652" lon="6.775402"><ele>476.2</ele>
<time>2022-05-16T16:44:20.000000+02:00</time>
</trkpt>
<trkpt lat="46.896712" lon="6.775461"><ele>476.9</ele>
<time>2022-05-16T16:44:23.500000+02:00</time>
</trkpt>
<trkpt lat="46.896799" lon="6.775542"><ele>477.9</ele>
<time>2022-05-16T16:44:28.500000+02:00</time>
</trkpt>
<trkpt lat="46.896958" lon="6.775639"><ele>479</ele>
<time>2022-05-16T16:44:34.600000+02:00</time>
</trkpt>
<trkpt lat="46.89713" lon="6.775721"><ele>479.5</ele>
<time>2022-05-16T16:44:39.700000+02:00</time>
</trkpt>
<trkpt lat="46.897262" lon="6.775812"><ele>479.7</ele>
<time>2022-05-16T16:44:43.800000+02:00</time>
</trkpt>
<trkpt lat="46.897464" lon="6.776016"><ele>479.4</ele>
<time>2022-05-16T16:44:49.300000+02:00</time>
</trkpt>
<trkpt lat="46.897464" lon="6.776016"><ele>479.4</ele>
<time>2022-05-16T16:44:49.300000+02:00</time>
</trkpt>
<trkpt lat="46.89774" lon="6.776319"><ele>478.6</ele>
<time>2022-05-16T16:44:56.700000+02:00</time>
</trkpt>
<trkpt lat="46.897762" lon="6.776343"><ele>478.5</ele>
<time>2022-05-16T16:44:57.200000+02:00</time>
</trkpt>
<trkpt lat="46.897947" lon="6.776562"><ele>478.3</ele>
<time>2022-05-16T16:45:03.500000+02:00</time>
</trkpt>
<trkpt lat="46.898087" lon="6.776775"><ele>478.4</ele>
<time>2022-05-16T16:45:08.800000+02:00</time>
</trkpt>
<trkpt lat="46.89825" lon="6.777057"><ele>478.5</ele>
<time>2022-05-16T16:45:15.400000+02:00</time>
</trkpt>
<trkpt lat="46.89825" lon="6.777057"><ele>478.5</ele>
<time>2022-05-16T16:45:15.400000+02:00</time>
</trkpt>
<trkpt lat="46.898399" lon="6.777317"><ele>478.5</ele>
<time>2022-05-16T16:45:21.600000+02:00</time>
</trkpt>
<trkpt lat="46.898547" lon="6.777577"><ele>478.6</ele>
<time>2022-05-16T16:45:27.800000+02:00</time>
</trkpt>
<trkpt lat="46.898666" lon="6.777763"><ele>478.7</ele>
<time>2022-05-16T16:45:32.500000+02:00</time>
</trkpt>
<trkpt lat="46.898772" lon="6.777882"><ele>478.9</ele>
<time>2022-05-16T16:45:36.300000+02:00</time>
</trkpt>
<trkpt lat="46.898865" lon="6.77797"><ele>479.1</ele>
<time>2022-05-16T16:45:39.400000+02:00</time>
</trkpt>
<trkpt lat="46.898984" lon="6.778055"><ele>479.6</ele>
<time>2022-05-16T16:45:43.600000+02:00</time>
</trkpt>
<trkpt lat="46.89935" lon="6.778233"><ele>480.2</ele>
<time>2022-05-16T16:45:54.500000+02:00</time>
</trkpt>
<trkpt lat="46.899717" lon="6.77841"><ele>479.1</ele>
<time>2022-05-16T16:46:01.900000+02:00</time>
</trkpt>
<trkpt lat="46.899945" lon="6.778534"><ele>478</ele>
<time>2022-05-16T16:46:06.600000+02:00</time>
</trkpt>
<trkpt lat="46.900173" lon="6.77866"><ele>477.4</ele>
<time>2022-05-16T16:46:12.000000+02:00</time>
</trkpt>
<trkpt lat="46.90022" lon="6.778694"><ele>477.5</ele>
<time>2022-05-16T16:46:13.500000+02:00</time>
</trkpt>
<trkpt lat="46.900252" lon="6.778711"><ele>477.5</ele>
<time>2022-05-16T16:46:14.400000+02:00</time>
</trkpt>
<trkpt lat="46.900252" lon="6.778711"><ele>477.5</ele>
<time>2022-05-16T16:46:14.500000+02:00</time>
</trkpt>
<trkpt lat="46.900497" lon="6.778948"><ele>478</ele>
<time>2022-05-16T16:46:22.800000+02:00</time>
</trkpt>
<trkpt lat="46.900744" lon="6.779185"><ele>478.7</ele>
<time>2022-05-16T16:46:31.200000+02:00</time>
</trkpt>
<trkpt lat="46.901007" lon="6.779415"><ele>479.5</ele>
<time>2022-05-16T16:46:39.900000+02:00</time>
</trkpt>
<trkpt lat="46.901383" lon="6.779667"><ele>479.9</ele>
<time>2022-05-16T16:46:51.600000+02:00</time>
</trkpt>
<trkpt lat="46.901488" lon="6.779777"><ele>479.7</ele>
<time>2022-05-16T16:46:54.500000+02:00</time>
</trkpt>
<trkpt lat="46.901511" lon="6.779832"><ele>479.7</ele>
<time>2022-05-16T16:46:55.700000+02:00</time>
</trkpt>
<trkpt lat="46.901522" lon="6.779872"><ele>479.7</ele>
<time>2022-05-16T16:46:56.500000+02:00</time>
</trkpt>
<trkpt lat="46.901526" lon="6.779913"><ele>479.6</ele>
<time>2022-05-16T16:46:57.100000+02:00</time>
</trkpt>
<trkpt lat="46.901524" lon="6.780003"><ele>479.5</ele>
<time>2022-05-16T16:46:58.400000+02:00</time>
</trkpt>
<trkpt lat="46.901524" lon="6.780003"><ele>479.5</ele>
<time>2022-05-16T16:47:05.100000+02:00</time>
</trkpt>
<trkpt lat="46.901888" lon="6.780033"><ele>482.4</ele>
<time>2022-05-16T16:47:20.800000+02:00</time>
</trkpt>
<trkpt lat="46.901888" lon="6.780033"><ele>482.4</ele>
<time>2022-05-16T16:47:20.800000+02:00</time>
</trkpt>
<trkpt lat="46.902264" lon="6.780026"><ele>484.5</ele>
<time>2022-05-16T16:47:33.900000+02:00</time>
</trkpt>
<trkpt lat="46.902355" lon="6.780037"><ele>484.5</ele>
<time>2022-05-16T16:47:36.300000+02:00</time>
</trkpt>
<trkpt lat="46.902355" lon="6.780037"><ele>484.5</ele>
<time>2022-05-16T16:47:36.300000+02:00</time>
</trkpt>
<trkpt lat="46.902566" lon="6.780107"><ele>484.6</ele>
<time>2022-05-16T16:47:42.200000+02:00</time>
</trkpt>
<trkpt lat="46.902566" lon="6.780107"><ele>484.6</ele>
<time>2022-05-16T16:47:42.300000+02:00</time>
</trkpt>
<trkpt lat="46.902794" lon="6.780284"><ele>486.1</ele>
<time>2022-05-16T16:47:51.700000+02:00</time>
</trkpt>
<trkpt lat="46.902794" lon="6.780284"><ele>486.1</ele>
<time>2022-05-16T16:47:52.000000+02:00</time>
</trkpt>
<trkpt lat="46.902854" lon="6.780386"><ele>487.1</ele>
<time>2022-05-16T16:47:56.900000+02:00</time>
</trkpt>
<trkpt lat="46.902884" lon="6.780436"><ele>487.6</ele>
<time>2022-05-16T16:47:59.300000+02:00</time>
</trkpt>
<trkpt lat="46.902979" lon="6.78056"><ele>489.1</ele>
<time>2022-05-16T16:48:06.300000+02:00</time>
</trkpt>
<trkpt lat="46.902998" lon="6.780586"><ele>489.3</ele>
<time>2022-05-16T16:48:07.500000+02:00</time>
</trkpt>
<trkpt lat="46.903059" lon="6.78065"><ele>490</ele>
<time>2022-05-16T16:48:11.200000+02:00</time>
</trkpt>
<trkpt lat="46.903136" lon="6.780708"><ele>491</ele>
<time>2022-05-16T16:48:16.000000+02:00</time>
</trkpt>
<trkpt lat="46.903189" lon="6.78074"><ele>491.1</ele>
<time>2022-05-16T16:48:17.600000+02:00</time>
</trkpt>
<trkpt lat="46.903189" lon="6.78074"><ele>491.1</ele>
<time>2022-05-16T16:48:17.600000+02:00</time>
</trkpt>
<trkpt lat="46.903387" lon="6.780869"><ele>490.8</ele>
<time>2022-05-16T16:48:22.700000+02:00</time>
</trkpt>
<trkpt lat="46.903587" lon="6.780997"><ele>490.5</ele>
<time>2022-05-16T16:48:27.900000+02:00</time>
</trkpt>
<trkpt lat="46.903656" lon="6.781038"><ele>490.7</ele>
<time>2022-05-16T16:48:30.100000+02:00</time>
</trkpt>
<trkpt lat="46.903656" lon="6.781038"><ele>490.7</ele>
<time>2022-05-16T16:48:34.800000+02:00</time>
</trkpt>
<trkpt lat="46.903746" lon="6.780936"><ele>491.1</ele>
<time>2022-05-16T16:48:38.300000+02:00</time>
</trkpt>
<trkpt lat="46.903746" lon="6.780936"><ele>491.1</ele>
<time>2022-05-16T16:48:40.100000+02:00</time>
</trkpt>
<trkpt lat="46.90383" lon="6.780967"><ele>490.9</ele>
<time>2022-05-16T16:48:41.900000+02:00</time>
</trkpt>
<trkpt lat="46.904134" lon="6.78109"><ele>487.9</ele>
<time>2022-05-16T16:48:45.400000+02:00</time>
</trkpt>
<trkpt lat="46.904202" lon="6.781148"><ele>487.3</ele>
<time>2022-05-16T16:48:46.500000+02:00</time>
</trkpt>
<trkpt lat="46.904255" lon="6.781219"><ele>486.6</ele>
<time>2022-05-16T16:48:47.300000+02:00</time>
</trkpt>
<trkpt lat="46.904305" lon="6.781357"><ele>485.6</ele>
<time>2022-05-16T16:48:48.500000+02:00</time>
</trkpt>
<trkpt lat="46.90441" lon="6.78175"><ele>482.9</ele>
<time>2022-05-16T16:48:51.700000+02:00</time>
</trkpt>
<trkpt lat="46.904456" lon="6.781847"><ele>482.3</ele>
<time>2022-05-16T16:48:52.700000+02:00</time>
</trkpt>
<trkpt lat="46.904503" lon="6.781912"><ele>482</ele>
<time>2022-05-16T16:48:53.900000+02:00</time>
</trkpt>
<trkpt lat="46.904559" lon="6.78198"><ele>481.6</ele>
<time>2022-05-16T16:48:55.000000+02:00</time>
</trkpt>
<trkpt lat="46.904615" lon="6.782031"><ele>481.4</ele>
<time>2022-05-16T16:48:56.200000+02:00</time>
</trkpt>
<trkpt lat="46.904691" lon="6.78207"><ele>481.2</ele>
<time>2022-05-16T16:48:57.900000+02:00</time>
</trkpt>
<trkpt lat="46.904766" lon="6.782073"><ele>481.1</ele>
<time>2022-05-16T16:49:00.000000+02:00</time>
</trkpt>
<trkpt lat="46.90484" lon="6.78206"><ele>481.1</ele>
<time>2022-05-16T16:49:01.900000+02:00</time>
</trkpt>
<trkpt lat="46.905016" lon="6.781931"><ele>481.1</ele>
<time>2022-05-16T16:49:07.200000+02:00</time>
</trkpt>
<trkpt lat="46.905153" lon="6.78179"><ele>481.4</ele>
<time>2022-05-16T16:49:11.800000+02:00</time>
</trkpt>
<trkpt lat="46.905193" lon="6.781758"><ele>481.5</ele>
<time>2022-05-16T16:49:13.100000+02:00</time>
</trkpt>
<trkpt lat="46.905249" lon="6.781717"><ele>481.9</ele>
<time>2022-05-16T16:49:15.700000+02:00</time>
</trkpt>
<trkpt lat="46.905279" lon="6.781711"><ele>482</ele>
<time>2022-05-16T16:49:16.600000+02:00</time>
</trkpt>
<trkpt lat="46.905301" lon="6.781716"><ele>482.2</ele>
<time>2022-05-16T16:49:17.700000+02:00</time>
</trkpt>
<trkpt lat="46.905327" lon="6.781724"><ele>482.4</ele>
<time>2022-05-16T16:49:18.800000+02:00</time>
</trkpt>
<trkpt lat="46.905354" lon="6.781749"><ele>482.5</ele>
<time>2022-05-16T16:49:19.800000+02:00</time>
</trkpt>
<trkpt lat="46.905376" lon="6.781777"><ele>482.8</ele>
<time>2022-05-16T16:49:21.200000+02:00</time>
</trkpt>
<trkpt lat="46.905464" lon="6.781915"><ele>483.6</ele>
<time>2022-05-16T16:49:25.700000+02:00</time>
</trkpt>
<trkpt lat="46.90553" lon="6.782006"><ele>484.3</ele>
<time>2022-05-16T16:49:29.400000+02:00</time>
</trkpt>
<trkpt lat="46.905635" lon="6.782131"><ele>485.3</ele>
<time>2022-05-16T16:49:34.900000+02:00</time>
</trkpt>
<trkpt lat="46.905704" lon="6.78223"><ele>486</ele>
<time>2022-05-16T16:49:38.800000+02:00</time>
</trkpt>
<trkpt lat="46.905765" lon="6.782323"><ele>486.5</ele>
<time>2022-05-16T16:49:42.000000+02:00</time>
</trkpt>
<trkpt lat="46.905933" lon="6.782669"><ele>487.5</ele>
<time>2022-05-16T16:49:51.000000+02:00</time>
</trkpt>
<trkpt lat="46.906012" lon="6.782831"><ele>487.7</ele>
<time>2022-05-16T16:49:54.800000+02:00</time>
</trkpt>
<trkpt lat="46.906012" lon="6.782831"><ele>487.7</ele>
<time>2022-05-16T16:49:54.800000+02:00</time>
</trkpt>
<trkpt lat="46.906152" lon="6.783082"><ele>488.3</ele>
<time>2022-05-16T16:50:01.100000+02:00</time>
</trkpt>
<trkpt lat="46.90622" lon="6.783192"><ele>488.8</ele>
<time>2022-05-16T16:50:04.700000+02:00</time>
</trkpt>
<trkpt lat="46.906306" lon="6.783306"><ele>489.1</ele>
<time>2022-05-16T16:50:08.000000+02:00</time>
</trkpt>
<trkpt lat="46.906396" lon="6.783408"><ele>489.7</ele>
<time>2022-05-16T16:50:12.100000+02:00</time>
</trkpt>
<trkpt lat="46.906452" lon="6.78347"><ele>490</ele>
<time>2022-05-16T16:50:14.300000+02:00</time>
</trkpt>
<trkpt lat="46.906785" lon="6.783753"><ele>491</ele>
<time>2022-05-16T16:50:25.200000+02:00</time>
</trkpt>
<trkpt lat="46.906886" lon="6.783836"><ele>490.8</ele>
<time>2022-05-16T16:50:27.800000+02:00</time>
</trkpt>
<trkpt lat="46.907026" lon="6.783896"><ele>489.7</ele>
<time>2022-05-16T16:50:29.700000+02:00</time>
</trkpt>
<trkpt lat="46.907116" lon="6.783925"><ele>489</ele>
<time>2022-05-16T16:50:31.000000+02:00</time>
</trkpt>
<trkpt lat="46.907196" lon="6.78397"><ele>488.2</ele>
<time>2022-05-16T16:50:32.300000+02:00</time>
</trkpt>
<trkpt lat="46.907237" lon="6.784006"><ele>487.9</ele>
<time>2022-05-16T16:50:36.100000+02:00</time>
</trkpt>
<trkpt lat="46.907251" lon="6.784039"><ele>487.6</ele>
<time>2022-05-16T16:50:36.400000+02:00</time>
</trkpt>
<trkpt lat="46.907258" lon="6.78407"><ele>487.2</ele>
<time>2022-05-16T16:50:37.400000+02:00</time>
</trkpt>
<trkpt lat="46.90726" lon="6.784109"><ele>487</ele>
<time>2022-05-16T16:50:37.700000+02:00</time>
</trkpt>
<trkpt lat="46.907252" lon="6.784152"><ele>486.6</ele>
<time>2022-05-16T16:50:38.100000+02:00</time>
</trkpt>
<trkpt lat="46.907206" lon="6.784255"><ele>485.8</ele>
<time>2022-05-16T16:50:38.900000+02:00</time>
</trkpt>
<trkpt lat="46.907153" lon="6.784347"><ele>485.2</ele>
<time>2022-05-16T16:50:39.900000+02:00</time>
</trkpt>
<trkpt lat="46.907073" lon="6.784476"><ele>484.4</ele>
<time>2022-05-16T16:50:41.200000+02:00</time>
</trkpt>
<trkpt lat="46.90701" lon="6.784578"><ele>483.9</ele>
<time>2022-05-16T16:50:42.500000+02:00</time>
</trkpt>
<trkpt lat="46.906993" lon="6.784637"><ele>483.7</ele>
<time>2022-05-16T16:50:43.200000+02:00</time>
</trkpt>
<trkpt lat="46.906993" lon="6.784637"><ele>483.7</ele>
<time>2022-05-16T16:50:43.900000+02:00</time>
</trkpt>
<trkpt lat="46.906972" lon="6.784768"><ele>483.7</ele>
<time>2022-05-16T16:50:46.400000+02:00</time>
</trkpt>
<trkpt lat="46.906966" lon="6.784829"><ele>483.9</ele>
<time>2022-05-16T16:50:47.900000+02:00</time>
</trkpt>
<trkpt lat="46.906975" lon="6.784938"><ele>484.3</ele>
<time>2022-05-16T16:50:50.900000+02:00</time>
</trkpt>
<trkpt lat="46.906987" lon="6.78501"><ele>484.7</ele>
<time>2022-05-16T16:50:52.900000+02:00</time>
</trkpt>
<trkpt lat="46.907003" lon="6.785083"><ele>485.1</ele>
<time>2022-05-16T16:50:55.100000+02:00</time>
</trkpt>
<trkpt lat="46.907077" lon="6.785276"><ele>486.3</ele>
<time>2022-05-16T16:51:01.300000+02:00</time>
</trkpt>
<trkpt lat="46.907188" lon="6.785511"><ele>488</ele>
<time>2022-05-16T16:51:10.700000+02:00</time>
</trkpt>
<trkpt lat="46.907281" lon="6.785685"><ele>489.4</ele>
<time>2022-05-16T16:51:18.000000+02:00</time>
</trkpt>
<trkpt lat="46.907372" lon="6.785828"><ele>490.9</ele>
<time>2022-05-16T16:51:25.100000+02:00</time>
</trkpt>
<trkpt lat="46.907372" lon="6.785828"><ele>490.9</ele>
<time>2022-05-16T16:51:25.200000+02:00</time>
</trkpt>
<trkpt lat="46.907464" lon="6.785954"><ele>492.1</ele>
<time>2022-05-16T16:51:31.200000+02:00</time>
</trkpt>
<trkpt lat="46.907556" lon="6.786069"><ele>493.7</ele>
<time>2022-05-16T16:51:38.300000+02:00</time>
</trkpt>
<trkpt lat="46.907649" lon="6.786158"><ele>495.4</ele>
<time>2022-05-16T16:51:45.700000+02:00</time>
</trkpt>
<trkpt lat="46.907704" lon="6.786205"><ele>496.3</ele>
<time>2022-05-16T16:51:50.000000+02:00</time>
</trkpt>
<trkpt lat="46.907752" lon="6.786237"><ele>496.9</ele>
<time>2022-05-16T16:51:52.700000+02:00</time>
</trkpt>
<trkpt lat="46.907836" lon="6.786286"><ele>498</ele>
<time>2022-05-16T16:51:58.000000+02:00</time>
</trkpt>
<trkpt lat="46.907906" lon="6.786339"><ele>499</ele>
<time>2022-05-16T16:52:02.600000+02:00</time>
</trkpt>
<trkpt lat="46.907993" lon="6.786415"><ele>500</ele>
<time>2022-05-16T16:52:07.600000+02:00</time>
</trkpt>
<trkpt lat="46.908065" lon="6.786472"><ele>500.8</ele>
<time>2022-05-16T16:52:11.500000+02:00</time>
</trkpt>
<trkpt lat="46.908129" lon="6.786504"><ele>501.6</ele>
<time>2022-05-16T16:52:15.100000+02:00</time>
</trkpt>
<trkpt lat="46.908213" lon="6.786503"><ele>502.7</ele>
<time>2022-05-16T16:52:20.000000+02:00</time>
</trkpt>
<trkpt lat="46.908253" lon="6.786489"><ele>503.3</ele>
<time>2022-05-16T16:52:22.700000+02:00</time>
</trkpt>
<trkpt lat="46.908319" lon="6.78642"><ele>504.4</ele>
<time>2022-05-16T16:52:27.500000+02:00</time>
</trkpt>
<trkpt lat="46.908374" lon="6.786328"><ele>505.3</ele>
<time>2022-05-16T16:52:32.000000+02:00</time>
</trkpt>
<trkpt lat="46.908433" lon="6.786242"><ele>506.1</ele>
<time>2022-05-16T16:52:36.000000+02:00</time>
</trkpt>
<trkpt lat="46.908495" lon="6.786169"><ele>506.6</ele>
<time>2022-05-16T16:52:38.800000+02:00</time>
</trkpt>
<trkpt lat="46.908574" lon="6.786079"><ele>507.1</ele>
<time>2022-05-16T16:52:42.300000+02:00</time>
</trkpt>
<trkpt lat="46.908616" lon="6.786018"><ele>507.4</ele>
<time>2022-05-16T16:52:44.400000+02:00</time>
</trkpt>
<trkpt lat="46.908647" lon="6.785954"><ele>507.9</ele>
<time>2022-05-16T16:52:47.000000+02:00</time>
</trkpt>
<trkpt lat="46.908696" lon="6.785856"><ele>508.8</ele>
<time>2022-05-16T16:52:51.500000+02:00</time>
</trkpt>
<trkpt lat="46.908715" lon="6.785821"><ele>509.1</ele>
<time>2022-05-16T16:52:53.000000+02:00</time>
</trkpt>
<trkpt lat="46.90874" lon="6.785782"><ele>509.6</ele>
<time>2022-05-16T16:52:55.100000+02:00</time>
</trkpt>
<trkpt lat="46.908787" lon="6.785754"><ele>509.7</ele>
<time>2022-05-16T16:52:58.700000+02:00</time>
</trkpt>
<trkpt lat="46.908845" lon="6.785744"><ele>509.7</ele>
<time>2022-05-16T16:53:00.300000+02:00</time>
</trkpt>
<trkpt lat="46.909037" lon="6.785826"><ele>509.8</ele>
<time>2022-05-16T16:53:05.700000+02:00</time>
</trkpt>
<trkpt lat="46.909246" lon="6.785944"><ele>510.1</ele>
<time>2022-05-16T16:53:12.000000+02:00</time>
</trkpt>
<trkpt lat="46.909367" lon="6.786027"><ele>510.5</ele>
<time>2022-05-16T16:53:16.200000+02:00</time>
</trkpt>
<trkpt lat="46.909516" lon="6.786166"><ele>511.3</ele>
<time>2022-05-16T16:53:21.700000+02:00</time>
</trkpt>
<trkpt lat="46.909837" lon="6.786486"><ele>513.7</ele>
<time>2022-05-16T16:53:35.600000+02:00</time>
</trkpt>
<trkpt lat="46.910065" lon="6.786746"><ele>515.5</ele>
<time>2022-05-16T16:53:45.900000+02:00</time>
</trkpt>
<trkpt lat="46.910235" lon="6.786935"><ele>516.8</ele>
<time>2022-05-16T16:53:53.600000+02:00</time>
</trkpt>
<trkpt lat="46.910325" lon="6.787076"><ele>517.6</ele>
<time>2022-05-16T16:53:58.200000+02:00</time>
</trkpt>
<trkpt lat="46.910365" lon="6.787165"><ele>518.1</ele>
<time>2022-05-16T16:54:01.200000+02:00</time>
</trkpt>
<trkpt lat="46.910436" lon="6.787345"><ele>519.3</ele>
<time>2022-05-16T16:54:08.100000+02:00</time>
</trkpt>
<trkpt lat="46.910476" lon="6.787425"><ele>519.9</ele>
<time>2022-05-16T16:54:11.400000+02:00</time>
</trkpt>
<trkpt lat="46.910516" lon="6.787475"><ele>520.6</ele>
<time>2022-05-16T16:54:14.500000+02:00</time>
</trkpt>
<trkpt lat="46.910555" lon="6.787505"><ele>521</ele>
<time>2022-05-16T16:54:16.700000+02:00</time>
</trkpt>
<trkpt lat="46.910615" lon="6.787534"><ele>521.6</ele>
<time>2022-05-16T16:54:19.800000+02:00</time>
</trkpt>
<trkpt lat="46.910706" lon="6.787545"><ele>522.4</ele>
<time>2022-05-16T16:54:24.200000+02:00</time>
</trkpt>
<trkpt lat="46.911067" lon="6.787564"><ele>525.6</ele>
<time>2022-05-16T16:54:41.800000+02:00</time>
</trkpt>
<trkpt lat="46.911245" lon="6.787577"><ele>527.3</ele>
<time>2022-05-16T16:54:50.500000+02:00</time>
</trkpt>
<trkpt lat="46.911364" lon="6.787605"><ele>528.6</ele>
<time>2022-05-16T16:54:56.900000+02:00</time>
</trkpt>
<trkpt lat="46.911405" lon="6.787623"><ele>529</ele>
<time>2022-05-16T16:54:59.000000+02:00</time>
</trkpt>
<trkpt lat="46.911448" lon="6.787666"><ele>529.5</ele>
<time>2022-05-16T16:55:01.500000+02:00</time>
</trkpt>
<trkpt lat="46.911496" lon="6.787723"><ele>530.2</ele>
<time>2022-05-16T16:55:04.800000+02:00</time>
</trkpt>
<trkpt lat="46.911553" lon="6.787821"><ele>530.8</ele>
<time>2022-05-16T16:55:08.400000+02:00</time>
</trkpt>
<trkpt lat="46.911586" lon="6.787884"><ele>531.1</ele>
<time>2022-05-16T16:55:10.500000+02:00</time>
</trkpt>
<trkpt lat="46.91175" lon="6.788317"><ele>532.3</ele>
<time>2022-05-16T16:55:21.100000+02:00</time>
</trkpt>
<trkpt lat="46.911846" lon="6.788517"><ele>532.7</ele>
<time>2022-05-16T16:55:25.800000+02:00</time>
</trkpt>
<trkpt lat="46.911857" lon="6.788543"><ele>532.7</ele>
<time>2022-05-16T16:55:26.300000+02:00</time>
</trkpt>
<trkpt lat="46.911857" lon="6.788543"><ele>532.7</ele>
<time>2022-05-16T16:55:26.300000+02:00</time>
</trkpt>
<trkpt lat="46.911923" lon="6.788679"><ele>532.9</ele>
<time>2022-05-16T16:55:29.500000+02:00</time>
</trkpt>
<trkpt lat="46.912101" lon="6.788992"><ele>533.3</ele>
<time>2022-05-16T16:55:37.300000+02:00</time>
</trkpt>
<trkpt lat="46.91228" lon="6.789303"><ele>533.7</ele>
<time>2022-05-16T16:55:45.000000+02:00</time>
</trkpt>
<trkpt lat="46.91228" lon="6.789303"><ele>533.7</ele>
<time>2022-05-16T16:55:45.000000+02:00</time>
</trkpt>
<trkpt lat="46.912454" lon="6.789582"><ele>534.8</ele>
<time>2022-05-16T16:55:53.400000+02:00</time>
</trkpt>
<trkpt lat="46.912454" lon="6.789582"><ele>534.8</ele>
<time>2022-05-16T16:55:53.400000+02:00</time>
</trkpt>
<trkpt lat="46.91261" lon="6.789831"><ele>535.9</ele>
<time>2022-05-16T16:56:01.700000+02:00</time>
</trkpt>
<trkpt lat="46.912626" lon="6.789859"><ele>536.1</ele>
<time>2022-05-16T16:56:02.700000+02:00</time>
</trkpt>
<trkpt lat="46.912755" lon="6.790092"><ele>537.7</ele>
<time>2022-05-16T16:56:11.300000+02:00</time>
</trkpt>
<trkpt lat="46.912893" lon="6.790518"><ele>540.9</ele>
<time>2022-05-16T16:56:27.100000+02:00</time>
</trkpt>
<trkpt lat="46.912893" lon="6.790518"><ele>540.9</ele>
<time>2022-05-16T16:56:27.200000+02:00</time>
</trkpt>
<trkpt lat="46.91308" lon="6.790907"><ele>542.3</ele>
<time>2022-05-16T16:56:37.600000+02:00</time>
</trkpt>
<trkpt lat="46.913266" lon="6.791296"><ele>542.3</ele>
<time>2022-05-16T16:56:46.500000+02:00</time>
</trkpt>
<trkpt lat="46.913292" lon="6.791338"><ele>542.4</ele>
<time>2022-05-16T16:56:47.600000+02:00</time>
</trkpt>
<trkpt lat="46.913292" lon="6.791338"><ele>542.4</ele>
<time>2022-05-16T16:56:47.600000+02:00</time>
</trkpt>
<trkpt lat="46.913505" lon="6.791695"><ele>543.3</ele>
<time>2022-05-16T16:56:56.800000+02:00</time>
</trkpt>
<trkpt lat="46.913724" lon="6.791965"><ele>542.6</ele>
<time>2022-05-16T16:57:03.200000+02:00</time>
</trkpt>
<trkpt lat="46.913808" lon="6.792082"><ele>542.4</ele>
<time>2022-05-16T16:57:05.800000+02:00</time>
</trkpt>
<trkpt lat="46.913808" lon="6.792082"><ele>542.4</ele>
<time>2022-05-16T16:57:05.800000+02:00</time>
</trkpt>
<trkpt lat="46.913894" lon="6.792202"><ele>542.3</ele>
<time>2022-05-16T16:57:09.000000+02:00</time>
</trkpt>
<trkpt lat="46.914025" lon="6.792377"><ele>542.3</ele>
<time>2022-05-16T16:57:13.600000+02:00</time>
</trkpt>
<trkpt lat="46.914178" lon="6.792607"><ele>542.3</ele>
<time>2022-05-16T16:57:19.400000+02:00</time>
</trkpt>
<trkpt lat="46.914454" lon="6.793044"><ele>542.9</ele>
<time>2022-05-16T16:57:30.600000+02:00</time>
</trkpt>
<trkpt lat="46.914575" lon="6.793215"><ele>542.9</ele>
<time>2022-05-16T16:57:35.000000+02:00</time>
</trkpt>
<trkpt lat="46.914687" lon="6.793382"><ele>542.8</ele>
<time>2022-05-16T16:57:39.200000+02:00</time>
</trkpt>
<trkpt lat="46.914913" lon="6.793631"><ele>542.7</ele>
<time>2022-05-16T16:57:46.700000+02:00</time>
</trkpt>
<trkpt lat="46.915066" lon="6.793786"><ele>542.7</ele>
<time>2022-05-16T16:57:51.500000+02:00</time>
</trkpt>
<trkpt lat="46.915066" lon="6.793786"><ele>542.7</ele>
<time>2022-05-16T16:57:51.600000+02:00</time>
</trkpt>
<trkpt lat="46.915385" lon="6.794034"><ele>542.8</ele>
<time>2022-05-16T16:58:01.100000+02:00</time>
</trkpt>
<trkpt lat="46.915536" lon="6.794163"><ele>543</ele>
<time>2022-05-16T16:58:06.000000+02:00</time>
</trkpt>
<trkpt lat="46.915819" lon="6.794382"><ele>543.2</ele>
<time>2022-05-16T16:58:14.400000+02:00</time>
</trkpt>
<trkpt lat="46.916101" lon="6.794602"><ele>543.1</ele>
<time>2022-05-16T16:58:22.900000+02:00</time>
</trkpt>
<trkpt lat="46.916285" lon="6.794775"><ele>543</ele>
<time>2022-05-16T16:58:28.700000+02:00</time>
</trkpt>
<trkpt lat="46.916435" lon="6.794915"><ele>542.7</ele>
<time>2022-05-16T16:58:32.600000+02:00</time>
</trkpt>
<trkpt lat="46.916672" lon="6.795186"><ele>542.3</ele>
<time>2022-05-16T16:58:39.200000+02:00</time>
</trkpt>
<trkpt lat="46.916907" lon="6.795456"><ele>542.1</ele>
<time>2022-05-16T16:58:47.100000+02:00</time>
</trkpt>
<trkpt lat="46.916907" lon="6.795456"><ele>542.1</ele>
<time>2022-05-16T16:58:47.100000+02:00</time>
</trkpt>
<trkpt lat="46.917092" lon="6.795634"><ele>541.9</ele>
<time>2022-05-16T16:58:52.200000+02:00</time>
</trkpt>
<trkpt lat="46.917278" lon="6.79581"><ele>541.6</ele>
<time>2022-05-16T16:58:57.300000+02:00</time>
</trkpt>
<trkpt lat="46.917356" lon="6.795876"><ele>541.5</ele>
<time>2022-05-16T16:58:59.300000+02:00</time>
</trkpt>
<trkpt lat="46.917473" lon="6.795965"><ele>541.2</ele>
<time>2022-05-16T16:59:02.300000+02:00</time>
</trkpt>
<trkpt lat="46.917709" lon="6.796216"><ele>540.7</ele>
<time>2022-05-16T16:59:09.000000+02:00</time>
</trkpt>
<trkpt lat="46.917875" lon="6.796394"><ele>540</ele>
<time>2022-05-16T16:59:13.100000+02:00</time>
</trkpt>
<trkpt lat="46.918035" lon="6.796627"><ele>539.6</ele>
<time>2022-05-16T16:59:18.200000+02:00</time>
</trkpt>
<trkpt lat="46.918035" lon="6.796627"><ele>539.6</ele>
<time>2022-05-16T16:59:18.200000+02:00</time>
</trkpt>
<trkpt lat="46.918301" lon="6.797029"><ele>539.7</ele>
<time>2022-05-16T16:59:28.600000+02:00</time>
</trkpt>
<trkpt lat="46.918536" lon="6.79737"><ele>540.4</ele>
<time>2022-05-16T16:59:38.100000+02:00</time>
</trkpt>
<trkpt lat="46.91877" lon="6.79771"><ele>541.2</ele>
<time>2022-05-16T16:59:47.500000+02:00</time>
</trkpt>
<trkpt lat="46.919006" lon="6.798051"><ele>541.4</ele>
<time>2022-05-16T16:59:56.500000+02:00</time>
</trkpt>
<trkpt lat="46.919006" lon="6.798051"><ele>541.4</ele>
<time>2022-05-16T16:59:56.500000+02:00</time>
</trkpt>
<trkpt lat="46.919276" lon="6.798447"><ele>542.3</ele>
<time>2022-05-16T17:00:07.000000+02:00</time>
</trkpt>
<trkpt lat="46.919512" lon="6.798801"><ele>542</ele>
<time>2022-05-16T17:00:15.900000+02:00</time>
</trkpt>
<trkpt lat="46.919512" lon="6.798801"><ele>542</ele>
<time>2022-05-16T17:00:15.900000+02:00</time>
</trkpt>
<trkpt lat="46.919727" lon="6.799105"><ele>540.8</ele>
<time>2022-05-16T17:00:21.700000+02:00</time>
</trkpt>
<trkpt lat="46.919928" lon="6.799481"><ele>539.1</ele>
<time>2022-05-16T17:00:27.000000+02:00</time>
</trkpt>
<trkpt lat="46.920128" lon="6.799858"><ele>536.3</ele>
<time>2022-05-16T17:00:30.900000+02:00</time>
</trkpt>
<trkpt lat="46.920413" lon="6.800282"><ele>535.1</ele>
<time>2022-05-16T17:00:38.900000+02:00</time>
</trkpt>
<trkpt lat="46.920637" lon="6.800733"><ele>536.1</ele>
<time>2022-05-16T17:00:49.800000+02:00</time>
</trkpt>
<trkpt lat="46.920652" lon="6.800764"><ele>536.2</ele>
<time>2022-05-16T17:00:50.700000+02:00</time>
</trkpt>
<trkpt lat="46.920744" lon="6.80092"><ele>536.3</ele>
<time>2022-05-16T17:00:54.500000+02:00</time>
</trkpt>
<trkpt lat="46.920781" lon="6.80097"><ele>536.2</ele>
<time>2022-05-16T17:00:55.600000+02:00</time>
</trkpt>
<trkpt lat="46.920781" lon="6.80097"><ele>536.2</ele>
<time>2022-05-16T17:00:55.600000+02:00</time>
</trkpt>
<trkpt lat="46.921022" lon="6.801249"><ele>535.6</ele>
<time>2022-05-16T17:01:02.400000+02:00</time>
</trkpt>
<trkpt lat="46.921265" lon="6.801527"><ele>534.8</ele>
<time>2022-05-16T17:01:09.100000+02:00</time>
</trkpt>
<trkpt lat="46.921507" lon="6.801807"><ele>533.8</ele>
<time>2022-05-16T17:01:14.900000+02:00</time>
</trkpt>
<trkpt lat="46.921604" lon="6.801914"><ele>533.3</ele>
<time>2022-05-16T17:01:17.100000+02:00</time>
</trkpt>
<trkpt lat="46.921907" lon="6.802237"><ele>532.4</ele>
<time>2022-05-16T17:01:25.200000+02:00</time>
</trkpt>
<trkpt lat="46.92213" lon="6.802465"><ele>531.7</ele>
<time>2022-05-16T17:01:31.000000+02:00</time>
</trkpt>
<trkpt lat="46.922355" lon="6.802695"><ele>530.7</ele>
<time>2022-05-16T17:01:36.000000+02:00</time>
</trkpt>
<trkpt lat="46.922635" lon="6.802915"><ele>529.3</ele>
<time>2022-05-16T17:01:41.800000+02:00</time>
</trkpt>
<trkpt lat="46.922864" lon="6.803123"><ele>528.2</ele>
<time>2022-05-16T17:01:46.800000+02:00</time>
</trkpt>
<trkpt lat="46.923025" lon="6.803275"><ele>527.5</ele>
<time>2022-05-16T17:01:50.300000+02:00</time>
</trkpt>
<trkpt lat="46.923025" lon="6.803275"><ele>527.5</ele>
<time>2022-05-16T17:01:50.300000+02:00</time>
</trkpt>
<trkpt lat="46.923166" lon="6.803423"><ele>526.8</ele>
<time>2022-05-16T17:01:53.500000+02:00</time>
</trkpt>
<trkpt lat="46.923213" lon="6.803485"><ele>526.7</ele>
<time>2022-05-16T17:01:54.900000+02:00</time>
</trkpt>
<trkpt lat="46.923276" lon="6.803586"><ele>526.5</ele>
<time>2022-05-16T17:01:57.000000+02:00</time>
</trkpt>
<trkpt lat="46.923536" lon="6.804007"><ele>525.6</ele>
<time>2022-05-16T17:02:05.500000+02:00</time>
</trkpt>
<trkpt lat="46.923705" lon="6.804228"><ele>525</ele>
<time>2022-05-16T17:02:10.400000+02:00</time>
</trkpt>
<trkpt lat="46.92378" lon="6.804289"><ele>524.6</ele>
<time>2022-05-16T17:02:11.800000+02:00</time>
</trkpt>
<trkpt lat="46.923874" lon="6.804385"><ele>524.2</ele>
<time>2022-05-16T17:02:13.900000+02:00</time>
</trkpt>
<trkpt lat="46.923966" lon="6.804497"><ele>523.8</ele>
<time>2022-05-16T17:02:16.100000+02:00</time>
</trkpt>
<trkpt lat="46.924053" lon="6.804565"><ele>523.3</ele>
<time>2022-05-16T17:02:17.700000+02:00</time>
</trkpt>
<trkpt lat="46.924053" lon="6.804565"><ele>523.3</ele>
<time>2022-05-16T17:02:17.700000+02:00</time>
</trkpt>
<trkpt lat="46.924195" lon="6.804675"><ele>522.7</ele>
<time>2022-05-16T17:02:20.800000+02:00</time>
</trkpt>
<trkpt lat="46.92424" lon="6.804702"><ele>522.6</ele>
<time>2022-05-16T17:02:21.800000+02:00</time>
</trkpt>
<trkpt lat="46.924486" lon="6.804815"><ele>520.8</ele>
<time>2022-05-16T17:02:25.300000+02:00</time>
</trkpt>
<trkpt lat="46.924783" lon="6.804884"><ele>518.2</ele>
<time>2022-05-16T17:02:28.900000+02:00</time>
</trkpt>
<trkpt lat="46.924783" lon="6.804884"><ele>518.2</ele>
<time>2022-05-16T17:02:29.100000+02:00</time>
</trkpt>
<trkpt lat="46.924945" lon="6.804995"><ele>517.2</ele>
<time>2022-05-16T17:02:31.800000+02:00</time>
</trkpt>
<trkpt lat="46.924998" lon="6.805069"><ele>516.9</ele>
<time>2022-05-16T17:02:33.100000+02:00</time>
</trkpt>
<trkpt lat="46.925042" lon="6.805167"><ele>516.7</ele>
<time>2022-05-16T17:02:34.800000+02:00</time>
</trkpt>
<trkpt lat="46.925068" lon="6.805277"><ele>516.5</ele>
<time>2022-05-16T17:02:36.500000+02:00</time>
</trkpt>
<trkpt lat="46.92511" lon="6.805542"><ele>516</ele>
<time>2022-05-16T17:02:40.500000+02:00</time>
</trkpt>
<trkpt lat="46.925137" lon="6.805726"><ele>515.5</ele>
<time>2022-05-16T17:02:42.800000+02:00</time>
</trkpt>
<trkpt lat="46.925194" lon="6.805923"><ele>515.1</ele>
<time>2022-05-16T17:02:45.900000+02:00</time>
</trkpt>
<trkpt lat="46.925287" lon="6.80612"><ele>514.2</ele>
<time>2022-05-16T17:02:48.400000+02:00</time>
</trkpt>
<trkpt lat="46.925287" lon="6.80612"><ele>514.2</ele>
<time>2022-05-16T17:02:48.400000+02:00</time>
</trkpt>
<trkpt lat="46.925385" lon="6.806329"><ele>513.4</ele>
<time>2022-05-16T17:02:51.400000+02:00</time>
</trkpt>
<trkpt lat="46.925385" lon="6.806329"><ele>513.4</ele>
<time>2022-05-16T17:02:51.500000+02:00</time>
</trkpt>
<trkpt lat="46.925508" lon="6.806515"><ele>513</ele>
<time>2022-05-16T17:02:55.300000+02:00</time>
</trkpt>
<trkpt lat="46.925508" lon="6.806515"><ele>513</ele>
<time>2022-05-16T17:02:55.300000+02:00</time>
</trkpt>
<trkpt lat="46.925669" lon="6.806726"><ele>512</ele>
<time>2022-05-16T17:02:59.100000+02:00</time>
</trkpt>
<trkpt lat="46.925781" lon="6.806887"><ele>511.3</ele>
<time>2022-05-16T17:03:01.800000+02:00</time>
</trkpt>
<trkpt lat="46.925781" lon="6.806887"><ele>511.3</ele>
<time>2022-05-16T17:03:01.800000+02:00</time>
</trkpt>
<trkpt lat="46.925872" lon="6.807019"><ele>510.6</ele>
<time>2022-05-16T17:03:03.800000+02:00</time>
</trkpt>
<trkpt lat="46.925884" lon="6.807044"><ele>510.4</ele>
<time>2022-05-16T17:03:04.000000+02:00</time>
</trkpt>
<trkpt lat="46.925884" lon="6.807044"><ele>510.4</ele>
<time>2022-05-16T17:03:04.100000+02:00</time>
</trkpt>
<trkpt lat="46.925987" lon="6.807247"><ele>509</ele>
<time>2022-05-16T17:03:06.400000+02:00</time>
</trkpt>
<trkpt lat="46.926105" lon="6.807539"><ele>507.8</ele>
<time>2022-05-16T17:03:09.900000+02:00</time>
</trkpt>
<trkpt lat="46.926274" lon="6.807857"><ele>506.7</ele>
<time>2022-05-16T17:03:15.100000+02:00</time>
</trkpt>
<trkpt lat="46.926274" lon="6.807857"><ele>506.7</ele>
<time>2022-05-16T17:03:15.100000+02:00</time>
</trkpt>
<trkpt lat="46.926361" lon="6.808029"><ele>506</ele>
<time>2022-05-16T17:03:17.400000+02:00</time>
</trkpt>
<trkpt lat="46.926603" lon="6.808522"><ele>502.7</ele>
<time>2022-05-16T17:03:22.900000+02:00</time>
</trkpt>
<trkpt lat="46.926727" lon="6.808738"><ele>500.5</ele>
<time>2022-05-16T17:03:25.000000+02:00</time>
</trkpt>
<trkpt lat="46.926907" lon="6.809042"><ele>496.3</ele>
<time>2022-05-16T17:03:32.300000+02:00</time>
</trkpt>
<trkpt lat="46.927083" lon="6.809397"><ele>492.2</ele>
<time>2022-05-16T17:03:36.300000+02:00</time>
</trkpt>
<trkpt lat="46.927246" lon="6.80968"><ele>489.6</ele>
<time>2022-05-16T17:03:39.000000+02:00</time>
</trkpt>
<trkpt lat="46.927284" lon="6.809732"><ele>489.3</ele>
<time>2022-05-16T17:03:39.900000+02:00</time>
</trkpt>
<trkpt lat="46.927284" lon="6.809732"><ele>489.3</ele>
<time>2022-05-16T17:03:39.900000+02:00</time>
</trkpt>
<trkpt lat="46.927377" lon="6.809856"><ele>488.8</ele>
<time>2022-05-16T17:03:42.200000+02:00</time>
</trkpt>
<trkpt lat="46.927706" lon="6.810083"><ele>489</ele>
<time>2022-05-16T17:03:51.900000+02:00</time>
</trkpt>
<trkpt lat="46.928083" lon="6.810351"><ele>489.7</ele>
<time>2022-05-16T17:04:03.500000+02:00</time>
</trkpt>
<trkpt lat="46.928459" lon="6.810618"><ele>489.4</ele>
<time>2022-05-16T17:04:14.600000+02:00</time>
</trkpt>
<trkpt lat="46.928719" lon="6.81077"><ele>489.5</ele>
<time>2022-05-16T17:04:21.900000+02:00</time>
</trkpt>
<trkpt lat="46.928978" lon="6.810923"><ele>489.8</ele>
<time>2022-05-16T17:04:29.700000+02:00</time>
</trkpt>
<trkpt lat="46.929033" lon="6.810957"><ele>490</ele>
<time>2022-05-16T17:04:31.600000+02:00</time>
</trkpt>
<trkpt lat="46.929349" lon="6.811146"><ele>490.6</ele>
<time>2022-05-16T17:04:41.300000+02:00</time>
</trkpt>
<trkpt lat="46.929665" lon="6.811335"><ele>491.4</ele>
<time>2022-05-16T17:04:51.000000+02:00</time>
</trkpt>
<trkpt lat="46.929665" lon="6.811335"><ele>491.4</ele>
<time>2022-05-16T17:04:51.000000+02:00</time>
</trkpt>
<trkpt lat="46.92984" lon="6.811442"><ele>492.1</ele>
<time>2022-05-16T17:04:57.000000+02:00</time>
</trkpt>
<trkpt lat="46.930009" lon="6.811506"><ele>492.8</ele>
<time>2022-05-16T17:05:02.400000+02:00</time>
</trkpt>
<trkpt lat="46.930186" lon="6.811525"><ele>493.4</ele>
<time>2022-05-16T17:05:08.000000+02:00</time>
</trkpt>
<trkpt lat="46.930186" lon="6.811525"><ele>493.4</ele>
<time>2022-05-16T17:05:08.100000+02:00</time>
</trkpt>
<trkpt lat="46.93033" lon="6.81151"><ele>494.1</ele>
<time>2022-05-16T17:05:13.100000+02:00</time>
</trkpt>
<trkpt lat="46.930453" lon="6.811497"><ele>494.8</ele>
<time>2022-05-16T17:05:17.400000+02:00</time>
</trkpt>
<trkpt lat="46.930512" lon="6.811579"><ele>494.5</ele>
<time>2022-05-16T17:05:20.300000+02:00</time>
</trkpt>
<trkpt lat="46.93083" lon="6.811752"><ele>494</ele>
<time>2022-05-16T17:05:27.800000+02:00</time>
</trkpt>
<trkpt lat="46.931148" lon="6.811927"><ele>492.6</ele>
<time>2022-05-16T17:05:34.200000+02:00</time>
</trkpt>
<trkpt lat="46.931466" lon="6.812102"><ele>490.6</ele>
<time>2022-05-16T17:05:39.400000+02:00</time>
</trkpt>
<trkpt lat="46.931587" lon="6.812172"><ele>489.6</ele>
<time>2022-05-16T17:05:41.100000+02:00</time>
</trkpt>
<trkpt lat="46.931587" lon="6.812172"><ele>489.6</ele>
<time>2022-05-16T17:05:41.400000+02:00</time>
</trkpt>
<trkpt lat="46.931683" lon="6.812289"><ele>488.8</ele>
<time>2022-05-16T17:05:43.300000+02:00</time>
</trkpt>
<trkpt lat="46.931732" lon="6.812412"><ele>487.9</ele>
<time>2022-05-16T17:05:44.400000+02:00</time>
</trkpt>
<trkpt lat="46.93175" lon="6.812523"><ele>487.1</ele>
<time>2022-05-16T17:05:45.200000+02:00</time>
</trkpt>
<trkpt lat="46.931753" lon="6.812654"><ele>486.3</ele>
<time>2022-05-16T17:05:46.300000+02:00</time>
</trkpt>
<trkpt lat="46.931753" lon="6.812654"><ele>486.3</ele>
<time>2022-05-16T17:05:46.500000+02:00</time>
</trkpt>
<trkpt lat="46.931694" lon="6.812904"><ele>485.3</ele>
<time>2022-05-16T17:05:49.200000+02:00</time>
</trkpt>
<trkpt lat="46.931639" lon="6.813064"><ele>485</ele>
<time>2022-05-16T17:05:51.700000+02:00</time>
</trkpt>
<trkpt lat="46.931596" lon="6.813187"><ele>485.1</ele>
<time>2022-05-16T17:05:54.200000+02:00</time>
</trkpt>
<trkpt lat="46.931337" lon="6.81361"><ele>484.8</ele>
<time>2022-05-16T17:06:03.900000+02:00</time>
</trkpt>
<trkpt lat="46.931312" lon="6.813699"><ele>484.3</ele>
<time>2022-05-16T17:06:04.700000+02:00</time>
</trkpt>
<trkpt lat="46.931312" lon="6.813699"><ele>484.3</ele>
<time>2022-05-16T17:06:05.300000+02:00</time>
</trkpt>
<trkpt lat="46.931239" lon="6.814006"><ele>482.5</ele>
<time>2022-05-16T17:06:08.100000+02:00</time>
</trkpt>
<trkpt lat="46.931211" lon="6.814126"><ele>481.9</ele>
<time>2022-05-16T17:06:09.200000+02:00</time>
</trkpt>
<trkpt lat="46.931158" lon="6.814304"><ele>480.7</ele>
<time>2022-05-16T17:06:10.800000+02:00</time>
</trkpt>
<trkpt lat="46.931063" lon="6.814524"><ele>479</ele>
<time>2022-05-16T17:06:12.800000+02:00</time>
</trkpt>
<trkpt lat="46.93087" lon="6.814865"><ele>477.1</ele>
<time>2022-05-16T17:06:17.500000+02:00</time>
</trkpt>
<trkpt lat="46.930799" lon="6.815001"><ele>476.7</ele>
<time>2022-05-16T17:06:19.600000+02:00</time>
</trkpt>
<trkpt lat="46.93079" lon="6.815094"><ele>476.6</ele>
<time>2022-05-16T17:06:21.000000+02:00</time>
</trkpt>
<trkpt lat="46.9308" lon="6.815191"><ele>476.6</ele>
<time>2022-05-16T17:06:22.700000+02:00</time>
</trkpt>
<trkpt lat="46.9308" lon="6.815191"><ele>476.6</ele>
<time>2022-05-16T17:06:34.900000+02:00</time>
</trkpt>
<trkpt lat="46.930919" lon="6.815163"><ele>476.8</ele>
<time>2022-05-16T17:06:38.300000+02:00</time>
</trkpt>
<trkpt lat="46.93108" lon="6.815158"><ele>477.2</ele>
<time>2022-05-16T17:06:43.000000+02:00</time>
</trkpt>
<trkpt lat="46.931228" lon="6.815183"><ele>477.6</ele>
<time>2022-05-16T17:06:47.200000+02:00</time>
</trkpt>
<trkpt lat="46.931351" lon="6.81523"><ele>478</ele>
<time>2022-05-16T17:06:51.200000+02:00</time>
</trkpt>
<trkpt lat="46.931572" lon="6.815317"><ele>478.6</ele>
<time>2022-05-16T17:06:57.700000+02:00</time>
</trkpt>
<trkpt lat="46.931792" lon="6.815405"><ele>479.4</ele>
<time>2022-05-16T17:07:05.000000+02:00</time>
</trkpt>
<trkpt lat="46.932209" lon="6.815562"><ele>481</ele>
<time>2022-05-16T17:07:18.600000+02:00</time>
</trkpt>
<trkpt lat="46.932322" lon="6.815615"><ele>481.5</ele>
<time>2022-05-16T17:07:22.400000+02:00</time>
</trkpt>
<trkpt lat="46.932384" lon="6.815687"><ele>481.7</ele>
<time>2022-05-16T17:07:25.000000+02:00</time>
</trkpt>
<trkpt lat="46.932455" lon="6.815793"><ele>481.8</ele>
<time>2022-05-16T17:07:27.800000+02:00</time>
</trkpt>
<trkpt lat="46.932455" lon="6.815793"><ele>481.8</ele>
<time>2022-05-16T17:07:28.000000+02:00</time>
</trkpt>
<trkpt lat="46.93253" lon="6.815999"><ele>481.5</ele>
<time>2022-05-16T17:07:31.400000+02:00</time>
</trkpt>
<trkpt lat="46.932585" lon="6.816195"><ele>481.1</ele>
<time>2022-05-16T17:07:34.500000+02:00</time>
</trkpt>
<trkpt lat="46.932585" lon="6.816195"><ele>481.1</ele>
<time>2022-05-16T17:07:34.500000+02:00</time>
</trkpt>
<trkpt lat="46.932679" lon="6.816603"><ele>480.5</ele>
<time>2022-05-16T17:07:41.000000+02:00</time>
</trkpt>
<trkpt lat="46.932679" lon="6.816603"><ele>480.5</ele>
<time>2022-05-16T17:07:41.000000+02:00</time>
</trkpt>
<trkpt lat="46.932715" lon="6.81676"><ele>480.5</ele>
<time>2022-05-16T17:07:44.000000+02:00</time>
</trkpt>
<trkpt lat="46.932743" lon="6.81685"><ele>480.4</ele>
<time>2022-05-16T17:07:45.600000+02:00</time>
</trkpt>
<trkpt lat="46.932791" lon="6.817002"><ele>480.2</ele>
<time>2022-05-16T17:07:48.100000+02:00</time>
</trkpt>
<trkpt lat="46.932819" lon="6.817103"><ele>480.2</ele>
<time>2022-05-16T17:07:50.100000+02:00</time>
</trkpt>
<trkpt lat="46.932819" lon="6.817103"><ele>480.2</ele>
<time>2022-05-16T17:07:50.100000+02:00</time>
</trkpt>
<trkpt lat="46.932938" lon="6.817397"><ele>480.4</ele>
<time>2022-05-16T17:07:56.500000+02:00</time>
</trkpt>
<trkpt lat="46.932938" lon="6.817397"><ele>480.4</ele>
<time>2022-05-16T17:07:56.500000+02:00</time>
</trkpt>
<trkpt lat="46.933033" lon="6.81763"><ele>480.6</ele>
<time>2022-05-16T17:08:01.700000+02:00</time>
</trkpt>
<trkpt lat="46.933196" lon="6.818006"><ele>481.1</ele>
<time>2022-05-16T17:08:10.100000+02:00</time>
</trkpt>
<trkpt lat="46.933316" lon="6.818253"><ele>481.7</ele>
<time>2022-05-16T17:08:16.600000+02:00</time>
</trkpt>
<trkpt lat="46.933466" lon="6.818521"><ele>482.7</ele>
<time>2022-05-16T17:08:24.000000+02:00</time>
</trkpt>
<trkpt lat="46.933466" lon="6.818521"><ele>482.7</ele>
<time>2022-05-16T17:08:24.000000+02:00</time>
</trkpt>
<trkpt lat="46.933539" lon="6.81864"><ele>483.2</ele>
<time>2022-05-16T17:08:27.500000+02:00</time>
</trkpt>
<trkpt lat="46.933657" lon="6.818831"><ele>483.9</ele>
<time>2022-05-16T17:08:33.300000+02:00</time>
</trkpt>
<trkpt lat="46.933743" lon="6.818975"><ele>484.5</ele>
<time>2022-05-16T17:08:37.600000+02:00</time>
</trkpt>
<trkpt lat="46.933743" lon="6.818975"><ele>484.5</ele>
<time>2022-05-16T17:08:37.600000+02:00</time>
</trkpt>
<trkpt lat="46.933912" lon="6.819199"><ele>485.5</ele>
<time>2022-05-16T17:08:45.100000+02:00</time>
</trkpt>
<trkpt lat="46.933912" lon="6.819199"><ele>485.5</ele>
<time>2022-05-16T17:08:45.100000+02:00</time>
</trkpt>
<trkpt lat="46.93407" lon="6.819414"><ele>486.5</ele>
<time>2022-05-16T17:08:51.800000+02:00</time>
</trkpt>
<trkpt lat="46.934229" lon="6.819626"><ele>487.5</ele>
<time>2022-05-16T17:08:59.400000+02:00</time>
</trkpt>
<trkpt lat="46.934248" lon="6.819652"><ele>487.6</ele>
<time>2022-05-16T17:09:00.200000+02:00</time>
</trkpt>
<trkpt lat="46.934262" lon="6.819676"><ele>487.8</ele>
<time>2022-05-16T17:09:01.300000+02:00</time>
</trkpt>
<trkpt lat="46.934262" lon="6.819676"><ele>487.8</ele>
<time>2022-05-16T17:09:01.300000+02:00</time>
</trkpt>
<trkpt lat="46.934372" lon="6.819853"><ele>488.2</ele>
<time>2022-05-16T17:09:06.000000+02:00</time>
</trkpt>
<trkpt lat="46.934476" lon="6.820017"><ele>488.5</ele>
<time>2022-05-16T17:09:10.400000+02:00</time>
</trkpt>
<trkpt lat="46.934476" lon="6.820017"><ele>488.5</ele>
<time>2022-05-16T17:09:10.400000+02:00</time>
</trkpt>
<trkpt lat="46.934641" lon="6.820279"><ele>488.6</ele>
<time>2022-05-16T17:09:16.900000+02:00</time>
</trkpt>
<trkpt lat="46.934784" lon="6.820484"><ele>488.6</ele>
<time>2022-05-16T17:09:22.300000+02:00</time>
</trkpt>
<trkpt lat="46.934784" lon="6.820484"><ele>488.6</ele>
<time>2022-05-16T17:09:22.300000+02:00</time>
</trkpt>
<trkpt lat="46.934925" lon="6.820686"><ele>488.3</ele>
<time>2022-05-16T17:09:26.700000+02:00</time>
</trkpt>
<trkpt lat="46.935017" lon="6.820783"><ele>488.2</ele>
<time>2022-05-16T17:09:29.800000+02:00</time>
</trkpt>
<trkpt lat="46.935191" lon="6.820982"><ele>487.9</ele>
<time>2022-05-16T17:09:34.700000+02:00</time>
</trkpt>
<trkpt lat="46.935191" lon="6.820982"><ele>487.9</ele>
<time>2022-05-16T17:09:34.800000+02:00</time>
</trkpt>
<trkpt lat="46.935517" lon="6.821283"><ele>487.4</ele>
<time>2022-05-16T17:09:43.600000+02:00</time>
</trkpt>
<trkpt lat="46.935842" lon="6.821583"><ele>486.7</ele>
<time>2022-05-16T17:09:52.400000+02:00</time>
</trkpt>
<trkpt lat="46.935842" lon="6.821583"><ele>486.7</ele>
<time>2022-05-16T17:09:52.400000+02:00</time>
</trkpt>
<trkpt lat="46.936086" lon="6.821818"><ele>486.2</ele>
<time>2022-05-16T17:09:58.900000+02:00</time>
</trkpt>
<trkpt lat="46.936273" lon="6.822038"><ele>486.3</ele>
<time>2022-05-16T17:10:05.200000+02:00</time>
</trkpt>
<trkpt lat="46.936455" lon="6.822267"><ele>486.8</ele>
<time>2022-05-16T17:10:12.000000+02:00</time>
</trkpt>
<trkpt lat="46.936676" lon="6.822581"><ele>487.9</ele>
<time>2022-05-16T17:10:21.600000+02:00</time>
</trkpt>
<trkpt lat="46.936718" lon="6.822638"><ele>488.3</ele>
<time>2022-05-16T17:10:24.000000+02:00</time>
</trkpt>
<trkpt lat="46.936781" lon="6.822726"><ele>488.7</ele>
<time>2022-05-16T17:10:26.900000+02:00</time>
</trkpt>
<trkpt lat="46.936842" lon="6.82281"><ele>489.2</ele>
<time>2022-05-16T17:10:29.800000+02:00</time>
</trkpt>
<trkpt lat="46.937037" lon="6.823037"><ele>490.4</ele>
<time>2022-05-16T17:10:38.500000+02:00</time>
</trkpt>
<trkpt lat="46.937273" lon="6.823258"><ele>491.5</ele>
<time>2022-05-16T17:10:47.200000+02:00</time>
</trkpt>
<trkpt lat="46.937464" lon="6.8234"><ele>492.2</ele>
<time>2022-05-16T17:10:53.800000+02:00</time>
</trkpt>
<trkpt lat="46.937661" lon="6.82354"><ele>492.7</ele>
<time>2022-05-16T17:11:00.000000+02:00</time>
</trkpt>
<trkpt lat="46.937858" lon="6.823682"><ele>493.1</ele>
<time>2022-05-16T17:11:06.300000+02:00</time>
</trkpt>
<trkpt lat="46.937858" lon="6.823682"><ele>493.1</ele>
<time>2022-05-16T17:11:06.300000+02:00</time>
</trkpt>
<trkpt lat="46.938071" lon="6.823835"><ele>493.6</ele>
<time>2022-05-16T17:11:13.100000+02:00</time>
</trkpt>
<trkpt lat="46.938288" lon="6.824002"><ele>494.2</ele>
<time>2022-05-16T17:11:20.100000+02:00</time>
</trkpt>
<trkpt lat="46.938504" lon="6.824168"><ele>494.7</ele>
<time>2022-05-16T17:11:27.100000+02:00</time>
</trkpt>
<trkpt lat="46.938713" lon="6.824357"><ele>495.3</ele>
<time>2022-05-16T17:11:34.100000+02:00</time>
</trkpt>
<trkpt lat="46.938923" lon="6.824545"><ele>495.8</ele>
<time>2022-05-16T17:11:41.200000+02:00</time>
</trkpt>
<trkpt lat="46.939127" lon="6.824756"><ele>496.3</ele>
<time>2022-05-16T17:11:48.300000+02:00</time>
</trkpt>
<trkpt lat="46.939141" lon="6.824769"><ele>496.3</ele>
<time>2022-05-16T17:11:48.800000+02:00</time>
</trkpt>
<trkpt lat="46.939459" lon="6.825128"><ele>497</ele>
<time>2022-05-16T17:12:00.000000+02:00</time>
</trkpt>
<trkpt lat="46.939769" lon="6.825525"><ele>497.6</ele>
<time>2022-05-16T17:12:11.600000+02:00</time>
</trkpt>
<trkpt lat="46.940031" lon="6.82589"><ele>497.9</ele>
<time>2022-05-16T17:12:21.200000+02:00</time>
</trkpt>
<trkpt lat="46.940293" lon="6.826255"><ele>498.2</ele>
<time>2022-05-16T17:12:30.800000+02:00</time>
</trkpt>
<trkpt lat="46.940555" lon="6.826621"><ele>498.3</ele>
<time>2022-05-16T17:12:40.400000+02:00</time>
</trkpt>
<trkpt lat="46.940816" lon="6.826986"><ele>498.4</ele>
<time>2022-05-16T17:12:50.000000+02:00</time>
</trkpt>
<trkpt lat="46.941046" lon="6.827284"><ele>498.3</ele>
<time>2022-05-16T17:12:58.200000+02:00</time>
</trkpt>
<trkpt lat="46.941246" lon="6.827505"><ele>498.2</ele>
<time>2022-05-16T17:13:04.900000+02:00</time>
</trkpt>
<trkpt lat="46.941447" lon="6.827726"><ele>498</ele>
<time>2022-05-16T17:13:11.500000+02:00</time>
</trkpt>
<trkpt lat="46.941622" lon="6.827894"><ele>497.9</ele>
<time>2022-05-16T17:13:17.100000+02:00</time>
</trkpt>
<trkpt lat="46.941867" lon="6.828128"><ele>497.6</ele>
<time>2022-05-16T17:13:23.600000+02:00</time>
</trkpt>
<trkpt lat="46.941867" lon="6.828128"><ele>497.6</ele>
<time>2022-05-16T17:13:23.600000+02:00</time>
</trkpt>
<trkpt lat="46.942108" lon="6.828362"><ele>497.3</ele>
<time>2022-05-16T17:13:30.300000+02:00</time>
</trkpt>
<trkpt lat="46.942302" lon="6.828529"><ele>496.8</ele>
<time>2022-05-16T17:13:35.400000+02:00</time>
</trkpt>
<trkpt lat="46.942449" lon="6.828651"><ele>496.3</ele>
<time>2022-05-16T17:13:38.800000+02:00</time>
</trkpt>
<trkpt lat="46.942428" lon="6.82871"><ele>496.4</ele>
<time>2022-05-16T17:13:42.800000+02:00</time>
</trkpt>
<trkpt lat="46.94242" lon="6.828775"><ele>496.5</ele>
<time>2022-05-16T17:13:44.100000+02:00</time>
</trkpt>
<trkpt lat="46.942421" lon="6.828828"><ele>496.5</ele>
<time>2022-05-16T17:13:45.100000+02:00</time>
</trkpt>
<trkpt lat="46.942431" lon="6.82888"><ele>496.4</ele>
<time>2022-05-16T17:13:45.900000+02:00</time>
</trkpt>
<trkpt lat="46.942448" lon="6.828928"><ele>496.3</ele>
<time>2022-05-16T17:13:46.800000+02:00</time>
</trkpt>
<trkpt lat="46.942473" lon="6.828968"><ele>496.2</ele>
<time>2022-05-16T17:13:47.600000+02:00</time>
</trkpt>
<trkpt lat="46.942511" lon="6.829006"><ele>496.1</ele>
<time>2022-05-16T17:13:48.600000+02:00</time>
</trkpt>
<trkpt lat="46.942554" lon="6.829028"><ele>495.9</ele>
<time>2022-05-16T17:13:49.400000+02:00</time>
</trkpt>
<trkpt lat="46.942601" lon="6.829031"><ele>495.8</ele>
<time>2022-05-16T17:13:50.400000+02:00</time>
</trkpt>
<trkpt lat="46.942636" lon="6.82902"><ele>495.6</ele>
<time>2022-05-16T17:13:51.000000+02:00</time>
</trkpt>
<trkpt lat="46.942669" lon="6.828998"><ele>495.6</ele>
<time>2022-05-16T17:13:51.900000+02:00</time>
</trkpt>
<trkpt lat="46.942699" lon="6.828966"><ele>495.4</ele>
<time>2022-05-16T17:13:52.500000+02:00</time>
</trkpt>
<trkpt lat="46.942722" lon="6.828925"><ele>495.4</ele>
<time>2022-05-16T17:13:53.400000+02:00</time>
</trkpt>
<trkpt lat="46.942722" lon="6.828925"><ele>495.4</ele>
<time>2022-05-16T17:13:53.400000+02:00</time>
</trkpt>
<trkpt lat="46.942809" lon="6.829024"><ele>495.1</ele>
<time>2022-05-16T17:13:55.700000+02:00</time>
</trkpt>
<trkpt lat="46.943129" lon="6.829392"><ele>494.1</ele>
<time>2022-05-16T17:14:04.300000+02:00</time>
</trkpt>
<trkpt lat="46.943449" lon="6.82976"><ele>493.1</ele>
<time>2022-05-16T17:14:12.900000+02:00</time>
</trkpt>
<trkpt lat="46.943687" lon="6.830025"><ele>492.4</ele>
<time>2022-05-16T17:14:19.400000+02:00</time>
</trkpt>
<trkpt lat="46.943925" lon="6.830292"><ele>491.8</ele>
<time>2022-05-16T17:14:25.900000+02:00</time>
</trkpt>
<trkpt lat="46.943925" lon="6.830292"><ele>491.8</ele>
<time>2022-05-16T17:14:25.900000+02:00</time>
</trkpt>
<trkpt lat="46.944073" lon="6.830457"><ele>491.4</ele>
<time>2022-05-16T17:14:29.900000+02:00</time>
</trkpt>
<trkpt lat="46.944073" lon="6.830457"><ele>491.4</ele>
<time>2022-05-16T17:14:29.900000+02:00</time>
</trkpt>
<trkpt lat="46.94436" lon="6.830783"><ele>490.4</ele>
<time>2022-05-16T17:14:37.900000+02:00</time>
</trkpt>
<trkpt lat="46.944648" lon="6.831111"><ele>489.3</ele>
<time>2022-05-16T17:14:44.700000+02:00</time>
</trkpt>
<trkpt lat="46.944648" lon="6.831111"><ele>489.3</ele>
<time>2022-05-16T17:14:44.700000+02:00</time>
</trkpt>
<trkpt lat="46.944895" lon="6.831392"><ele>488.3</ele>
<time>2022-05-16T17:14:50.600000+02:00</time>
</trkpt>
<trkpt lat="46.945142" lon="6.831673"><ele>487.1</ele>
<time>2022-05-16T17:14:56.500000+02:00</time>
</trkpt>
<trkpt lat="46.945389" lon="6.831955"><ele>485.8</ele>
<time>2022-05-16T17:15:02.400000+02:00</time>
</trkpt>
<trkpt lat="46.945497" lon="6.832067"><ele>485.3</ele>
<time>2022-05-16T17:15:04.900000+02:00</time>
</trkpt>
<trkpt lat="46.94559" lon="6.83215"><ele>484.7</ele>
<time>2022-05-16T17:15:06.500000+02:00</time>
</trkpt>
<trkpt lat="46.945667" lon="6.832208"><ele>484.4</ele>
<time>2022-05-16T17:15:08.200000+02:00</time>
</trkpt>
<trkpt lat="46.945722" lon="6.832259"><ele>484.1</ele>
<time>2022-05-16T17:15:09.400000+02:00</time>
</trkpt>
<trkpt lat="46.945823" lon="6.832347"><ele>483.6</ele>
<time>2022-05-16T17:15:11.600000+02:00</time>
</trkpt>
<trkpt lat="46.945806" lon="6.832385"><ele>483.5</ele>
<time>2022-05-16T17:15:15.600000+02:00</time>
</trkpt>
<trkpt lat="46.945799" lon="6.832429"><ele>483.4</ele>
<time>2022-05-16T17:15:16.200000+02:00</time>
</trkpt>
<trkpt lat="46.9458" lon="6.832473"><ele>483.3</ele>
<time>2022-05-16T17:15:16.800000+02:00</time>
</trkpt>
<trkpt lat="46.945811" lon="6.832515"><ele>483.1</ele>
<time>2022-05-16T17:15:17.200000+02:00</time>
</trkpt>
<trkpt lat="46.945831" lon="6.83255"><ele>483</ele>
<time>2022-05-16T17:15:17.800000+02:00</time>
</trkpt>
<trkpt lat="46.945856" lon="6.832575"><ele>482.9</ele>
<time>2022-05-16T17:15:18.400000+02:00</time>
</trkpt>
<trkpt lat="46.945886" lon="6.832588"><ele>482.8</ele>
<time>2022-05-16T17:15:19.000000+02:00</time>
</trkpt>
<trkpt lat="46.945917" lon="6.832586"><ele>482.8</ele>
<time>2022-05-16T17:15:19.800000+02:00</time>
</trkpt>
<trkpt lat="46.945977" lon="6.832698"><ele>482.3</ele>
<time>2022-05-16T17:15:21.400000+02:00</time>
</trkpt>
<trkpt lat="46.946174" lon="6.833036"><ele>480.8</ele>
<time>2022-05-16T17:15:26.400000+02:00</time>
</trkpt>
<trkpt lat="46.946372" lon="6.833373"><ele>479.3</ele>
<time>2022-05-16T17:15:31.400000+02:00</time>
</trkpt>
<trkpt lat="46.94642" lon="6.833459"><ele>479</ele>
<time>2022-05-16T17:15:33.000000+02:00</time>
</trkpt>
<trkpt lat="46.946449" lon="6.833506"><ele>478.7</ele>
<time>2022-05-16T17:15:33.600000+02:00</time>
</trkpt>
<trkpt lat="46.946442" lon="6.833554"><ele>478.7</ele>
<time>2022-05-16T17:15:34.500000+02:00</time>
</trkpt>
<trkpt lat="46.946445" lon="6.833602"><ele>478.5</ele>
<time>2022-05-16T17:15:35.000000+02:00</time>
</trkpt>
<trkpt lat="46.946457" lon="6.833647"><ele>478.4</ele>
<time>2022-05-16T17:15:35.700000+02:00</time>
</trkpt>
<trkpt lat="46.946477" lon="6.833685"><ele>478.3</ele>
<time>2022-05-16T17:15:36.300000+02:00</time>
</trkpt>
<trkpt lat="46.946504" lon="6.833713"><ele>478.2</ele>
<time>2022-05-16T17:15:36.900000+02:00</time>
</trkpt>
<trkpt lat="46.946535" lon="6.833729"><ele>478</ele>
<time>2022-05-16T17:15:37.500000+02:00</time>
</trkpt>
<trkpt lat="46.946564" lon="6.833732"><ele>478</ele>
<time>2022-05-16T17:15:38.200000+02:00</time>
</trkpt>
<trkpt lat="46.946593" lon="6.833723"><ele>477.9</ele>
<time>2022-05-16T17:15:38.800000+02:00</time>
</trkpt>
<trkpt lat="46.94662" lon="6.833705"><ele>477.9</ele>
<time>2022-05-16T17:15:39.500000+02:00</time>
</trkpt>
<trkpt lat="46.946642" lon="6.833677"><ele>477.9</ele>
<time>2022-05-16T17:15:40.300000+02:00</time>
</trkpt>
<trkpt lat="46.946659" lon="6.833643"><ele>477.9</ele>
<time>2022-05-16T17:15:41.100000+02:00</time>
</trkpt>
<trkpt lat="46.946659" lon="6.833643"><ele>477.9</ele>
<time>2022-05-16T17:15:41.100000+02:00</time>
</trkpt>
<trkpt lat="46.94678" lon="6.833791"><ele>477.1</ele>
<time>2022-05-16T17:15:43.600000+02:00</time>
</trkpt>
<trkpt lat="46.94687" lon="6.833915"><ele>476.4</ele>
<time>2022-05-16T17:15:45.600000+02:00</time>
</trkpt>
<trkpt lat="46.94687" lon="6.833915"><ele>476.4</ele>
<time>2022-05-16T17:15:45.600000+02:00</time>
</trkpt>
<trkpt lat="46.947099" lon="6.834249"><ele>474.5</ele>
<time>2022-05-16T17:15:50.600000+02:00</time>
</trkpt>
<trkpt lat="46.947286" lon="6.834554"><ele>472.9</ele>
<time>2022-05-16T17:15:54.900000+02:00</time>
</trkpt>
<trkpt lat="46.947286" lon="6.834554"><ele>472.9</ele>
<time>2022-05-16T17:15:54.900000+02:00</time>
</trkpt>
<trkpt lat="46.947413" lon="6.834784"><ele>472</ele>
<time>2022-05-16T17:15:58.500000+02:00</time>
</trkpt>
<trkpt lat="46.947513" lon="6.834986"><ele>471.3</ele>
<time>2022-05-16T17:16:01.600000+02:00</time>
</trkpt>
<trkpt lat="46.947609" lon="6.835202"><ele>470.6</ele>
<time>2022-05-16T17:16:04.700000+02:00</time>
</trkpt>
<trkpt lat="46.947729" lon="6.835519"><ele>469.5</ele>
<time>2022-05-16T17:16:09.200000+02:00</time>
</trkpt>
<trkpt lat="46.947853" lon="6.835896"><ele>468.3</ele>
<time>2022-05-16T17:16:14.300000+02:00</time>
</trkpt>
<trkpt lat="46.947962" lon="6.836299"><ele>467</ele>
<time>2022-05-16T17:16:19.600000+02:00</time>
</trkpt>
<trkpt lat="46.948057" lon="6.836658"><ele>465.9</ele>
<time>2022-05-16T17:16:24.300000+02:00</time>
</trkpt>
<trkpt lat="46.94815" lon="6.837018"><ele>464.8</ele>
<time>2022-05-16T17:16:29.000000+02:00</time>
</trkpt>
<trkpt lat="46.948326" lon="6.837572"><ele>463</ele>
<time>2022-05-16T17:16:36.500000+02:00</time>
</trkpt>
<trkpt lat="46.948477" lon="6.837931"><ele>461.8</ele>
<time>2022-05-16T17:16:41.700000+02:00</time>
</trkpt>
<trkpt lat="46.948639" lon="6.838271"><ele>460.6</ele>
<time>2022-05-16T17:16:46.800000+02:00</time>
</trkpt>
<trkpt lat="46.948784" lon="6.838578"><ele>459.5</ele>
<time>2022-05-16T17:16:51.400000+02:00</time>
</trkpt>
<trkpt lat="46.948929" lon="6.838885"><ele>458.4</ele>
<time>2022-05-16T17:16:55.900000+02:00</time>
</trkpt>
<trkpt lat="46.949061" lon="6.839204"><ele>457.3</ele>
<time>2022-05-16T17:17:00.500000+02:00</time>
</trkpt>
<trkpt lat="46.949139" lon="6.839407"><ele>456.6</ele>
<time>2022-05-16T17:17:03.300000+02:00</time>
</trkpt>
<trkpt lat="46.949237" lon="6.839708"><ele>455.6</ele>
<time>2022-05-16T17:17:07.400000+02:00</time>
</trkpt>
<trkpt lat="46.949335" lon="6.84001"><ele>454.7</ele>
<time>2022-05-16T17:17:11.500000+02:00</time>
</trkpt>
<trkpt lat="46.94947" lon="6.8404"><ele>453.4</ele>
<time>2022-05-16T17:17:16.900000+02:00</time>
</trkpt>
<trkpt lat="46.949542" lon="6.840592"><ele>452.7</ele>
<time>2022-05-16T17:17:19.600000+02:00</time>
</trkpt>
<trkpt lat="46.949626" lon="6.840791"><ele>452.1</ele>
<time>2022-05-16T17:17:22.400000+02:00</time>
</trkpt>
<trkpt lat="46.949745" lon="6.841037"><ele>451.2</ele>
<time>2022-05-16T17:17:26.100000+02:00</time>
</trkpt>
<trkpt lat="46.94984" lon="6.841205"><ele>450.5</ele>
<time>2022-05-16T17:17:28.800000+02:00</time>
</trkpt>
<trkpt lat="46.949945" lon="6.84137"><ele>449.9</ele>
<time>2022-05-16T17:17:31.600000+02:00</time>
</trkpt>
<trkpt lat="46.950068" lon="6.841552"><ele>449.1</ele>
<time>2022-05-16T17:17:34.700000+02:00</time>
</trkpt>
<trkpt lat="46.950202" lon="6.841719"><ele>448.4</ele>
<time>2022-05-16T17:17:37.800000+02:00</time>
</trkpt>
<trkpt lat="46.950338" lon="6.841871"><ele>447.7</ele>
<time>2022-05-16T17:17:40.900000+02:00</time>
</trkpt>
<trkpt lat="46.950476" lon="6.842001"><ele>447</ele>
<time>2022-05-16T17:17:43.900000+02:00</time>
</trkpt>
<trkpt lat="46.950615" lon="6.842119"><ele>446.3</ele>
<time>2022-05-16T17:17:46.700000+02:00</time>
</trkpt>
<trkpt lat="46.950796" lon="6.842243"><ele>445.4</ele>
<time>2022-05-16T17:17:50.300000+02:00</time>
</trkpt>
<trkpt lat="46.950989" lon="6.842354"><ele>444.5</ele>
<time>2022-05-16T17:17:54.000000+02:00</time>
</trkpt>
<trkpt lat="46.951198" lon="6.842451"><ele>443.6</ele>
<time>2022-05-16T17:17:58.000000+02:00</time>
</trkpt>
<trkpt lat="46.951282" lon="6.842481"><ele>443.4</ele>
<time>2022-05-16T17:17:59.800000+02:00</time>
</trkpt>
<trkpt lat="46.951369" lon="6.842554"><ele>443.4</ele>
<time>2022-05-16T17:18:02.400000+02:00</time>
</trkpt>
<trkpt lat="46.951367" lon="6.842611"><ele>443.4</ele>
<time>2022-05-16T17:18:06.000000+02:00</time>
</trkpt>
<trkpt lat="46.951378" lon="6.842666"><ele>443.4</ele>
<time>2022-05-16T17:18:07.000000+02:00</time>
</trkpt>
<trkpt lat="46.951401" lon="6.842712"><ele>443.3</ele>
<time>2022-05-16T17:18:07.800000+02:00</time>
</trkpt>
<trkpt lat="46.951401" lon="6.842712"><ele>443.3</ele>
<time>2022-05-16T17:18:07.800000+02:00</time>
</trkpt>
<trkpt lat="46.951302" lon="6.842772"><ele>443.3</ele>
<time>2022-05-16T17:18:10.700000+02:00</time>
</trkpt>
<trkpt lat="46.951344" lon="6.842863"><ele>443.5</ele>
<time>2022-05-16T17:18:22.000000+02:00</time>
</trkpt>
<trkpt lat="46.951333" lon="6.842928"><ele>443.3</ele>
<time>2022-05-16T17:18:22.900000+02:00</time>
</trkpt>
<trkpt lat="46.951333" lon="6.842928"><ele>443.3</ele>
<time>2022-05-16T17:18:28.000000+02:00</time>
</trkpt>
<trkpt lat="46.951632" lon="6.842993"><ele>442.4</ele>
<time>2022-05-16T17:18:34.100000+02:00</time>
</trkpt>
<trkpt lat="46.951632" lon="6.842993"><ele>442.4</ele>
<time>2022-05-16T17:18:34.200000+02:00</time>
</trkpt>
<trkpt lat="46.951837" lon="6.842997"><ele>443</ele>
<time>2022-05-16T17:18:40.500000+02:00</time>
</trkpt>
<trkpt lat="46.952015" lon="6.843037"><ele>442.9</ele>
<time>2022-05-16T17:18:45.300000+02:00</time>
</trkpt>
<trkpt lat="46.952155" lon="6.843104"><ele>442.6</ele>
<time>2022-05-16T17:18:48.500000+02:00</time>
</trkpt>
<trkpt lat="46.952325" lon="6.843205"><ele>442.4</ele>
<time>2022-05-16T17:18:52.500000+02:00</time>
</trkpt>
<trkpt lat="46.952475" lon="6.843334"><ele>442.3</ele>
<time>2022-05-16T17:18:57.100000+02:00</time>
</trkpt>
<trkpt lat="46.952645" lon="6.843518"><ele>441.9</ele>
<time>2022-05-16T17:19:01.700000+02:00</time>
</trkpt>
<trkpt lat="46.95276" lon="6.843661"><ele>441.6</ele>
<time>2022-05-16T17:19:05.000000+02:00</time>
</trkpt>
<trkpt lat="46.952908" lon="6.843887"><ele>441.7</ele>
<time>2022-05-16T17:19:10.600000+02:00</time>
</trkpt>
<trkpt lat="46.953043" lon="6.844118"><ele>441.5</ele>
<time>2022-05-16T17:19:15.100000+02:00</time>
</trkpt>
<trkpt lat="46.953179" lon="6.844405"><ele>441.3</ele>
<time>2022-05-16T17:19:21.400000+02:00</time>
</trkpt>
<trkpt lat="46.953411" lon="6.844929"><ele>441.4</ele>
<time>2022-05-16T17:19:32.600000+02:00</time>
</trkpt>
<trkpt lat="46.953593" lon="6.845421"><ele>441.2</ele>
<time>2022-05-16T17:19:42.700000+02:00</time>
</trkpt>
<trkpt lat="46.953776" lon="6.845914"><ele>441.1</ele>
<time>2022-05-16T17:19:52.800000+02:00</time>
</trkpt>
<trkpt lat="46.953909" lon="6.846353"><ele>440.9</ele>
<time>2022-05-16T17:20:01.400000+02:00</time>
</trkpt>
<trkpt lat="46.954002" lon="6.846738"><ele>440.9</ele>
<time>2022-05-16T17:20:08.700000+02:00</time>
</trkpt>
<trkpt lat="46.954065" lon="6.84718"><ele>440.9</ele>
<time>2022-05-16T17:20:16.900000+02:00</time>
</trkpt>
<trkpt lat="46.954098" lon="6.847518"><ele>440.9</ele>
<time>2022-05-16T17:20:23.000000+02:00</time>
</trkpt>
<trkpt lat="46.954132" lon="6.847856"><ele>441</ele>
<time>2022-05-16T17:20:29.100000+02:00</time>
</trkpt>
<trkpt lat="46.95414" lon="6.848039"><ele>440.9</ele>
<time>2022-05-16T17:20:32.400000+02:00</time>
</trkpt>
<trkpt lat="46.954157" lon="6.848352"><ele>440.4</ele>
<time>2022-05-16T17:20:37.100000+02:00</time>
</trkpt>
<trkpt lat="46.954157" lon="6.848352"><ele>440.4</ele>
<time>2022-05-16T17:20:37.100000+02:00</time>
</trkpt>
<trkpt lat="46.954177" lon="6.848673"><ele>440.3</ele>
<time>2022-05-16T17:20:42.900000+02:00</time>
</trkpt>
<trkpt lat="46.954197" lon="6.848994"><ele>440.2</ele>
<time>2022-05-16T17:20:48.700000+02:00</time>
</trkpt>
<trkpt lat="46.954217" lon="6.849315"><ele>440.2</ele>
<time>2022-05-16T17:20:54.500000+02:00</time>
</trkpt>
<trkpt lat="46.954236" lon="6.849635"><ele>440.2</ele>
<time>2022-05-16T17:21:00.300000+02:00</time>
</trkpt>
<trkpt lat="46.95427" lon="6.850148"><ele>440.2</ele>
<time>2022-05-16T17:21:09.500000+02:00</time>
</trkpt>
<trkpt lat="46.95427" lon="6.850148"><ele>440.2</ele>
<time>2022-05-16T17:21:09.500000+02:00</time>
</trkpt>
<trkpt lat="46.954291" lon="6.850378"><ele>440.2</ele>
<time>2022-05-16T17:21:13.800000+02:00</time>
</trkpt>
<trkpt lat="46.954311" lon="6.850417"><ele>440.3</ele>
<time>2022-05-16T17:21:14.800000+02:00</time>
</trkpt>
<trkpt lat="46.954319" lon="6.850982"><ele>439.8</ele>
<time>2022-05-16T17:21:23.400000+02:00</time>
</trkpt>
<trkpt lat="46.954328" lon="6.851169"><ele>439.7</ele>
<time>2022-05-16T17:21:26.800000+02:00</time>
</trkpt>
<trkpt lat="46.95435" lon="6.851581"><ele>439.4</ele>
<time>2022-05-16T17:21:33.100000+02:00</time>
</trkpt>
<trkpt lat="46.954352" lon="6.851958"><ele>439.2</ele>
<time>2022-05-16T17:21:40.000000+02:00</time>
</trkpt>
<trkpt lat="46.954338" lon="6.852167"><ele>439.1</ele>
<time>2022-05-16T17:21:43.800000+02:00</time>
</trkpt>
<trkpt lat="46.954338" lon="6.852167"><ele>439.1</ele>
<time>2022-05-16T17:21:43.900000+02:00</time>
</trkpt>
<trkpt lat="46.954243" lon="6.852603"><ele>438.9</ele>
<time>2022-05-16T17:21:51.700000+02:00</time>
</trkpt>
<trkpt lat="46.954243" lon="6.852603"><ele>438.9</ele>
<time>2022-05-16T17:21:51.700000+02:00</time>
</trkpt>
<trkpt lat="46.954182" lon="6.852849"><ele>439.2</ele>
<time>2022-05-16T17:21:56.700000+02:00</time>
</trkpt>
<trkpt lat="46.954182" lon="6.852849"><ele>439.2</ele>
<time>2022-05-16T17:21:56.700000+02:00</time>
</trkpt>
<trkpt lat="46.954068" lon="6.853327"><ele>439</ele>
<time>2022-05-16T17:22:05.400000+02:00</time>
</trkpt>
<trkpt lat="46.954051" lon="6.853401"><ele>439</ele>
<time>2022-05-16T17:22:06.800000+02:00</time>
</trkpt>
<trkpt lat="46.954035" lon="6.853481"><ele>438.9</ele>
<time>2022-05-16T17:22:08.200000+02:00</time>
</trkpt>
<trkpt lat="46.954035" lon="6.853481"><ele>438.9</ele>
<time>2022-05-16T17:22:08.200000+02:00</time>
</trkpt>
<trkpt lat="46.954001" lon="6.853647"><ele>438.9</ele>
<time>2022-05-16T17:22:11.300000+02:00</time>
</trkpt>
<trkpt lat="46.954044" lon="6.853697"><ele>438.9</ele>
<time>2022-05-16T17:22:18.700000+02:00</time>
</trkpt>
<trkpt lat="46.95402" lon="6.853789"><ele>439.1</ele>
<time>2022-05-16T17:22:24.100000+02:00</time>
</trkpt>
<trkpt lat="46.954001" lon="6.853884"><ele>439.1</ele>
<time>2022-05-16T17:22:25.900000+02:00</time>
</trkpt>
<trkpt lat="46.95407" lon="6.853921"><ele>439</ele>
<time>2022-05-16T17:22:33.700000+02:00</time>
</trkpt>
<trkpt lat="46.954156" lon="6.854053"><ele>438.9</ele>
<time>2022-05-16T17:22:36.900000+02:00</time>
</trkpt>
<trkpt lat="46.954212" lon="6.854273"><ele>438.8</ele>
<time>2022-05-16T17:22:41.100000+02:00</time>
</trkpt>
<trkpt lat="46.954293" lon="6.854602"><ele>438.6</ele>
<time>2022-05-16T17:22:47.400000+02:00</time>
</trkpt>
<trkpt lat="46.954432" lon="6.854998"><ele>438.6</ele>
<time>2022-05-16T17:22:55.300000+02:00</time>
</trkpt>
<trkpt lat="46.954475" lon="6.85523"><ele>438.4</ele>
<time>2022-05-16T17:22:58.900000+02:00</time>
</trkpt>
<trkpt lat="46.954611" lon="6.855564"><ele>438.3</ele>
<time>2022-05-16T17:23:05.900000+02:00</time>
</trkpt>
<trkpt lat="46.954748" lon="6.855896"><ele>438.5</ele>
<time>2022-05-16T17:23:12.800000+02:00</time>
</trkpt>
<trkpt lat="46.954771" lon="6.855965"><ele>438.5</ele>
<time>2022-05-16T17:23:14.200000+02:00</time>
</trkpt>
<trkpt lat="46.954933" lon="6.856366"><ele>438</ele>
<time>2022-05-16T17:23:21.100000+02:00</time>
</trkpt>
<trkpt lat="46.9551" lon="6.856699"><ele>437.7</ele>
<time>2022-05-16T17:23:27.200000+02:00</time>
</trkpt>
<trkpt lat="46.955257" lon="6.85698"><ele>437.6</ele>
<time>2022-05-16T17:23:33.700000+02:00</time>
</trkpt>
<trkpt lat="46.955414" lon="6.857262"><ele>437.4</ele>
<time>2022-05-16T17:23:40.100000+02:00</time>
</trkpt>
<trkpt lat="46.955695" lon="6.857651"><ele>437.1</ele>
<time>2022-05-16T17:23:50.200000+02:00</time>
</trkpt>
<trkpt lat="46.955975" lon="6.858041"><ele>437.1</ele>
<time>2022-05-16T17:24:00.200000+02:00</time>
</trkpt>
<trkpt lat="46.956256" lon="6.858431"><ele>437.1</ele>
<time>2022-05-16T17:24:10.300000+02:00</time>
</trkpt>
<trkpt lat="46.956518" lon="6.858757"><ele>437.1</ele>
<time>2022-05-16T17:24:19.200000+02:00</time>
</trkpt>
<trkpt lat="46.956781" lon="6.859082"><ele>437</ele>
<time>2022-05-16T17:24:28.200000+02:00</time>
</trkpt>
<trkpt lat="46.957043" lon="6.859409"><ele>437</ele>
<time>2022-05-16T17:24:37.100000+02:00</time>
</trkpt>
<trkpt lat="46.957334" lon="6.859742"><ele>436.9</ele>
<time>2022-05-16T17:24:46.700000+02:00</time>
</trkpt>
<trkpt lat="46.957583" lon="6.859985"><ele>436.9</ele>
<time>2022-05-16T17:24:54.500000+02:00</time>
</trkpt>
<trkpt lat="46.957891" lon="6.860238"><ele>436.8</ele>
<time>2022-05-16T17:25:03.700000+02:00</time>
</trkpt>
<trkpt lat="46.9582" lon="6.860492"><ele>436.7</ele>
<time>2022-05-16T17:25:12.900000+02:00</time>
</trkpt>
<trkpt lat="46.958485" lon="6.860765"><ele>436.6</ele>
<time>2022-05-16T17:25:21.700000+02:00</time>
</trkpt>
<trkpt lat="46.958722" lon="6.861071"><ele>436.5</ele>
<time>2022-05-16T17:25:29.900000+02:00</time>
</trkpt>
<trkpt lat="46.95898" lon="6.861451"><ele>436.3</ele>
<time>2022-05-16T17:25:39.500000+02:00</time>
</trkpt>
<trkpt lat="46.95924" lon="6.861832"><ele>436.1</ele>
<time>2022-05-16T17:25:49.000000+02:00</time>
</trkpt>
<trkpt lat="46.959499" lon="6.862211"><ele>435.8</ele>
<time>2022-05-16T17:25:58.500000+02:00</time>
</trkpt>
<trkpt lat="46.959499" lon="6.862211"><ele>435.8</ele>
<time>2022-05-16T17:25:58.500000+02:00</time>
</trkpt>
<trkpt lat="46.959696" lon="6.862502"><ele>435.7</ele>
<time>2022-05-16T17:26:05.900000+02:00</time>
</trkpt>
<trkpt lat="46.959895" lon="6.862793"><ele>435.6</ele>
<time>2022-05-16T17:26:13.300000+02:00</time>
</trkpt>
<trkpt lat="46.960132" lon="6.863206"><ele>435.5</ele>
<time>2022-05-16T17:26:23.100000+02:00</time>
</trkpt>
<trkpt lat="46.96028" lon="6.863437"><ele>435.5</ele>
<time>2022-05-16T17:26:28.800000+02:00</time>
</trkpt>
<trkpt lat="46.960471" lon="6.8637"><ele>434.9</ele>
<time>2022-05-16T17:26:34.500000+02:00</time>
</trkpt>
<trkpt lat="46.960663" lon="6.863963"><ele>434.6</ele>
<time>2022-05-16T17:26:40.300000+02:00</time>
</trkpt>
<trkpt lat="46.960809" lon="6.864187"><ele>434.8</ele>
<time>2022-05-16T17:26:46.200000+02:00</time>
</trkpt>
<trkpt lat="46.960805" lon="6.864264"><ele>434.8</ele>
<time>2022-05-16T17:26:47.600000+02:00</time>
</trkpt>
<trkpt lat="46.960802" lon="6.86434"><ele>434.9</ele>
<time>2022-05-16T17:26:50.000000+02:00</time>
</trkpt>
<trkpt lat="46.960802" lon="6.86434"><ele>434.9</ele>
<time>2022-05-16T17:26:53.200000+02:00</time>
</trkpt>
<trkpt lat="46.960911" lon="6.864494"><ele>435.1</ele>
<time>2022-05-16T17:26:57.300000+02:00</time>
</trkpt>
<trkpt lat="46.960959" lon="6.864573"><ele>435.1</ele>
<time>2022-05-16T17:26:59.300000+02:00</time>
</trkpt>
<trkpt lat="46.961021" lon="6.86459"><ele>435</ele>
<time>2022-05-16T17:27:02.300000+02:00</time>
</trkpt>
<trkpt lat="46.96102" lon="6.864663"><ele>435</ele>
<time>2022-05-16T17:27:05.600000+02:00</time>
</trkpt>
<trkpt lat="46.961069" lon="6.864747"><ele>434.9</ele>
<time>2022-05-16T17:27:07.300000+02:00</time>
</trkpt>
<trkpt lat="46.96131" lon="6.864822"><ele>434.6</ele>
<time>2022-05-16T17:27:12.800000+02:00</time>
</trkpt>
<trkpt lat="46.961552" lon="6.864897"><ele>434.2</ele>
<time>2022-05-16T17:27:18.300000+02:00</time>
</trkpt>
<trkpt lat="46.961701" lon="6.865021"><ele>434.4</ele>
<time>2022-05-16T17:27:23.100000+02:00</time>
</trkpt>
<trkpt lat="46.961842" lon="6.86516"><ele>434.8</ele>
<time>2022-05-16T17:27:27.800000+02:00</time>
</trkpt>
<trkpt lat="46.961963" lon="6.865321"><ele>435</ele>
<time>2022-05-16T17:27:32.400000+02:00</time>
</trkpt>
<trkpt lat="46.962216" lon="6.865817"><ele>435</ele>
<time>2022-05-16T17:27:43.700000+02:00</time>
</trkpt>
<trkpt lat="46.962372" lon="6.866153"><ele>434.8</ele>
<time>2022-05-16T17:27:51.100000+02:00</time>
</trkpt>
<trkpt lat="46.962528" lon="6.866487"><ele>434.6</ele>
<time>2022-05-16T17:27:58.500000+02:00</time>
</trkpt>
<trkpt lat="46.962528" lon="6.866487"><ele>434.6</ele>
<time>2022-05-16T17:27:58.500000+02:00</time>
</trkpt>
<trkpt lat="46.962752" lon="6.866936"><ele>434.5</ele>
<time>2022-05-16T17:28:08.400000+02:00</time>
</trkpt>
<trkpt lat="46.962975" lon="6.867384"><ele>434.1</ele>
<time>2022-05-16T17:28:16.600000+02:00</time>
</trkpt>
<trkpt lat="46.963199" lon="6.867833"><ele>433.9</ele>
<time>2022-05-16T17:28:26.500000+02:00</time>
</trkpt>
<trkpt lat="46.96337" lon="6.868129"><ele>433.8</ele>
<time>2022-05-16T17:28:33.400000+02:00</time>
</trkpt>
<trkpt lat="46.963541" lon="6.868422"><ele>433.6</ele>
<time>2022-05-16T17:28:40.300000+02:00</time>
</trkpt>
<trkpt lat="46.963541" lon="6.868422"><ele>433.6</ele>
<time>2022-05-16T17:28:40.300000+02:00</time>
</trkpt>
<trkpt lat="46.963738" lon="6.868761"><ele>433.4</ele>
<time>2022-05-16T17:28:48.200000+02:00</time>
</trkpt>
<trkpt lat="46.963839" lon="6.868951"><ele>433.2</ele>
<time>2022-05-16T17:28:51.800000+02:00</time>
</trkpt>
<trkpt lat="46.963839" lon="6.868951"><ele>433.2</ele>
<time>2022-05-16T17:28:52.700000+02:00</time>
</trkpt>
<trkpt lat="46.963838" lon="6.869143"><ele>433.2</ele>
<time>2022-05-16T17:28:56.200000+02:00</time>
</trkpt>
<trkpt lat="46.963808" lon="6.869518"><ele>433.2</ele>
<time>2022-05-16T17:29:03.100000+02:00</time>
</trkpt>
<trkpt lat="46.963808" lon="6.869518"><ele>433.2</ele>
<time>2022-05-16T17:29:03.100000+02:00</time>
</trkpt>
<trkpt lat="46.96377" lon="6.869965"><ele>433.2</ele>
<time>2022-05-16T17:29:11.400000+02:00</time>
</trkpt>
<trkpt lat="46.963732" lon="6.870412"><ele>433.4</ele>
<time>2022-05-16T17:29:19.700000+02:00</time>
</trkpt>
<trkpt lat="46.963684" lon="6.871004"><ele>433.6</ele>
<time>2022-05-16T17:29:30.700000+02:00</time>
</trkpt>
<trkpt lat="46.96365" lon="6.871346"><ele>434.3</ele>
<time>2022-05-16T17:29:37.800000+02:00</time>
</trkpt>
<trkpt lat="46.96365" lon="6.871346"><ele>434.3</ele>
<time>2022-05-16T17:29:49.800000+02:00</time>
</trkpt>
<trkpt lat="46.963838" lon="6.871345"><ele>434.4</ele>
<time>2022-05-16T17:29:57.000000+02:00</time>
</trkpt>
<trkpt lat="46.963838" lon="6.871345"><ele>434.4</ele>
<time>2022-05-16T17:29:57.000000+02:00</time>
</trkpt>
<trkpt lat="46.963978" lon="6.871345"><ele>434.8</ele>
<time>2022-05-16T17:30:03.200000+02:00</time>
</trkpt>
<trkpt lat="46.96436" lon="6.871197"><ele>434.6</ele>
<time>2022-05-16T17:30:18.000000+02:00</time>
</trkpt>
<trkpt lat="46.964741" lon="6.871049"><ele>434.4</ele>
<time>2022-05-16T17:30:32.800000+02:00</time>
</trkpt>
<trkpt lat="46.965123" lon="6.870902"><ele>434.4</ele>
<time>2022-05-16T17:30:47.600000+02:00</time>
</trkpt>
<trkpt lat="46.965505" lon="6.870754"><ele>434</ele>
<time>2022-05-16T17:30:59.900000+02:00</time>
</trkpt>
<trkpt lat="46.965658" lon="6.870776"><ele>432.8</ele>
<time>2022-05-16T17:31:02.800000+02:00</time>
</trkpt>
<trkpt lat="46.965658" lon="6.870776"><ele>432.8</ele>
<time>2022-05-16T17:31:02.800000+02:00</time>
</trkpt>
<trkpt lat="46.965774" lon="6.87079"><ele>432.5</ele>
<time>2022-05-16T17:31:06.300000+02:00</time>
</trkpt>
<trkpt lat="46.966018" lon="6.870979"><ele>431.8</ele>
<time>2022-05-16T17:31:14.700000+02:00</time>
</trkpt>
<trkpt lat="46.966127" lon="6.871051"><ele>431.6</ele>
<time>2022-05-16T17:31:18.300000+02:00</time>
</trkpt>
<trkpt lat="46.966127" lon="6.871051"><ele>431.6</ele>
<time>2022-05-16T17:31:18.300000+02:00</time>
</trkpt>
<trkpt lat="46.966494" lon="6.871262"><ele>431.3</ele>
<time>2022-05-16T17:31:33.200000+02:00</time>
</trkpt>
<trkpt lat="46.966786" lon="6.871471"><ele>430.8</ele>
<time>2022-05-16T17:31:43.500000+02:00</time>
</trkpt>
<trkpt lat="46.966858" lon="6.871525"><ele>430.7</ele>
<time>2022-05-16T17:31:46.100000+02:00</time>
</trkpt>
<trkpt lat="46.966889" lon="6.871602"><ele>430.6</ele>
<time>2022-05-16T17:31:48.000000+02:00</time>
</trkpt>
<trkpt lat="46.966939" lon="6.871677"><ele>430.8</ele>
<time>2022-05-16T17:31:51.200000+02:00</time>
</trkpt>
<trkpt lat="46.967016" lon="6.871738"><ele>430.7</ele>
<time>2022-05-16T17:31:53.900000+02:00</time>
</trkpt>
<trkpt lat="46.967016" lon="6.871738"><ele>430.7</ele>
<time>2022-05-16T17:31:54.000000+02:00</time>
</trkpt>
<trkpt lat="46.967122" lon="6.871853"><ele>430.8</ele>
<time>2022-05-16T17:31:57.900000+02:00</time>
</trkpt>
<trkpt lat="46.96717" lon="6.871915"><ele>431.3</ele>
<time>2022-05-16T17:32:00.800000+02:00</time>
</trkpt>
<trkpt lat="46.967232" lon="6.872014"><ele>431.4</ele>
<time>2022-05-16T17:32:03.700000+02:00</time>
</trkpt>
<trkpt lat="46.967365" lon="6.872147"><ele>431.4</ele>
<time>2022-05-16T17:32:08.400000+02:00</time>
</trkpt>
<trkpt lat="46.967691" lon="6.872402"><ele>431.3</ele>
<time>2022-05-16T17:32:19.300000+02:00</time>
</trkpt>
<trkpt lat="46.968016" lon="6.872657"><ele>431.2</ele>
<time>2022-05-16T17:32:30.100000+02:00</time>
</trkpt>
<trkpt lat="46.968373" lon="6.872826"><ele>431.5</ele>
<time>2022-05-16T17:32:41.200000+02:00</time>
</trkpt>
<trkpt lat="46.968564" lon="6.872995"><ele>431.4</ele>
<time>2022-05-16T17:32:47.700000+02:00</time>
</trkpt>
<trkpt lat="46.968657" lon="6.873021"><ele>431.4</ele>
<time>2022-05-16T17:32:50.500000+02:00</time>
</trkpt>
<trkpt lat="46.968809" lon="6.873135"><ele>431.1</ele>
<time>2022-05-16T17:32:54.700000+02:00</time>
</trkpt>
<trkpt lat="46.968975" lon="6.873366"><ele>430.7</ele>
<time>2022-05-16T17:33:00.300000+02:00</time>
</trkpt>
<trkpt lat="46.969042" lon="6.873425"><ele>430.8</ele>
<time>2022-05-16T17:33:02.800000+02:00</time>
</trkpt>
<trkpt lat="46.969211" lon="6.87351"><ele>430.7</ele>
<time>2022-05-16T17:33:08.000000+02:00</time>
</trkpt>
<trkpt lat="46.969373" lon="6.873634"><ele>430.6</ele>
<time>2022-05-16T17:33:13.400000+02:00</time>
</trkpt>
<trkpt lat="46.969544" lon="6.873781"><ele>430.6</ele>
<time>2022-05-16T17:33:19.300000+02:00</time>
</trkpt>
<trkpt lat="46.969637" lon="6.873782"><ele>430.5</ele>
<time>2022-05-16T17:33:21.500000+02:00</time>
</trkpt>
<trkpt lat="46.969775" lon="6.873731"><ele>430.5</ele>
<time>2022-05-16T17:33:25.700000+02:00</time>
</trkpt>
<trkpt lat="46.970091" lon="6.873601"><ele>430.5</ele>
<time>2022-05-16T17:33:35.400000+02:00</time>
</trkpt>
<trkpt lat="46.970161" lon="6.873557"><ele>430.5</ele>
<time>2022-05-16T17:33:37.600000+02:00</time>
</trkpt>
<trkpt lat="46.970308" lon="6.87341"><ele>430.6</ele>
<time>2022-05-16T17:33:42.900000+02:00</time>
</trkpt>
<trkpt lat="46.970499" lon="6.873198"><ele>430.9</ele>
<time>2022-05-16T17:33:50.300000+02:00</time>
</trkpt>
<trkpt lat="46.970608" lon="6.873168"><ele>431.3</ele>
<time>2022-05-16T17:33:54.100000+02:00</time>
</trkpt>
<trkpt lat="46.970722" lon="6.873253"><ele>430.9</ele>
<time>2022-05-16T17:33:56.900000+02:00</time>
</trkpt>
<trkpt lat="46.970722" lon="6.873253"><ele>430.9</ele>
<time>2022-05-16T17:33:57.000000+02:00</time>
</trkpt>
<trkpt lat="46.970957" lon="6.873527"><ele>431</ele>
<time>2022-05-16T17:34:05.000000+02:00</time>
</trkpt>
<trkpt lat="46.97119" lon="6.873801"><ele>431</ele>
<time>2022-05-16T17:34:13.100000+02:00</time>
</trkpt>
<trkpt lat="46.971388" lon="6.874065"><ele>431.2</ele>
<time>2022-05-16T17:34:20.300000+02:00</time>
</trkpt>
<trkpt lat="46.971388" lon="6.874065"><ele>431.2</ele>
<time>2022-05-16T17:34:20.300000+02:00</time>
</trkpt>
<trkpt lat="46.971666" lon="6.874439"><ele>431.2</ele>
<time>2022-05-16T17:34:30.500000+02:00</time>
</trkpt>
<trkpt lat="46.971949" lon="6.874912"><ele>431.5</ele>
<time>2022-05-16T17:34:42.100000+02:00</time>
</trkpt>
<trkpt lat="46.971949" lon="6.874912"><ele>431.5</ele>
<time>2022-05-16T17:34:42.100000+02:00</time>
</trkpt>
<trkpt lat="46.972137" lon="6.875266"><ele>432.1</ele>
<time>2022-05-16T17:34:50.700000+02:00</time>
</trkpt>
<trkpt lat="46.972291" lon="6.875622"><ele>433.2</ele>
<time>2022-05-16T17:34:59.800000+02:00</time>
</trkpt>
<trkpt lat="46.972445" lon="6.875976"><ele>433.5</ele>
<time>2022-05-16T17:35:08.000000+02:00</time>
</trkpt>
<trkpt lat="46.972644" lon="6.876489"><ele>432.7</ele>
<time>2022-05-16T17:35:17.000000+02:00</time>
</trkpt>
<trkpt lat="46.972842" lon="6.877002"><ele>431.9</ele>
<time>2022-05-16T17:35:26.000000+02:00</time>
</trkpt>
<trkpt lat="46.973041" lon="6.877516"><ele>431.5</ele>
<time>2022-05-16T17:35:35.000000+02:00</time>
</trkpt>
<trkpt lat="46.973239" lon="6.878029"><ele>431.5</ele>
<time>2022-05-16T17:35:45.800000+02:00</time>
</trkpt>
<trkpt lat="46.973438" lon="6.87854"><ele>431.7</ele>
<time>2022-05-16T17:35:56.600000+02:00</time>
</trkpt>
<trkpt lat="46.973544" lon="6.878752"><ele>431.8</ele>
<time>2022-05-16T17:36:01.400000+02:00</time>
</trkpt>
<trkpt lat="46.973544" lon="6.878752"><ele>431.8</ele>
<time>2022-05-16T17:36:01.500000+02:00</time>
</trkpt>
<trkpt lat="46.973708" lon="6.879034"><ele>431.9</ele>
<time>2022-05-16T17:36:08.300000+02:00</time>
</trkpt>
<trkpt lat="46.973871" lon="6.879317"><ele>432.1</ele>
<time>2022-05-16T17:36:15.200000+02:00</time>
</trkpt>
<trkpt lat="46.974187" lon="6.879734"><ele>432.4</ele>
<time>2022-05-16T17:36:26.800000+02:00</time>
</trkpt>
<trkpt lat="46.974503" lon="6.880154"><ele>432.4</ele>
<time>2022-05-16T17:36:38.400000+02:00</time>
</trkpt>
<trkpt lat="46.974576" lon="6.880224"><ele>432.3</ele>
<time>2022-05-16T17:36:40.400000+02:00</time>
</trkpt>
<trkpt lat="46.974619" lon="6.880266"><ele>432.4</ele>
<time>2022-05-16T17:36:41.800000+02:00</time>
</trkpt>
<trkpt lat="46.974659" lon="6.880274"><ele>432.3</ele>
<time>2022-05-16T17:36:43.400000+02:00</time>
</trkpt>
<trkpt lat="46.974659" lon="6.880274"><ele>432.3</ele>
<time>2022-05-16T17:36:43.900000+02:00</time>
</trkpt>
<trkpt lat="46.974923" lon="6.880571"><ele>432</ele>
<time>2022-05-16T17:36:52.300000+02:00</time>
</trkpt>
<trkpt lat="46.975187" lon="6.880869"><ele>431.9</ele>
<time>2022-05-16T17:37:00.600000+02:00</time>
</trkpt>
<trkpt lat="46.975187" lon="6.880869"><ele>431.9</ele>
<time>2022-05-16T17:37:00.600000+02:00</time>
</trkpt>
<trkpt lat="46.975522" lon="6.88125"><ele>431.7</ele>
<time>2022-05-16T17:37:11.800000+02:00</time>
</trkpt>
<trkpt lat="46.975857" lon="6.881631"><ele>431.5</ele>
<time>2022-05-16T17:37:23.000000+02:00</time>
</trkpt>
<trkpt lat="46.976097" lon="6.881949"><ele>431.4</ele>
<time>2022-05-16T17:37:31.600000+02:00</time>
</trkpt>
<trkpt lat="46.976304" lon="6.882284"><ele>431.4</ele>
<time>2022-05-16T17:37:39.800000+02:00</time>
</trkpt>
<trkpt lat="46.976513" lon="6.882617"><ele>431.4</ele>
<time>2022-05-16T17:37:47.900000+02:00</time>
</trkpt>
<trkpt lat="46.976736" lon="6.883064"><ele>431.4</ele>
<time>2022-05-16T17:37:57.900000+02:00</time>
</trkpt>
<trkpt lat="46.976945" lon="6.883551"><ele>431.4</ele>
<time>2022-05-16T17:38:08.300000+02:00</time>
</trkpt>
<trkpt lat="46.977097" lon="6.883954"><ele>431.4</ele>
<time>2022-05-16T17:38:16.700000+02:00</time>
</trkpt>
<trkpt lat="46.977238" lon="6.884435"><ele>431.4</ele>
<time>2022-05-16T17:38:26.100000+02:00</time>
</trkpt>
<trkpt lat="46.977326" lon="6.884823"><ele>431.4</ele>
<time>2022-05-16T17:38:33.500000+02:00</time>
</trkpt>
<trkpt lat="46.977388" lon="6.885138"><ele>431.4</ele>
<time>2022-05-16T17:38:39.400000+02:00</time>
</trkpt>
<trkpt lat="46.977449" lon="6.885452"><ele>431.3</ele>
<time>2022-05-16T17:38:45.300000+02:00</time>
</trkpt>
<trkpt lat="46.97751" lon="6.885767"><ele>431.3</ele>
<time>2022-05-16T17:38:51.300000+02:00</time>
</trkpt>
<trkpt lat="46.977572" lon="6.886082"><ele>431.3</ele>
<time>2022-05-16T17:38:57.200000+02:00</time>
</trkpt>
<trkpt lat="46.977686" lon="6.886626"><ele>431.3</ele>
<time>2022-05-16T17:39:07.500000+02:00</time>
</trkpt>
<trkpt lat="46.9778" lon="6.887172"><ele>431.3</ele>
<time>2022-05-16T17:39:17.800000+02:00</time>
</trkpt>
<trkpt lat="46.977915" lon="6.887716"><ele>431.4</ele>
<time>2022-05-16T17:39:28.100000+02:00</time>
</trkpt>
<trkpt lat="46.97799" lon="6.888127"><ele>431.4</ele>
<time>2022-05-16T17:39:35.800000+02:00</time>
</trkpt>
<trkpt lat="46.978029" lon="6.888463"><ele>431.3</ele>
<time>2022-05-16T17:39:41.900000+02:00</time>
</trkpt>
<trkpt lat="46.978059" lon="6.889022"><ele>431.3</ele>
<time>2022-05-16T17:39:52.100000+02:00</time>
</trkpt>
<trkpt lat="46.978087" lon="6.889515"><ele>431.4</ele>
<time>2022-05-16T17:40:01.000000+02:00</time>
</trkpt>
<trkpt lat="46.978113" lon="6.890008"><ele>431.2</ele>
<time>2022-05-16T17:40:10.000000+02:00</time>
</trkpt>
<trkpt lat="46.978228" lon="6.890572"><ele>431.4</ele>
<time>2022-05-16T17:40:20.600000+02:00</time>
</trkpt>
<trkpt lat="46.978295" lon="6.890886"><ele>431.4</ele>
<time>2022-05-16T17:40:26.600000+02:00</time>
</trkpt>
<trkpt lat="46.978393" lon="6.891227"><ele>431.5</ele>
<time>2022-05-16T17:40:33.200000+02:00</time>
</trkpt>
<trkpt lat="46.978533" lon="6.89167"><ele>431.5</ele>
<time>2022-05-16T17:40:42.100000+02:00</time>
</trkpt>
<trkpt lat="46.978626" lon="6.891944"><ele>431.5</ele>
<time>2022-05-16T17:40:47.600000+02:00</time>
</trkpt>
<trkpt lat="46.978735" lon="6.89227"><ele>431.4</ele>
<time>2022-05-16T17:40:54.200000+02:00</time>
</trkpt>
<trkpt lat="46.978788" lon="6.892403"><ele>431.4</ele>
<time>2022-05-16T17:40:56.900000+02:00</time>
</trkpt>
<trkpt lat="46.978788" lon="6.892403"><ele>431.4</ele>
<time>2022-05-16T17:40:57.000000+02:00</time>
</trkpt>
<trkpt lat="46.97889" lon="6.892745"><ele>431.3</ele>
<time>2022-05-16T17:41:03.900000+02:00</time>
</trkpt>
<trkpt lat="46.97892" lon="6.892911"><ele>431.4</ele>
<time>2022-05-16T17:41:07.000000+02:00</time>
</trkpt>
<trkpt lat="46.978875" lon="6.893226"><ele>431.5</ele>
<time>2022-05-16T17:41:13.000000+02:00</time>
</trkpt>
<trkpt lat="46.97888" lon="6.893485"><ele>431.8</ele>
<time>2022-05-16T17:41:18.100000+02:00</time>
</trkpt>
<trkpt lat="46.978943" lon="6.89372"><ele>431.9</ele>
<time>2022-05-16T17:41:22.700000+02:00</time>
</trkpt>
<trkpt lat="46.979069" lon="6.893939"><ele>431.6</ele>
<time>2022-05-16T17:41:27.100000+02:00</time>
</trkpt>
<trkpt lat="46.979105" lon="6.894005"><ele>431.7</ele>
<time>2022-05-16T17:41:28.700000+02:00</time>
</trkpt>
<trkpt lat="46.979235" lon="6.894244"><ele>431.3</ele>
<time>2022-05-16T17:41:33.300000+02:00</time>
</trkpt>
<trkpt lat="46.979336" lon="6.894473"><ele>432.7</ele>
<time>2022-05-16T17:41:40.800000+02:00</time>
</trkpt>
<trkpt lat="46.979336" lon="6.894473"><ele>432.7</ele>
<time>2022-05-16T17:41:40.800000+02:00</time>
</trkpt>
<trkpt lat="46.9794" lon="6.894624"><ele>432.3</ele>
<time>2022-05-16T17:41:43.200000+02:00</time>
</trkpt>
<trkpt lat="46.9794" lon="6.894624"><ele>432.3</ele>
<time>2022-05-16T17:41:43.200000+02:00</time>
</trkpt>
<trkpt lat="46.979463" lon="6.894788"><ele>432.1</ele>
<time>2022-05-16T17:41:46.200000+02:00</time>
</trkpt>
<trkpt lat="46.979463" lon="6.894788"><ele>432.1</ele>
<time>2022-05-16T17:41:46.300000+02:00</time>
</trkpt>
<trkpt lat="46.979511" lon="6.894988"><ele>432.1</ele>
<time>2022-05-16T17:41:50.100000+02:00</time>
</trkpt>
<trkpt lat="46.979511" lon="6.894988"><ele>432.1</ele>
<time>2022-05-16T17:41:50.100000+02:00</time>
</trkpt>
<trkpt lat="46.979551" lon="6.895158"><ele>432.1</ele>
<time>2022-05-16T17:41:53.400000+02:00</time>
</trkpt>
<trkpt lat="46.979551" lon="6.895158"><ele>432.1</ele>
<time>2022-05-16T17:41:53.400000+02:00</time>
</trkpt>
<trkpt lat="46.979654" lon="6.895692"><ele>432.1</ele>
<time>2022-05-16T17:42:03.500000+02:00</time>
</trkpt>
<trkpt lat="46.979755" lon="6.896223"><ele>432.1</ele>
<time>2022-05-16T17:42:13.500000+02:00</time>
</trkpt>
<trkpt lat="46.9798" lon="6.896235"><ele>432</ele>
<time>2022-05-16T17:42:14.600000+02:00</time>
</trkpt>
<trkpt lat="46.979864" lon="6.89625"><ele>431.8</ele>
<time>2022-05-16T17:42:20.000000+02:00</time>
</trkpt>
<trkpt lat="46.979864" lon="6.89625"><ele>431.8</ele>
<time>2022-05-16T17:42:22.600000+02:00</time>
</trkpt>
<trkpt lat="46.979961" lon="6.896664"><ele>431.7</ele>
<time>2022-05-16T17:42:30.500000+02:00</time>
</trkpt>
<trkpt lat="46.980059" lon="6.897079"><ele>432.1</ele>
<time>2022-05-16T17:42:38.700000+02:00</time>
</trkpt>
<trkpt lat="46.980142" lon="6.897431"><ele>432</ele>
<time>2022-05-16T17:42:45.500000+02:00</time>
</trkpt>
<trkpt lat="46.980236" lon="6.897805"><ele>431.8</ele>
<time>2022-05-16T17:42:52.600000+02:00</time>
</trkpt>
<trkpt lat="46.980329" lon="6.89818"><ele>431.7</ele>
<time>2022-05-16T17:42:59.800000+02:00</time>
</trkpt>
<trkpt lat="46.980436" lon="6.898735"><ele>431.7</ele>
<time>2022-05-16T17:43:10.200000+02:00</time>
</trkpt>
<trkpt lat="46.98055" lon="6.89932"><ele>431.6</ele>
<time>2022-05-16T17:43:21.100000+02:00</time>
</trkpt>
<trkpt lat="46.980628" lon="6.899755"><ele>431.6</ele>
<time>2022-05-16T17:43:29.200000+02:00</time>
</trkpt>
<trkpt lat="46.980717" lon="6.900291"><ele>431.5</ele>
<time>2022-05-16T17:43:39.200000+02:00</time>
</trkpt>
<trkpt lat="46.980788" lon="6.900705"><ele>431.6</ele>
<time>2022-05-16T17:43:46.900000+02:00</time>
</trkpt>
<trkpt lat="46.98086" lon="6.901123"><ele>431.7</ele>
<time>2022-05-16T17:43:54.600000+02:00</time>
</trkpt>
<trkpt lat="46.980921" lon="6.901499"><ele>431.2</ele>
<time>2022-05-16T17:44:00.400000+02:00</time>
</trkpt>
<trkpt lat="46.980983" lon="6.901879"><ele>431.2</ele>
<time>2022-05-16T17:44:07.400000+02:00</time>
</trkpt>
<trkpt lat="46.980999" lon="6.90202"><ele>431.2</ele>
<time>2022-05-16T17:44:10.000000+02:00</time>
</trkpt>
<trkpt lat="46.980999" lon="6.90202"><ele>431.2</ele>
<time>2022-05-16T17:44:10.000000+02:00</time>
</trkpt>
<trkpt lat="46.981038" lon="6.902228"><ele>431.5</ele>
<time>2022-05-16T17:44:14.200000+02:00</time>
</trkpt>
<trkpt lat="46.981057" lon="6.902542"><ele>431.5</ele>
<time>2022-05-16T17:44:20.000000+02:00</time>
</trkpt>
<trkpt lat="46.981083" lon="6.902876"><ele>431.1</ele>
<time>2022-05-16T17:44:25.100000+02:00</time>
</trkpt>
<trkpt lat="46.98107" lon="6.903176"><ele>431.5</ele>
<time>2022-05-16T17:44:30.900000+02:00</time>
</trkpt>
<trkpt lat="46.981038" lon="6.903391"><ele>431.7</ele>
<time>2022-05-16T17:44:35.100000+02:00</time>
</trkpt>
<trkpt lat="46.981038" lon="6.903391"><ele>431.7</ele>
<time>2022-05-16T17:44:35.200000+02:00</time>
</trkpt>
<trkpt lat="46.980964" lon="6.903746"><ele>432.3</ele>
<time>2022-05-16T17:44:42.500000+02:00</time>
</trkpt>
<trkpt lat="46.980964" lon="6.903746"><ele>432.3</ele>
<time>2022-05-16T17:44:42.600000+02:00</time>
</trkpt>
<trkpt lat="46.980905" lon="6.904157"><ele>432.5</ele>
<time>2022-05-16T17:44:50.300000+02:00</time>
</trkpt>
<trkpt lat="46.980845" lon="6.904565"><ele>432.7</ele>
<time>2022-05-16T17:44:58.100000+02:00</time>
</trkpt>
<trkpt lat="46.980845" lon="6.904565"><ele>432.7</ele>
<time>2022-05-16T17:44:58.200000+02:00</time>
</trkpt>
<trkpt lat="46.980809" lon="6.904944"><ele>432.7</ele>
<time>2022-05-16T17:45:05.100000+02:00</time>
</trkpt>
<trkpt lat="46.980809" lon="6.904944"><ele>432.7</ele>
<time>2022-05-16T17:45:05.200000+02:00</time>
</trkpt>
<trkpt lat="46.980789" lon="6.905435"><ele>432</ele>
<time>2022-05-16T17:45:12.500000+02:00</time>
</trkpt>
<trkpt lat="46.980789" lon="6.905435"><ele>432</ele>
<time>2022-05-16T17:45:12.500000+02:00</time>
</trkpt>
<trkpt lat="46.980787" lon="6.905863"><ele>432.3</ele>
<time>2022-05-16T17:45:20.600000+02:00</time>
</trkpt>
<trkpt lat="46.980787" lon="6.905863"><ele>432.3</ele>
<time>2022-05-16T17:45:20.600000+02:00</time>
</trkpt>
<trkpt lat="46.980804" lon="6.906178"><ele>432.3</ele>
<time>2022-05-16T17:45:26.300000+02:00</time>
</trkpt>
<trkpt lat="46.980874" lon="6.906551"><ele>432.1</ele>
<time>2022-05-16T17:45:33.400000+02:00</time>
</trkpt>
<trkpt lat="46.980931" lon="6.906787"><ele>432.2</ele>
<time>2022-05-16T17:45:37.900000+02:00</time>
</trkpt>
<trkpt lat="46.980974" lon="6.90694"><ele>432.3</ele>
<time>2022-05-16T17:45:40.900000+02:00</time>
</trkpt>
<trkpt lat="46.981016" lon="6.907094"><ele>432.3</ele>
<time>2022-05-16T17:45:43.900000+02:00</time>
</trkpt>
<trkpt lat="46.981068" lon="6.907252"><ele>432.4</ele>
<time>2022-05-16T17:45:47.100000+02:00</time>
</trkpt>
<trkpt lat="46.981171" lon="6.907494"><ele>432.4</ele>
<time>2022-05-16T17:45:52.300000+02:00</time>
</trkpt>
<trkpt lat="46.981372" lon="6.90785"><ele>432.5</ele>
<time>2022-05-16T17:46:00.700000+02:00</time>
</trkpt>
<trkpt lat="46.981518" lon="6.908147"><ele>432.5</ele>
<time>2022-05-16T17:46:07.400000+02:00</time>
</trkpt>
<trkpt lat="46.981518" lon="6.908147"><ele>432.5</ele>
<time>2022-05-16T17:46:07.400000+02:00</time>
</trkpt>
<trkpt lat="46.981749" lon="6.908561"><ele>432.5</ele>
<time>2022-05-16T17:46:17.000000+02:00</time>
</trkpt>
<trkpt lat="46.981845" lon="6.908751"><ele>432.5</ele>
<time>2022-05-16T17:46:21.300000+02:00</time>
</trkpt>
<trkpt lat="46.981899" lon="6.908846"><ele>432.4</ele>
<time>2022-05-16T17:46:23.200000+02:00</time>
</trkpt>
<trkpt lat="46.981952" lon="6.908938"><ele>432.4</ele>
<time>2022-05-16T17:46:25.300000+02:00</time>
</trkpt>
<trkpt lat="46.982129" lon="6.909246"><ele>432.4</ele>
<time>2022-05-16T17:46:32.600000+02:00</time>
</trkpt>
<trkpt lat="46.982394" lon="6.909684"><ele>432.3</ele>
<time>2022-05-16T17:46:43.200000+02:00</time>
</trkpt>
<trkpt lat="46.982681" lon="6.910073"><ele>432.3</ele>
<time>2022-05-16T17:46:53.500000+02:00</time>
</trkpt>
<trkpt lat="46.982919" lon="6.910353"><ele>432.3</ele>
<time>2022-05-16T17:47:01.600000+02:00</time>
</trkpt>
<trkpt lat="46.983157" lon="6.910633"><ele>432.2</ele>
<time>2022-05-16T17:47:09.700000+02:00</time>
</trkpt>
<trkpt lat="46.983395" lon="6.910914"><ele>432.2</ele>
<time>2022-05-16T17:47:17.700000+02:00</time>
</trkpt>
<trkpt lat="46.983567" lon="6.911121"><ele>432.1</ele>
<time>2022-05-16T17:47:23.600000+02:00</time>
</trkpt>
<trkpt lat="46.983738" lon="6.911328"><ele>432</ele>
<time>2022-05-16T17:47:29.500000+02:00</time>
</trkpt>
<trkpt lat="46.983909" lon="6.911534"><ele>432</ele>
<time>2022-05-16T17:47:35.400000+02:00</time>
</trkpt>
<trkpt lat="46.984081" lon="6.911741"><ele>432</ele>
<time>2022-05-16T17:47:41.200000+02:00</time>
</trkpt>
<trkpt lat="46.984334" lon="6.912077"><ele>432</ele>
<time>2022-05-16T17:47:50.300000+02:00</time>
</trkpt>
<trkpt lat="46.984334" lon="6.912077"><ele>432</ele>
<time>2022-05-16T17:47:50.300000+02:00</time>
</trkpt>
<trkpt lat="46.984508" lon="6.912308"><ele>432.1</ele>
<time>2022-05-16T17:47:56.300000+02:00</time>
</trkpt>
<trkpt lat="46.984682" lon="6.912539"><ele>431.9</ele>
<time>2022-05-16T17:48:02.400000+02:00</time>
</trkpt>
<trkpt lat="46.984682" lon="6.912539"><ele>431.9</ele>
<time>2022-05-16T17:48:02.400000+02:00</time>
</trkpt>
<trkpt lat="46.984996" lon="6.912955"><ele>431.6</ele>
<time>2022-05-16T17:48:13.500000+02:00</time>
</trkpt>
<trkpt lat="46.985182" lon="6.913255"><ele>431.7</ele>
<time>2022-05-16T17:48:20.700000+02:00</time>
</trkpt>
<trkpt lat="46.985367" lon="6.913556"><ele>431.7</ele>
<time>2022-05-16T17:48:27.900000+02:00</time>
</trkpt>
<trkpt lat="46.985383" lon="6.913637"><ele>431.6</ele>
<time>2022-05-16T17:48:29.200000+02:00</time>
</trkpt>
<trkpt lat="46.985449" lon="6.913738"><ele>431.6</ele>
<time>2022-05-16T17:48:31.700000+02:00</time>
</trkpt>
<trkpt lat="46.985504" lon="6.913778"><ele>431.8</ele>
<time>2022-05-16T17:48:33.600000+02:00</time>
</trkpt>
<trkpt lat="46.98558" lon="6.913901"><ele>431.8</ele>
<time>2022-05-16T17:48:36.500000+02:00</time>
</trkpt>
<trkpt lat="46.98558" lon="6.913901"><ele>431.8</ele>
<time>2022-05-16T17:48:36.500000+02:00</time>
</trkpt>
<trkpt lat="46.985698" lon="6.914094"><ele>431.6</ele>
<time>2022-05-16T17:48:40.600000+02:00</time>
</trkpt>
<trkpt lat="46.985953" lon="6.914554"><ele>431.7</ele>
<time>2022-05-16T17:48:51.600000+02:00</time>
</trkpt>
<trkpt lat="46.986064" lon="6.914794"><ele>431.7</ele>
<time>2022-05-16T17:48:56.900000+02:00</time>
</trkpt>
<trkpt lat="46.986175" lon="6.915093"><ele>431.7</ele>
<time>2022-05-16T17:49:03.300000+02:00</time>
</trkpt>
<trkpt lat="46.986287" lon="6.915391"><ele>431.9</ele>
<time>2022-05-16T17:49:09.600000+02:00</time>
</trkpt>
<trkpt lat="46.986287" lon="6.915391"><ele>431.9</ele>
<time>2022-05-16T17:49:09.600000+02:00</time>
</trkpt>
<trkpt lat="46.986409" lon="6.91572"><ele>431.9</ele>
<time>2022-05-16T17:49:16.400000+02:00</time>
</trkpt>
<trkpt lat="46.986409" lon="6.91572"><ele>431.9</ele>
<time>2022-05-16T17:49:16.400000+02:00</time>
</trkpt>
<trkpt lat="46.986572" lon="6.916178"><ele>431.8</ele>
<time>2022-05-16T17:49:25.700000+02:00</time>
</trkpt>
<trkpt lat="46.986734" lon="6.916638"><ele>431.8</ele>
<time>2022-05-16T17:49:35.000000+02:00</time>
</trkpt>
<trkpt lat="46.986895" lon="6.917097"><ele>431.7</ele>
<time>2022-05-16T17:49:44.300000+02:00</time>
</trkpt>
<trkpt lat="46.987057" lon="6.917557"><ele>431.6</ele>
<time>2022-05-16T17:49:53.600000+02:00</time>
</trkpt>
<trkpt lat="46.987227" lon="6.917976"><ele>431.7</ele>
<time>2022-05-16T17:50:02.400000+02:00</time>
</trkpt>
<trkpt lat="46.987418" lon="6.918369"><ele>431.7</ele>
<time>2022-05-16T17:50:11.000000+02:00</time>
</trkpt>
<trkpt lat="46.98761" lon="6.918762"><ele>431.6</ele>
<time>2022-05-16T17:50:19.700000+02:00</time>
</trkpt>
<trkpt lat="46.98761" lon="6.918762"><ele>431.6</ele>
<time>2022-05-16T17:50:19.700000+02:00</time>
</trkpt>
<trkpt lat="46.987761" lon="6.919072"><ele>431.6</ele>
<time>2022-05-16T17:50:26.700000+02:00</time>
</trkpt>
<trkpt lat="46.987761" lon="6.919072"><ele>431.6</ele>
<time>2022-05-16T17:50:26.700000+02:00</time>
</trkpt>
<trkpt lat="46.987895" lon="6.919366"><ele>431.7</ele>
<time>2022-05-16T17:50:33.200000+02:00</time>
</trkpt>
<trkpt lat="46.988029" lon="6.91966"><ele>431.4</ele>
<time>2022-05-16T17:50:38.600000+02:00</time>
</trkpt>
<trkpt lat="46.988135" lon="6.919906"><ele>431.5</ele>
<time>2022-05-16T17:50:43.900000+02:00</time>
</trkpt>
<trkpt lat="46.988252" lon="6.920158"><ele>432.1</ele>
<time>2022-05-16T17:50:50.500000+02:00</time>
</trkpt>
<trkpt lat="46.988365" lon="6.920465"><ele>432.4</ele>
<time>2022-05-16T17:50:57.200000+02:00</time>
</trkpt>
<trkpt lat="46.988485" lon="6.920816"><ele>432.6</ele>
<time>2022-05-16T17:51:04.400000+02:00</time>
</trkpt>
<trkpt lat="46.988606" lon="6.921168"><ele>432.7</ele>
<time>2022-05-16T17:51:11.700000+02:00</time>
</trkpt>
<trkpt lat="46.988665" lon="6.921553"><ele>432.7</ele>
<time>2022-05-16T17:51:18.900000+02:00</time>
</trkpt>
<trkpt lat="46.988692" lon="6.921852"><ele>432.7</ele>
<time>2022-05-16T17:51:24.400000+02:00</time>
</trkpt>
<trkpt lat="46.988693" lon="6.921968"><ele>432.7</ele>
<time>2022-05-16T17:51:26.600000+02:00</time>
</trkpt>
<trkpt lat="46.988703" lon="6.922099"><ele>429.3</ele>
<time>2022-05-16T17:51:31.400000+02:00</time>
</trkpt>
<trkpt lat="46.988675" lon="6.922139"><ele>432.6</ele>
<time>2022-05-16T17:51:37.100000+02:00</time>
</trkpt>
<trkpt lat="46.988462" lon="6.922349"><ele>432.6</ele>
<time>2022-05-16T17:51:43.500000+02:00</time>
</trkpt>
<trkpt lat="46.988249" lon="6.922557"><ele>432.1</ele>
<time>2022-05-16T17:51:48.800000+02:00</time>
</trkpt>
<trkpt lat="46.988444" lon="6.922987"><ele>432.1</ele>
<time>2022-05-16T17:51:57.600000+02:00</time>
</trkpt>
<trkpt lat="46.988444" lon="6.922987"><ele>432.1</ele>
<time>2022-05-16T17:51:57.600000+02:00</time>
</trkpt>
<trkpt lat="46.988527" lon="6.923169"><ele>432</ele>
<time>2022-05-16T17:52:01.300000+02:00</time>
</trkpt>
<trkpt lat="46.988527" lon="6.923169"><ele>432</ele>
<time>2022-05-16T17:52:01.300000+02:00</time>
</trkpt>
<trkpt lat="46.988639" lon="6.923415"><ele>432</ele>
<time>2022-05-16T17:52:06.700000+02:00</time>
</trkpt>
<trkpt lat="46.988657" lon="6.923455"><ele>432.1</ele>
<time>2022-05-16T17:52:07.800000+02:00</time>
</trkpt>
<trkpt lat="46.988719" lon="6.923569"><ele>431.9</ele>
<time>2022-05-16T17:52:10.000000+02:00</time>
</trkpt>
<trkpt lat="46.988757" lon="6.923666"><ele>431.8</ele>
<time>2022-05-16T17:52:12.000000+02:00</time>
</trkpt>
<trkpt lat="46.988855" lon="6.923704"><ele>431.6</ele>
<time>2022-05-16T17:52:14.200000+02:00</time>
</trkpt>
<trkpt lat="46.988936" lon="6.923705"><ele>431.2</ele>
<time>2022-05-16T17:52:15.400000+02:00</time>
</trkpt>
<trkpt lat="46.989043" lon="6.923679"><ele>431.1</ele>
<time>2022-05-16T17:52:18.300000+02:00</time>
</trkpt>
<trkpt lat="46.989043" lon="6.923679"><ele>431.1</ele>
<time>2022-05-16T17:52:18.300000+02:00</time>
</trkpt>
<trkpt lat="46.989162" lon="6.923652"><ele>431</ele>
<time>2022-05-16T17:52:21.400000+02:00</time>
</trkpt>
<trkpt lat="46.98928" lon="6.923639"><ele>431</ele>
<time>2022-05-16T17:52:24.600000+02:00</time>
</trkpt>
<trkpt lat="46.98938" lon="6.923656"><ele>430.9</ele>
<time>2022-05-16T17:52:26.800000+02:00</time>
</trkpt>
<trkpt lat="46.989518" lon="6.92372"><ele>431</ele>
<time>2022-05-16T17:52:30.600000+02:00</time>
</trkpt>
<trkpt lat="46.98962" lon="6.923808"><ele>430.9</ele>
<time>2022-05-16T17:52:33.800000+02:00</time>
</trkpt>
<trkpt lat="46.989707" lon="6.923933"><ele>431</ele>
<time>2022-05-16T17:52:37.000000+02:00</time>
</trkpt>
<trkpt lat="46.989791" lon="6.9241"><ele>431</ele>
<time>2022-05-16T17:52:40.800000+02:00</time>
</trkpt>
<trkpt lat="46.989832" lon="6.924234"><ele>431</ele>
<time>2022-05-16T17:52:43.500000+02:00</time>
</trkpt>
<trkpt lat="46.989868" lon="6.924405"><ele>431</ele>
<time>2022-05-16T17:52:46.700000+02:00</time>
</trkpt>
<trkpt lat="46.98991" lon="6.924617"><ele>431</ele>
<time>2022-05-16T17:52:50.700000+02:00</time>
</trkpt>
<trkpt lat="46.989935" lon="6.924783"><ele>430.9</ele>
<time>2022-05-16T17:52:53.800000+02:00</time>
</trkpt>
<trkpt lat="46.989962" lon="6.92505"><ele>431</ele>
<time>2022-05-16T17:52:58.700000+02:00</time>
</trkpt>
<trkpt lat="46.989995" lon="6.925569"><ele>430.9</ele>
<time>2022-05-16T17:53:08.200000+02:00</time>
</trkpt>
<trkpt lat="46.989977" lon="6.925972"><ele>430.9</ele>
<time>2022-05-16T17:53:15.500000+02:00</time>
</trkpt>
<trkpt lat="46.989917" lon="6.926354"><ele>431</ele>
<time>2022-05-16T17:53:22.600000+02:00</time>
</trkpt>
<trkpt lat="46.989799" lon="6.926782"><ele>431.1</ele>
<time>2022-05-16T17:53:31.000000+02:00</time>
</trkpt>
<trkpt lat="46.989646" lon="6.927183"><ele>432.1</ele>
<time>2022-05-16T17:53:40.800000+02:00</time>
</trkpt>
<trkpt lat="46.989494" lon="6.927585"><ele>433.4</ele>
<time>2022-05-16T17:53:50.700000+02:00</time>
</trkpt>
<trkpt lat="46.989378" lon="6.927761"><ele>433.9</ele>
<time>2022-05-16T17:53:55.900000+02:00</time>
</trkpt>
<trkpt lat="46.989378" lon="6.927761"><ele>433.9</ele>
<time>2022-05-16T17:53:56.400000+02:00</time>
</trkpt>
<trkpt lat="46.989351" lon="6.927774"><ele>433.9</ele>
<time>2022-05-16T17:53:57.200000+02:00</time>
</trkpt>
<trkpt lat="46.989219" lon="6.92783"><ele>434</ele>
<time>2022-05-16T17:54:00.900000+02:00</time>
</trkpt>
<trkpt lat="46.98921" lon="6.927947"><ele>433.9</ele>
<time>2022-05-16T17:54:08.500000+02:00</time>
</trkpt>
<trkpt lat="46.98921" lon="6.927947"><ele>433.9</ele>
<time>2022-05-16T17:54:08.500000+02:00</time>
</trkpt>
<trkpt lat="46.989187" lon="6.928092"><ele>433.9</ele>
<time>2022-05-16T17:54:11.300000+02:00</time>
</trkpt>
<trkpt lat="46.989153" lon="6.928175"><ele>433.9</ele>
<time>2022-05-16T17:54:13.000000+02:00</time>
</trkpt>
<trkpt lat="46.989131" lon="6.928241"><ele>433.9</ele>
<time>2022-05-16T17:54:14.400000+02:00</time>
</trkpt>
<trkpt lat="46.989115" lon="6.928286"><ele>434</ele>
<time>2022-05-16T17:54:15.400000+02:00</time>
</trkpt>
<trkpt lat="46.98911" lon="6.928354"><ele>433.9</ele>
<time>2022-05-16T17:54:19.900000+02:00</time>
</trkpt>
<trkpt lat="46.98916" lon="6.928435"><ele>434</ele>
<time>2022-05-16T17:54:22.100000+02:00</time>
</trkpt>
<trkpt lat="46.989165" lon="6.928452"><ele>433.9</ele>
<time>2022-05-16T17:54:22.200000+02:00</time>
</trkpt>
<trkpt lat="46.989155" lon="6.92861"><ele>434</ele>
<time>2022-05-16T17:54:25.300000+02:00</time>
</trkpt>
<trkpt lat="46.989114" lon="6.928714"><ele>433.9</ele>
<time>2022-05-16T17:54:27.500000+02:00</time>
</trkpt>
<trkpt lat="46.989139" lon="6.928818"><ele>433.9</ele>
<time>2022-05-16T17:54:29.500000+02:00</time>
</trkpt>
<trkpt lat="46.989139" lon="6.928818"><ele>433.9</ele>
<time>2022-05-16T17:54:40.500000+02:00</time>
</trkpt>
<trkpt lat="46.989524" lon="6.928842"><ele>434</ele>
<time>2022-05-16T17:54:50.900000+02:00</time>
</trkpt>
<trkpt lat="46.989608" lon="6.928852"><ele>434.2</ele>
<time>2022-05-16T17:54:53.300000+02:00</time>
</trkpt>
<trkpt lat="46.98963" lon="6.928854"><ele>434.2</ele>
<time>2022-05-16T17:54:53.900000+02:00</time>
</trkpt>
<trkpt lat="46.98963" lon="6.928854"><ele>434.2</ele>
<time>2022-05-16T17:54:54.000000+02:00</time>
</trkpt>
<trkpt lat="46.9898" lon="6.928931"><ele>434.2</ele>
<time>2022-05-16T17:54:58.800000+02:00</time>
</trkpt>
<trkpt lat="46.9898" lon="6.928931"><ele>434.2</ele>
<time>2022-05-16T17:54:58.800000+02:00</time>
</trkpt>
<trkpt lat="46.989905" lon="6.928992"><ele>434.3</ele>
<time>2022-05-16T17:55:01.900000+02:00</time>
</trkpt>
<trkpt lat="46.989905" lon="6.928992"><ele>434.3</ele>
<time>2022-05-16T17:55:02.100000+02:00</time>
</trkpt>
<trkpt lat="46.99001" lon="6.929117"><ele>434.4</ele>
<time>2022-05-16T17:55:05.800000+02:00</time>
</trkpt>
<trkpt lat="46.99001" lon="6.929117"><ele>434.4</ele>
<time>2022-05-16T17:55:07.000000+02:00</time>
</trkpt>
<trkpt lat="46.99034" lon="6.929175"><ele>434.2</ele>
<time>2022-05-16T17:55:15.300000+02:00</time>
</trkpt>
<trkpt lat="46.99034" lon="6.929175"><ele>434.2</ele>
<time>2022-05-16T17:55:15.700000+02:00</time>
</trkpt>
<trkpt lat="46.990426" lon="6.929244"><ele>434.2</ele>
<time>2022-05-16T17:55:18.300000+02:00</time>
</trkpt>
<trkpt lat="46.990426" lon="6.929244"><ele>434.2</ele>
<time>2022-05-16T17:55:20.000000+02:00</time>
</trkpt>
<trkpt lat="46.990789" lon="6.929157"><ele>434.5</ele>
<time>2022-05-16T17:55:30.000000+02:00</time>
</trkpt>
<trkpt lat="46.990789" lon="6.929157"><ele>434.5</ele>
<time>2022-05-16T17:55:30.000000+02:00</time>
</trkpt>
<trkpt lat="46.991047" lon="6.929098"><ele>434.7</ele>
<time>2022-05-16T17:55:37.100000+02:00</time>
</trkpt>
<trkpt lat="46.991047" lon="6.929098"><ele>434.7</ele>
<time>2022-05-16T17:55:37.100000+02:00</time>
</trkpt>
<trkpt lat="46.991255" lon="6.929038"><ele>434.9</ele>
<time>2022-05-16T17:55:42.900000+02:00</time>
</trkpt>
<trkpt lat="46.991255" lon="6.929038"><ele>434.9</ele>
<time>2022-05-16T17:55:43.000000+02:00</time>
</trkpt>
<trkpt lat="46.991464" lon="6.928964"><ele>435.2</ele>
<time>2022-05-16T17:55:48.900000+02:00</time>
</trkpt>
<trkpt lat="46.991464" lon="6.928964"><ele>435.2</ele>
<time>2022-05-16T17:55:48.900000+02:00</time>
</trkpt>
<trkpt lat="46.991764" lon="6.928868"><ele>435.5</ele>
<time>2022-05-16T17:55:57.400000+02:00</time>
</trkpt>
<trkpt lat="46.991764" lon="6.928868"><ele>435.5</ele>
<time>2022-05-16T17:55:57.500000+02:00</time>
</trkpt>
<trkpt lat="46.992044" lon="6.928689"><ele>435.9</ele>
<time>2022-05-16T17:56:05.900000+02:00</time>
</trkpt>
<trkpt lat="46.992324" lon="6.928512"><ele>436.2</ele>
<time>2022-05-16T17:56:14.300000+02:00</time>
</trkpt>
</trkseg>
</trk>
</gpx>
